<?xml version="1.0" encoding="UTF-8" standalone="no" ?>
<gpx xmlns="http://www.topografix.com/GPX/1/1" xmlns:xsi="http://www.w3.org/2001/XMLSchema-instance" xsi:schemaLocation="http://www.topografix.com/GPX/1/1 http://www.topografix.com/GPX/1/1/gpx.xsd" version="1.1" creator="VisuGPX - https://www.visugpx.com">
  <metadata>
    <name>lignan de bordeaux</name>
    <desc><![CDATA[boucle de 26 km dans l\'entre 2 mers entre lignan-créon-camarsac]]></desc>
  </metadata>
  <trk>
    <name><![CDATA[2011-08-15T07:18:58Z]]></name>
    <trkseg>
      <trkpt lat="44.79701" lon="-0.42697">
        <ele>26.0928955</ele>
        <time>2011-08-15T07:19:02Z</time>
      </trkpt>
      <trkpt lat="44.797" lon="-0.42694">
        <ele>26.0928955</ele>
        <time>2011-08-15T07:19:03Z</time>
      </trkpt>
      <trkpt lat="44.7969" lon="-0.42692">
        <ele>26.5736084</ele>
        <time>2011-08-15T07:19:09Z</time>
      </trkpt>
      <trkpt lat="44.79682" lon="-0.42697">
        <ele>26.5736084</ele>
        <time>2011-08-15T07:19:14Z</time>
      </trkpt>
      <trkpt lat="44.79674" lon="-0.42687">
        <ele>26.5736084</ele>
        <time>2011-08-15T07:19:19Z</time>
      </trkpt>
      <trkpt lat="44.79662" lon="-0.42662">
        <ele>26.5736084</ele>
        <time>2011-08-15T07:19:27Z</time>
      </trkpt>
      <trkpt lat="44.79648" lon="-0.42638">
        <ele>27.0543213</ele>
        <time>2011-08-15T07:19:35Z</time>
      </trkpt>
      <trkpt lat="44.79635" lon="-0.42619">
        <ele>28.9769287</ele>
        <time>2011-08-15T07:19:42Z</time>
      </trkpt>
      <trkpt lat="44.79621" lon="-0.42603">
        <ele>28.4962158</ele>
        <time>2011-08-15T07:19:48Z</time>
      </trkpt>
      <trkpt lat="44.7961" lon="-0.4259">
        <ele>28.0155029</ele>
        <time>2011-08-15T07:19:53Z</time>
      </trkpt>
      <trkpt lat="44.79592" lon="-0.42572">
        <ele>27.5349121</ele>
        <time>2011-08-15T07:20:00Z</time>
      </trkpt>
      <trkpt lat="44.79582" lon="-0.4256">
        <ele>26.5736084</ele>
        <time>2011-08-15T07:20:05Z</time>
      </trkpt>
      <trkpt lat="44.79565" lon="-0.42546">
        <ele>26.5736084</ele>
        <time>2011-08-15T07:20:11Z</time>
      </trkpt>
      <trkpt lat="44.79542" lon="-0.42532">
        <ele>26.0928955</ele>
        <time>2011-08-15T07:20:18Z</time>
      </trkpt>
      <trkpt lat="44.79527" lon="-0.42523">
        <ele>25.6123047</ele>
        <time>2011-08-15T07:20:23Z</time>
      </trkpt>
      <trkpt lat="44.79508" lon="-0.42512">
        <ele>25.6123047</ele>
        <time>2011-08-15T07:20:29Z</time>
      </trkpt>
      <trkpt lat="44.7948" lon="-0.42497">
        <ele>27.5349121</ele>
        <time>2011-08-15T07:20:38Z</time>
      </trkpt>
      <trkpt lat="44.79455" lon="-0.42484">
        <ele>28.0155029</ele>
        <time>2011-08-15T07:20:46Z</time>
      </trkpt>
      <trkpt lat="44.79436" lon="-0.42473">
        <ele>28.9769287</ele>
        <time>2011-08-15T07:20:53Z</time>
      </trkpt>
      <trkpt lat="44.7942" lon="-0.42464">
        <ele>29.4575195</ele>
        <time>2011-08-15T07:20:58Z</time>
      </trkpt>
      <trkpt lat="44.79406" lon="-0.42456">
        <ele>30.8995361</ele>
        <time>2011-08-15T07:21:03Z</time>
      </trkpt>
      <trkpt lat="44.79396" lon="-0.42452">
        <ele>30.8995361</ele>
        <time>2011-08-15T07:21:07Z</time>
      </trkpt>
      <trkpt lat="44.79369" lon="-0.42438">
        <ele>32.8222656</ele>
        <time>2011-08-15T07:21:15Z</time>
      </trkpt>
      <trkpt lat="44.79354" lon="-0.4243">
        <ele>33.7834473</ele>
        <time>2011-08-15T07:21:20Z</time>
      </trkpt>
      <trkpt lat="44.79339" lon="-0.42421">
        <ele>32.3415527</ele>
        <time>2011-08-15T07:21:25Z</time>
      </trkpt>
      <trkpt lat="44.79317" lon="-0.4241">
        <ele>30.4188232</ele>
        <time>2011-08-15T07:21:32Z</time>
      </trkpt>
      <trkpt lat="44.79299" lon="-0.424">
        <ele>30.4188232</ele>
        <time>2011-08-15T07:21:37Z</time>
      </trkpt>
      <trkpt lat="44.7927" lon="-0.42385">
        <ele>33.3028564</ele>
        <time>2011-08-15T07:21:46Z</time>
      </trkpt>
      <trkpt lat="44.79249" lon="-0.42372">
        <ele>32.8222656</ele>
        <time>2011-08-15T07:21:53Z</time>
      </trkpt>
      <trkpt lat="44.79226" lon="-0.42357">
        <ele>33.3028564</ele>
        <time>2011-08-15T07:22:01Z</time>
      </trkpt>
      <trkpt lat="44.79207" lon="-0.42343">
        <ele>35.2254639</ele>
        <time>2011-08-15T07:22:07Z</time>
      </trkpt>
      <trkpt lat="44.7919" lon="-0.42327">
        <ele>34.744873</ele>
        <time>2011-08-15T07:22:13Z</time>
      </trkpt>
      <trkpt lat="44.79175" lon="-0.42307">
        <ele>31.8607178</ele>
        <time>2011-08-15T07:22:19Z</time>
      </trkpt>
      <trkpt lat="44.7916" lon="-0.42289">
        <ele>27.5349121</ele>
        <time>2011-08-15T07:22:25Z</time>
      </trkpt>
      <trkpt lat="44.79147" lon="-0.42271">
        <ele>28.0155029</ele>
        <time>2011-08-15T07:22:30Z</time>
      </trkpt>
      <trkpt lat="44.7913" lon="-0.42247">
        <ele>30.4188232</ele>
        <time>2011-08-15T07:22:36Z</time>
      </trkpt>
      <trkpt lat="44.79113" lon="-0.42214">
        <ele>36.6674805</ele>
        <time>2011-08-15T07:22:43Z</time>
      </trkpt>
      <trkpt lat="44.791" lon="-0.42184">
        <ele>38.109375</ele>
        <time>2011-08-15T07:22:49Z</time>
      </trkpt>
      <trkpt lat="44.79096" lon="-0.42173">
        <ele>39.0706787</ele>
        <time>2011-08-15T07:22:51Z</time>
      </trkpt>
      <trkpt lat="44.79083" lon="-0.42143">
        <ele>40.5128174</ele>
        <time>2011-08-15T07:22:57Z</time>
      </trkpt>
      <trkpt lat="44.79075" lon="-0.42118">
        <ele>34.2641602</ele>
        <time>2011-08-15T07:23:03Z</time>
      </trkpt>
      <trkpt lat="44.79068" lon="-0.42095">
        <ele>32.3415527</ele>
        <time>2011-08-15T07:23:08Z</time>
      </trkpt>
      <trkpt lat="44.79056" lon="-0.42068">
        <ele>30.4188232</ele>
        <time>2011-08-15T07:23:14Z</time>
      </trkpt>
      <trkpt lat="44.79049" lon="-0.42053">
        <ele>29.4575195</ele>
        <time>2011-08-15T07:23:17Z</time>
      </trkpt>
      <trkpt lat="44.79033" lon="-0.42023">
        <ele>34.744873</ele>
        <time>2011-08-15T07:23:23Z</time>
      </trkpt>
      <trkpt lat="44.79023" lon="-0.42005">
        <ele>34.2641602</ele>
        <time>2011-08-15T07:23:27Z</time>
      </trkpt>
      <trkpt lat="44.79011" lon="-0.41981">
        <ele>38.5900879</ele>
        <time>2011-08-15T07:23:32Z</time>
      </trkpt>
      <trkpt lat="44.79005" lon="-0.41973">
        <ele>38.5900879</ele>
        <time>2011-08-15T07:23:34Z</time>
      </trkpt>
      <trkpt lat="44.78986" lon="-0.41961">
        <ele>36.6674805</ele>
        <time>2011-08-15T07:23:40Z</time>
      </trkpt>
      <trkpt lat="44.78975" lon="-0.41952">
        <ele>37.6286621</ele>
        <time>2011-08-15T07:23:44Z</time>
      </trkpt>
      <trkpt lat="44.7896" lon="-0.41943">
        <ele>35.7060547</ele>
        <time>2011-08-15T07:23:51Z</time>
      </trkpt>
      <trkpt lat="44.78949" lon="-0.41926">
        <ele>28.9769287</ele>
        <time>2011-08-15T07:23:57Z</time>
      </trkpt>
      <trkpt lat="44.78942" lon="-0.41913">
        <ele>24.651001</ele>
        <time>2011-08-15T07:24:01Z</time>
      </trkpt>
      <trkpt lat="44.78937" lon="-0.41905">
        <ele>24.1702881</ele>
        <time>2011-08-15T07:24:03Z</time>
      </trkpt>
      <trkpt lat="44.78932" lon="-0.41888">
        <ele>20.8056641</ele>
        <time>2011-08-15T07:24:07Z</time>
      </trkpt>
      <trkpt lat="44.7893" lon="-0.41871">
        <ele>15.5184326</ele>
        <time>2011-08-15T07:24:11Z</time>
      </trkpt>
      <trkpt lat="44.78935" lon="-0.41856">
        <ele>14.076416</ele>
        <time>2011-08-15T07:24:16Z</time>
      </trkpt>
      <trkpt lat="44.78933" lon="-0.41841">
        <ele>12.6343994</ele>
        <time>2011-08-15T07:24:20Z</time>
      </trkpt>
      <trkpt lat="44.78933" lon="-0.41823">
        <ele>14.076416</ele>
        <time>2011-08-15T07:24:24Z</time>
      </trkpt>
      <trkpt lat="44.78927" lon="-0.41812">
        <ele>17.4411621</ele>
        <time>2011-08-15T07:24:26Z</time>
      </trkpt>
      <trkpt lat="44.78916" lon="-0.41791">
        <ele>23.6895752</ele>
        <time>2011-08-15T07:24:30Z</time>
      </trkpt>
      <trkpt lat="44.78894" lon="-0.41753">
        <ele>31.8607178</ele>
        <time>2011-08-15T07:24:39Z</time>
      </trkpt>
      <trkpt lat="44.78884" lon="-0.41734">
        <ele>31.8607178</ele>
        <time>2011-08-15T07:24:44Z</time>
      </trkpt>
      <trkpt lat="44.78873" lon="-0.41711">
        <ele>32.8222656</ele>
        <time>2011-08-15T07:24:49Z</time>
      </trkpt>
      <trkpt lat="44.78853" lon="-0.41673">
        <ele>33.3028564</ele>
        <time>2011-08-15T07:24:58Z</time>
      </trkpt>
      <trkpt lat="44.78837" lon="-0.41643">
        <ele>34.744873</ele>
        <time>2011-08-15T07:25:05Z</time>
      </trkpt>
      <trkpt lat="44.78823" lon="-0.41616">
        <ele>36.1867676</ele>
        <time>2011-08-15T07:25:11Z</time>
      </trkpt>
      <trkpt lat="44.78802" lon="-0.41576">
        <ele>38.109375</ele>
        <time>2011-08-15T07:25:20Z</time>
      </trkpt>
      <trkpt lat="44.78786" lon="-0.41547">
        <ele>39.5512695</ele>
        <time>2011-08-15T07:25:28Z</time>
      </trkpt>
      <trkpt lat="44.78775" lon="-0.41524">
        <ele>39.5512695</ele>
        <time>2011-08-15T07:25:34Z</time>
      </trkpt>
      <trkpt lat="44.78758" lon="-0.41489">
        <ele>40.0321045</ele>
        <time>2011-08-15T07:25:42Z</time>
      </trkpt>
      <trkpt lat="44.78738" lon="-0.41447">
        <ele>40.9934082</ele>
        <time>2011-08-15T07:25:51Z</time>
      </trkpt>
      <trkpt lat="44.7872" lon="-0.41413">
        <ele>41.9547119</ele>
        <time>2011-08-15T07:25:58Z</time>
      </trkpt>
      <trkpt lat="44.787" lon="-0.41373">
        <ele>41.9547119</ele>
        <time>2011-08-15T07:26:06Z</time>
      </trkpt>
      <trkpt lat="44.78675" lon="-0.41326">
        <ele>41.9547119</ele>
        <time>2011-08-15T07:26:15Z</time>
      </trkpt>
      <trkpt lat="44.78659" lon="-0.41295">
        <ele>42.4354248</ele>
        <time>2011-08-15T07:26:21Z</time>
      </trkpt>
      <trkpt lat="44.78643" lon="-0.41264">
        <ele>42.9160156</ele>
        <time>2011-08-15T07:26:27Z</time>
      </trkpt>
      <trkpt lat="44.78638" lon="-0.41253">
        <ele>42.4354248</ele>
        <time>2011-08-15T07:26:29Z</time>
      </trkpt>
      <trkpt lat="44.78625" lon="-0.41228">
        <ele>41.9547119</ele>
        <time>2011-08-15T07:26:34Z</time>
      </trkpt>
      <trkpt lat="44.78603" lon="-0.41186">
        <ele>47.7225342</ele>
        <time>2011-08-15T07:26:42Z</time>
      </trkpt>
      <trkpt lat="44.78599" lon="-0.41175">
        <ele>47.7225342</ele>
        <time>2011-08-15T07:26:44Z</time>
      </trkpt>
      <trkpt lat="44.78579" lon="-0.41141">
        <ele>48.2033691</ele>
        <time>2011-08-15T07:26:51Z</time>
      </trkpt>
      <trkpt lat="44.78566" lon="-0.41117">
        <ele>47.2418213</ele>
        <time>2011-08-15T07:26:56Z</time>
      </trkpt>
      <trkpt lat="44.78543" lon="-0.41067">
        <ele>41.9547119</ele>
        <time>2011-08-15T07:27:06Z</time>
      </trkpt>
      <trkpt lat="44.78528" lon="-0.41038">
        <ele>37.1480713</ele>
        <time>2011-08-15T07:27:13Z</time>
      </trkpt>
      <trkpt lat="44.78526" lon="-0.41034">
        <ele>37.1480713</ele>
        <time>2011-08-15T07:27:14Z</time>
      </trkpt>
      <trkpt lat="44.78517" lon="-0.41036">
        <ele>38.109375</ele>
        <time>2011-08-15T07:27:17Z</time>
      </trkpt>
      <trkpt lat="44.78498" lon="-0.4105">
        <ele>35.2254639</ele>
        <time>2011-08-15T07:27:22Z</time>
      </trkpt>
      <trkpt lat="44.78485" lon="-0.41057">
        <ele>34.744873</ele>
        <time>2011-08-15T07:27:25Z</time>
      </trkpt>
      <trkpt lat="44.7846" lon="-0.4106">
        <ele>35.2254639</ele>
        <time>2011-08-15T07:27:31Z</time>
      </trkpt>
      <trkpt lat="44.78457" lon="-0.4106">
        <ele>35.2254639</ele>
        <time>2011-08-15T07:27:32Z</time>
      </trkpt>
      <trkpt lat="44.78444" lon="-0.41061">
        <ele>36.6674805</ele>
        <time>2011-08-15T07:27:37Z</time>
      </trkpt>
      <trkpt lat="44.78445" lon="-0.41055">
        <ele>37.6286621</ele>
        <time>2011-08-15T07:27:40Z</time>
      </trkpt>
      <trkpt lat="44.78446" lon="-0.41053">
        <ele>37.6286621</ele>
        <time>2011-08-15T07:27:42Z</time>
      </trkpt>
      <trkpt lat="44.78442" lon="-0.41047">
        <ele>39.5512695</ele>
        <time>2011-08-15T07:27:48Z</time>
      </trkpt>
      <trkpt lat="44.78436" lon="-0.41038">
        <ele>39.5512695</ele>
        <time>2011-08-15T07:27:52Z</time>
      </trkpt>
      <trkpt lat="44.78424" lon="-0.41023">
        <ele>40.5128174</ele>
        <time>2011-08-15T07:27:59Z</time>
      </trkpt>
      <trkpt lat="44.78413" lon="-0.41005">
        <ele>40.5128174</ele>
        <time>2011-08-15T07:28:04Z</time>
      </trkpt>
      <trkpt lat="44.78406" lon="-0.4099">
        <ele>40.0321045</ele>
        <time>2011-08-15T07:28:08Z</time>
      </trkpt>
      <trkpt lat="44.78397" lon="-0.40975">
        <ele>40.0321045</ele>
        <time>2011-08-15T07:28:13Z</time>
      </trkpt>
      <trkpt lat="44.78384" lon="-0.40958">
        <ele>40.9934082</ele>
        <time>2011-08-15T07:28:18Z</time>
      </trkpt>
      <trkpt lat="44.7836" lon="-0.40937">
        <ele>42.9160156</ele>
        <time>2011-08-15T07:28:26Z</time>
      </trkpt>
      <trkpt lat="44.78345" lon="-0.40924">
        <ele>40.9934082</ele>
        <time>2011-08-15T07:28:32Z</time>
      </trkpt>
      <trkpt lat="44.78335" lon="-0.40918">
        <ele>40.5128174</ele>
        <time>2011-08-15T07:28:37Z</time>
      </trkpt>
      <trkpt lat="44.78324" lon="-0.40911">
        <ele>38.5900879</ele>
        <time>2011-08-15T07:28:41Z</time>
      </trkpt>
      <trkpt lat="44.78304" lon="-0.40903">
        <ele>35.2254639</ele>
        <time>2011-08-15T07:28:47Z</time>
      </trkpt>
      <trkpt lat="44.78285" lon="-0.40894">
        <ele>37.6286621</ele>
        <time>2011-08-15T07:28:53Z</time>
      </trkpt>
      <trkpt lat="44.78277" lon="-0.40889">
        <ele>40.5128174</ele>
        <time>2011-08-15T07:28:56Z</time>
      </trkpt>
      <trkpt lat="44.78257" lon="-0.40878">
        <ele>40.9934082</ele>
        <time>2011-08-15T07:29:03Z</time>
      </trkpt>
      <trkpt lat="44.78242" lon="-0.40869">
        <ele>43.3966064</ele>
        <time>2011-08-15T07:29:08Z</time>
      </trkpt>
      <trkpt lat="44.78228" lon="-0.40862">
        <ele>47.2418213</ele>
        <time>2011-08-15T07:29:13Z</time>
      </trkpt>
      <trkpt lat="44.78214" lon="-0.40851">
        <ele>52.5291748</ele>
        <time>2011-08-15T07:29:19Z</time>
      </trkpt>
      <trkpt lat="44.78198" lon="-0.40844">
        <ele>51.0871582</ele>
        <time>2011-08-15T07:29:23Z</time>
      </trkpt>
      <trkpt lat="44.78181" lon="-0.40833">
        <ele>47.2418213</ele>
        <time>2011-08-15T07:29:28Z</time>
      </trkpt>
      <trkpt lat="44.78159" lon="-0.40822">
        <ele>42.4354248</ele>
        <time>2011-08-15T07:29:34Z</time>
      </trkpt>
      <trkpt lat="44.78145" lon="-0.40819">
        <ele>41.473999</ele>
        <time>2011-08-15T07:29:38Z</time>
      </trkpt>
      <trkpt lat="44.7814" lon="-0.40821">
        <ele>41.9547119</ele>
        <time>2011-08-15T07:29:42Z</time>
      </trkpt>
      <trkpt lat="44.78133" lon="-0.40824">
        <ele>42.4354248</ele>
        <time>2011-08-15T07:29:47Z</time>
      </trkpt>
      <trkpt lat="44.78131" lon="-0.40826">
        <ele>42.4354248</ele>
        <time>2011-08-15T07:29:48Z</time>
      </trkpt>
      <trkpt lat="44.7812" lon="-0.40839">
        <ele>45.7999268</ele>
        <time>2011-08-15T07:29:54Z</time>
      </trkpt>
      <trkpt lat="44.78114" lon="-0.40846">
        <ele>47.2418213</ele>
        <time>2011-08-15T07:29:57Z</time>
      </trkpt>
      <trkpt lat="44.78116" lon="-0.40856">
        <ele>46.7612305</ele>
        <time>2011-08-15T07:30:00Z</time>
      </trkpt>
      <trkpt lat="44.78109" lon="-0.40861">
        <ele>47.2418213</ele>
        <time>2011-08-15T07:30:04Z</time>
      </trkpt>
      <trkpt lat="44.78089" lon="-0.40854">
        <ele>46.2806396</ele>
        <time>2011-08-15T07:30:12Z</time>
      </trkpt>
      <trkpt lat="44.78077" lon="-0.40847">
        <ele>45.7999268</ele>
        <time>2011-08-15T07:30:16Z</time>
      </trkpt>
      <trkpt lat="44.78057" lon="-0.40836">
        <ele>47.2418213</ele>
        <time>2011-08-15T07:30:21Z</time>
      </trkpt>
      <trkpt lat="44.7804" lon="-0.40819">
        <ele>49.1645508</ele>
        <time>2011-08-15T07:30:26Z</time>
      </trkpt>
      <trkpt lat="44.78023" lon="-0.408">
        <ele>49.1645508</ele>
        <time>2011-08-15T07:30:31Z</time>
      </trkpt>
      <trkpt lat="44.78021" lon="-0.40796">
        <ele>49.6452637</ele>
        <time>2011-08-15T07:30:32Z</time>
      </trkpt>
      <trkpt lat="44.78016" lon="-0.40788">
        <ele>49.6452637</ele>
        <time>2011-08-15T07:30:34Z</time>
      </trkpt>
      <trkpt lat="44.78002" lon="-0.40772">
        <ele>53.9711914</ele>
        <time>2011-08-15T07:30:39Z</time>
      </trkpt>
      <trkpt lat="44.77989" lon="-0.40759">
        <ele>54.932373</ele>
        <time>2011-08-15T07:30:44Z</time>
      </trkpt>
      <trkpt lat="44.77984" lon="-0.40742">
        <ele>52.048584</ele>
        <time>2011-08-15T07:30:48Z</time>
      </trkpt>
      <trkpt lat="44.77981" lon="-0.40726">
        <ele>52.048584</ele>
        <time>2011-08-15T07:30:52Z</time>
      </trkpt>
      <trkpt lat="44.77977" lon="-0.40711">
        <ele>51.5678711</ele>
        <time>2011-08-15T07:30:56Z</time>
      </trkpt>
      <trkpt lat="44.77973" lon="-0.40684">
        <ele>49.6452637</ele>
        <time>2011-08-15T07:31:02Z</time>
      </trkpt>
      <trkpt lat="44.7797" lon="-0.40659">
        <ele>48.68396</ele>
        <time>2011-08-15T07:31:07Z</time>
      </trkpt>
      <trkpt lat="44.77969" lon="-0.40638">
        <ele>46.2806396</ele>
        <time>2011-08-15T07:31:12Z</time>
      </trkpt>
      <trkpt lat="44.77969" lon="-0.40617">
        <ele>41.9547119</ele>
        <time>2011-08-15T07:31:18Z</time>
      </trkpt>
      <trkpt lat="44.77967" lon="-0.40595">
        <ele>40.0321045</ele>
        <time>2011-08-15T07:31:23Z</time>
      </trkpt>
      <trkpt lat="44.77966" lon="-0.40576">
        <ele>38.5900879</ele>
        <time>2011-08-15T07:31:28Z</time>
      </trkpt>
      <trkpt lat="44.77965" lon="-0.40558">
        <ele>39.5512695</ele>
        <time>2011-08-15T07:31:33Z</time>
      </trkpt>
      <trkpt lat="44.77961" lon="-0.40539">
        <ele>38.5900879</ele>
        <time>2011-08-15T07:31:38Z</time>
      </trkpt>
      <trkpt lat="44.77951" lon="-0.40518">
        <ele>51.0871582</ele>
        <time>2011-08-15T07:31:43Z</time>
      </trkpt>
      <trkpt lat="44.77942" lon="-0.40509">
        <ele>53.4904785</ele>
        <time>2011-08-15T07:31:47Z</time>
      </trkpt>
      <trkpt lat="44.77933" lon="-0.40498">
        <ele>53.0097656</ele>
        <time>2011-08-15T07:31:52Z</time>
      </trkpt>
      <trkpt lat="44.77923" lon="-0.4049">
        <ele>53.4904785</ele>
        <time>2011-08-15T07:31:56Z</time>
      </trkpt>
      <trkpt lat="44.77913" lon="-0.40481">
        <ele>55.8937988</ele>
        <time>2011-08-15T07:32:00Z</time>
      </trkpt>
      <trkpt lat="44.77906" lon="-0.40475">
        <ele>56.8551025</ele>
        <time>2011-08-15T07:32:04Z</time>
      </trkpt>
      <trkpt lat="44.77895" lon="-0.40462">
        <ele>56.8551025</ele>
        <time>2011-08-15T07:32:09Z</time>
      </trkpt>
      <trkpt lat="44.77895" lon="-0.40459">
        <ele>55.8937988</ele>
        <time>2011-08-15T07:32:10Z</time>
      </trkpt>
      <trkpt lat="44.77901" lon="-0.40438">
        <ele>56.8551025</ele>
        <time>2011-08-15T07:32:16Z</time>
      </trkpt>
      <trkpt lat="44.77901" lon="-0.40425">
        <ele>54.932373</ele>
        <time>2011-08-15T07:32:20Z</time>
      </trkpt>
      <trkpt lat="44.779" lon="-0.40406">
        <ele>51.0871582</ele>
        <time>2011-08-15T07:32:25Z</time>
      </trkpt>
      <trkpt lat="44.77899" lon="-0.40402">
        <ele>47.2418213</ele>
        <time>2011-08-15T07:32:28Z</time>
      </trkpt>
      <trkpt lat="44.77888" lon="-0.40395">
        <ele>44.838623</ele>
        <time>2011-08-15T07:32:33Z</time>
      </trkpt>
      <trkpt lat="44.77883" lon="-0.40384">
        <ele>43.3966064</ele>
        <time>2011-08-15T07:32:37Z</time>
      </trkpt>
      <trkpt lat="44.77877" lon="-0.40377">
        <ele>42.4354248</ele>
        <time>2011-08-15T07:32:41Z</time>
      </trkpt>
      <trkpt lat="44.77873" lon="-0.40373">
        <ele>42.9160156</ele>
        <time>2011-08-15T07:32:43Z</time>
      </trkpt>
      <trkpt lat="44.77862" lon="-0.40366">
        <ele>45.3192139</ele>
        <time>2011-08-15T07:32:48Z</time>
      </trkpt>
      <trkpt lat="44.77853" lon="-0.40362">
        <ele>46.2806396</ele>
        <time>2011-08-15T07:32:52Z</time>
      </trkpt>
      <trkpt lat="44.77848" lon="-0.40359">
        <ele>46.2806396</ele>
        <time>2011-08-15T07:32:55Z</time>
      </trkpt>
      <trkpt lat="44.77844" lon="-0.40361">
        <ele>49.1645508</ele>
        <time>2011-08-15T07:33:02Z</time>
      </trkpt>
      <trkpt lat="44.77842" lon="-0.40368">
        <ele>48.68396</ele>
        <time>2011-08-15T07:33:07Z</time>
      </trkpt>
      <trkpt lat="44.7784" lon="-0.40375">
        <ele>49.6452637</ele>
        <time>2011-08-15T07:33:11Z</time>
      </trkpt>
      <trkpt lat="44.77839" lon="-0.40376">
        <ele>50.6065674</ele>
        <time>2011-08-15T07:33:18Z</time>
      </trkpt>
      <trkpt lat="44.77838" lon="-0.40375">
        <ele>48.2033691</ele>
        <time>2011-08-15T07:33:29Z</time>
      </trkpt>
      <trkpt lat="44.77837" lon="-0.40377">
        <ele>46.7612305</ele>
        <time>2011-08-15T07:33:37Z</time>
      </trkpt>
      <trkpt lat="44.77836" lon="-0.40378">
        <ele>47.2418213</ele>
        <time>2011-08-15T07:33:39Z</time>
      </trkpt>
      <trkpt lat="44.77829" lon="-0.40381">
        <ele>50.1259766</ele>
        <time>2011-08-15T07:33:45Z</time>
      </trkpt>
      <trkpt lat="44.77824" lon="-0.40388">
        <ele>55.8937988</ele>
        <time>2011-08-15T07:34:00Z</time>
      </trkpt>
      <trkpt lat="44.7782" lon="-0.4039">
        <ele>55.4130859</ele>
        <time>2011-08-15T07:34:05Z</time>
      </trkpt>
      <trkpt lat="44.77818" lon="-0.40392">
        <ele>61.1810303</ele>
        <time>2011-08-15T07:34:10Z</time>
      </trkpt>
      <trkpt lat="44.77813" lon="-0.40396">
        <ele>69.3522949</ele>
        <time>2011-08-15T07:34:14Z</time>
      </trkpt>
      <trkpt lat="44.77808" lon="-0.40391">
        <ele>68.871582</ele>
        <time>2011-08-15T07:34:18Z</time>
      </trkpt>
      <trkpt lat="44.77797" lon="-0.40374">
        <ele>64.5456543</ele>
        <time>2011-08-15T07:34:25Z</time>
      </trkpt>
      <trkpt lat="44.77777" lon="-0.40349">
        <ele>56.8551025</ele>
        <time>2011-08-15T07:34:34Z</time>
      </trkpt>
      <trkpt lat="44.77764" lon="-0.40336">
        <ele>55.4130859</ele>
        <time>2011-08-15T07:34:39Z</time>
      </trkpt>
      <trkpt lat="44.77746" lon="-0.40314">
        <ele>52.048584</ele>
        <time>2011-08-15T07:34:46Z</time>
      </trkpt>
      <trkpt lat="44.77726" lon="-0.40297">
        <ele>50.1259766</ele>
        <time>2011-08-15T07:34:52Z</time>
      </trkpt>
      <trkpt lat="44.77697" lon="-0.40273">
        <ele>48.2033691</ele>
        <time>2011-08-15T07:35:01Z</time>
      </trkpt>
      <trkpt lat="44.77678" lon="-0.40258">
        <ele>49.1645508</ele>
        <time>2011-08-15T07:35:08Z</time>
      </trkpt>
      <trkpt lat="44.77669" lon="-0.40246">
        <ele>50.6065674</ele>
        <time>2011-08-15T07:35:13Z</time>
      </trkpt>
      <trkpt lat="44.77658" lon="-0.4023">
        <ele>55.8937988</ele>
        <time>2011-08-15T07:35:19Z</time>
      </trkpt>
      <trkpt lat="44.77655" lon="-0.40225">
        <ele>58.77771</ele>
        <time>2011-08-15T07:35:22Z</time>
      </trkpt>
      <trkpt lat="44.77648" lon="-0.4022">
        <ele>59.7391357</ele>
        <time>2011-08-15T07:35:28Z</time>
      </trkpt>
      <trkpt lat="44.77642" lon="-0.4022">
        <ele>59.7391357</ele>
        <time>2011-08-15T07:35:32Z</time>
      </trkpt>
      <trkpt lat="44.77641" lon="-0.40218">
        <ele>60.7003174</ele>
        <time>2011-08-15T07:35:33Z</time>
      </trkpt>
      <trkpt lat="44.77635" lon="-0.40208">
        <ele>63.1036377</ele>
        <time>2011-08-15T07:35:38Z</time>
      </trkpt>
      <trkpt lat="44.77635" lon="-0.40205">
        <ele>63.1036377</ele>
        <time>2011-08-15T07:35:39Z</time>
      </trkpt>
      <trkpt lat="44.77627" lon="-0.40193">
        <ele>61.6617432</ele>
        <time>2011-08-15T07:35:45Z</time>
      </trkpt>
      <trkpt lat="44.77621" lon="-0.40179">
        <ele>62.6229248</ele>
        <time>2011-08-15T07:35:50Z</time>
      </trkpt>
      <trkpt lat="44.77613" lon="-0.40167">
        <ele>59.2584229</ele>
        <time>2011-08-15T07:35:54Z</time>
      </trkpt>
      <trkpt lat="44.77613" lon="-0.40155">
        <ele>56.3745117</ele>
        <time>2011-08-15T07:35:57Z</time>
      </trkpt>
      <trkpt lat="44.77613" lon="-0.40145">
        <ele>53.4904785</ele>
        <time>2011-08-15T07:36:00Z</time>
      </trkpt>
      <trkpt lat="44.77606" lon="-0.40118">
        <ele>54.4517822</ele>
        <time>2011-08-15T07:36:07Z</time>
      </trkpt>
      <trkpt lat="44.77598" lon="-0.40106">
        <ele>57.3358154</ele>
        <time>2011-08-15T07:36:11Z</time>
      </trkpt>
      <trkpt lat="44.77595" lon="-0.40104">
        <ele>59.2584229</ele>
        <time>2011-08-15T07:36:12Z</time>
      </trkpt>
      <trkpt lat="44.77581" lon="-0.40109">
        <ele>56.8551025</ele>
        <time>2011-08-15T07:36:17Z</time>
      </trkpt>
      <trkpt lat="44.77561" lon="-0.40126">
        <ele>55.4130859</ele>
        <time>2011-08-15T07:36:25Z</time>
      </trkpt>
      <trkpt lat="44.77545" lon="-0.40138">
        <ele>56.3745117</ele>
        <time>2011-08-15T07:36:32Z</time>
      </trkpt>
      <trkpt lat="44.77524" lon="-0.40153">
        <ele>58.77771</ele>
        <time>2011-08-15T07:36:41Z</time>
      </trkpt>
      <trkpt lat="44.77505" lon="-0.40166">
        <ele>60.7003174</ele>
        <time>2011-08-15T07:36:49Z</time>
      </trkpt>
      <trkpt lat="44.77492" lon="-0.40152">
        <ele>62.6229248</ele>
        <time>2011-08-15T07:36:55Z</time>
      </trkpt>
      <trkpt lat="44.77484" lon="-0.4013">
        <ele>68.871582</ele>
        <time>2011-08-15T07:37:01Z</time>
      </trkpt>
      <trkpt lat="44.77478" lon="-0.40115">
        <ele>73.6782227</ele>
        <time>2011-08-15T07:37:06Z</time>
      </trkpt>
      <trkpt lat="44.77473" lon="-0.401">
        <ele>78.4847412</ele>
        <time>2011-08-15T07:37:11Z</time>
      </trkpt>
      <trkpt lat="44.77466" lon="-0.40086">
        <ele>83.7719727</ele>
        <time>2011-08-15T07:37:16Z</time>
      </trkpt>
      <trkpt lat="44.77461" lon="-0.40077">
        <ele>86.6560059</ele>
        <time>2011-08-15T07:37:20Z</time>
      </trkpt>
      <trkpt lat="44.7745" lon="-0.40058">
        <ele>84.7333984</ele>
        <time>2011-08-15T07:37:25Z</time>
      </trkpt>
      <trkpt lat="44.77447" lon="-0.40053">
        <ele>84.2526855</ele>
        <time>2011-08-15T07:37:27Z</time>
      </trkpt>
      <trkpt lat="44.77451" lon="-0.40039">
        <ele>80.4074707</ele>
        <time>2011-08-15T07:37:31Z</time>
      </trkpt>
      <trkpt lat="44.77468" lon="-0.40018">
        <ele>73.6782227</ele>
        <time>2011-08-15T07:37:38Z</time>
      </trkpt>
      <trkpt lat="44.7748" lon="-0.40008">
        <ele>72.7169189</ele>
        <time>2011-08-15T07:37:42Z</time>
      </trkpt>
      <trkpt lat="44.77491" lon="-0.39997">
        <ele>68.3908691</ele>
        <time>2011-08-15T07:37:46Z</time>
      </trkpt>
      <trkpt lat="44.77502" lon="-0.39987">
        <ele>64.0650635</ele>
        <time>2011-08-15T07:37:50Z</time>
      </trkpt>
      <trkpt lat="44.77515" lon="-0.3997">
        <ele>57.3358154</ele>
        <time>2011-08-15T07:37:57Z</time>
      </trkpt>
      <trkpt lat="44.77522" lon="-0.39962">
        <ele>56.3745117</ele>
        <time>2011-08-15T07:38:00Z</time>
      </trkpt>
      <trkpt lat="44.77518" lon="-0.39939">
        <ele>60.2197266</ele>
        <time>2011-08-15T07:38:05Z</time>
      </trkpt>
      <trkpt lat="44.77513" lon="-0.39923">
        <ele>62.142334</ele>
        <time>2011-08-15T07:38:10Z</time>
      </trkpt>
      <trkpt lat="44.77511" lon="-0.39919">
        <ele>62.6229248</ele>
        <time>2011-08-15T07:38:15Z</time>
      </trkpt>
      <trkpt lat="44.77509" lon="-0.39916">
        <ele>61.1810303</ele>
        <time>2011-08-15T07:38:21Z</time>
      </trkpt>
      <trkpt lat="44.77506" lon="-0.39913">
        <ele>60.2197266</ele>
        <time>2011-08-15T07:38:27Z</time>
      </trkpt>
      <trkpt lat="44.77503" lon="-0.39901">
        <ele>58.77771</ele>
        <time>2011-08-15T07:38:35Z</time>
      </trkpt>
      <trkpt lat="44.77499" lon="-0.39895">
        <ele>57.3358154</ele>
        <time>2011-08-15T07:38:42Z</time>
      </trkpt>
      <trkpt lat="44.77496" lon="-0.39888">
        <ele>56.3745117</ele>
        <time>2011-08-15T07:38:48Z</time>
      </trkpt>
      <trkpt lat="44.77491" lon="-0.39882">
        <ele>57.8165283</ele>
        <time>2011-08-15T07:38:56Z</time>
      </trkpt>
      <trkpt lat="44.7749" lon="-0.39877">
        <ele>59.7391357</ele>
        <time>2011-08-15T07:39:03Z</time>
      </trkpt>
      <trkpt lat="44.77487" lon="-0.39875">
        <ele>60.2197266</ele>
        <time>2011-08-15T07:39:07Z</time>
      </trkpt>
      <trkpt lat="44.77484" lon="-0.39869">
        <ele>59.2584229</ele>
        <time>2011-08-15T07:39:13Z</time>
      </trkpt>
      <trkpt lat="44.77484" lon="-0.39864">
        <ele>57.3358154</ele>
        <time>2011-08-15T07:39:19Z</time>
      </trkpt>
      <trkpt lat="44.77486" lon="-0.39855">
        <ele>57.3358154</ele>
        <time>2011-08-15T07:39:26Z</time>
      </trkpt>
      <trkpt lat="44.77487" lon="-0.39851">
        <ele>57.3358154</ele>
        <time>2011-08-15T07:39:32Z</time>
      </trkpt>
      <trkpt lat="44.77485" lon="-0.39842">
        <ele>57.8165283</ele>
        <time>2011-08-15T07:39:38Z</time>
      </trkpt>
      <trkpt lat="44.77485" lon="-0.39836">
        <ele>58.2971191</ele>
        <time>2011-08-15T07:39:41Z</time>
      </trkpt>
      <trkpt lat="44.77487" lon="-0.39831">
        <ele>58.77771</ele>
        <time>2011-08-15T07:39:43Z</time>
      </trkpt>
      <trkpt lat="44.77486" lon="-0.39811">
        <ele>63.1036377</ele>
        <time>2011-08-15T07:39:49Z</time>
      </trkpt>
      <trkpt lat="44.77484" lon="-0.39799">
        <ele>62.6229248</ele>
        <time>2011-08-15T07:39:53Z</time>
      </trkpt>
      <trkpt lat="44.77484" lon="-0.39796">
        <ele>63.1036377</ele>
        <time>2011-08-15T07:39:54Z</time>
      </trkpt>
      <trkpt lat="44.77484" lon="-0.3979">
        <ele>63.1036377</ele>
        <time>2011-08-15T07:39:56Z</time>
      </trkpt>
      <trkpt lat="44.77475" lon="-0.39773">
        <ele>68.3908691</ele>
        <time>2011-08-15T07:40:02Z</time>
      </trkpt>
      <trkpt lat="44.77473" lon="-0.39757">
        <ele>69.8328857</ele>
        <time>2011-08-15T07:40:07Z</time>
      </trkpt>
      <trkpt lat="44.77469" lon="-0.39749">
        <ele>71.2749023</ele>
        <time>2011-08-15T07:40:11Z</time>
      </trkpt>
      <trkpt lat="44.77468" lon="-0.39748">
        <ele>71.2749023</ele>
        <time>2011-08-15T07:40:12Z</time>
      </trkpt>
      <trkpt lat="44.77466" lon="-0.39731">
        <ele>69.8328857</ele>
        <time>2011-08-15T07:40:17Z</time>
      </trkpt>
      <trkpt lat="44.77465" lon="-0.39722">
        <ele>70.3134766</ele>
        <time>2011-08-15T07:40:19Z</time>
      </trkpt>
      <trkpt lat="44.77461" lon="-0.397">
        <ele>71.2749023</ele>
        <time>2011-08-15T07:40:24Z</time>
      </trkpt>
      <trkpt lat="44.77459" lon="-0.3969">
        <ele>72.2362061</ele>
        <time>2011-08-15T07:40:26Z</time>
      </trkpt>
      <trkpt lat="44.77462" lon="-0.39682">
        <ele>70.3134766</ele>
        <time>2011-08-15T07:40:30Z</time>
      </trkpt>
      <trkpt lat="44.77472" lon="-0.39679">
        <ele>68.871582</ele>
        <time>2011-08-15T07:40:34Z</time>
      </trkpt>
      <trkpt lat="44.77483" lon="-0.39685">
        <ele>65.5070801</ele>
        <time>2011-08-15T07:40:38Z</time>
      </trkpt>
      <trkpt lat="44.77489" lon="-0.39686">
        <ele>62.142334</ele>
        <time>2011-08-15T07:40:41Z</time>
      </trkpt>
      <trkpt lat="44.77505" lon="-0.39674">
        <ele>58.2971191</ele>
        <time>2011-08-15T07:40:47Z</time>
      </trkpt>
      <trkpt lat="44.7752" lon="-0.39666">
        <ele>55.4130859</ele>
        <time>2011-08-15T07:40:52Z</time>
      </trkpt>
      <trkpt lat="44.77532" lon="-0.3966">
        <ele>54.932373</ele>
        <time>2011-08-15T07:40:57Z</time>
      </trkpt>
      <trkpt lat="44.77534" lon="-0.39658">
        <ele>54.932373</ele>
        <time>2011-08-15T07:40:58Z</time>
      </trkpt>
      <trkpt lat="44.7753" lon="-0.39642">
        <ele>53.0097656</ele>
        <time>2011-08-15T07:41:03Z</time>
      </trkpt>
      <trkpt lat="44.77523" lon="-0.39616">
        <ele>52.048584</ele>
        <time>2011-08-15T07:41:09Z</time>
      </trkpt>
      <trkpt lat="44.77517" lon="-0.39592">
        <ele>52.048584</ele>
        <time>2011-08-15T07:41:14Z</time>
      </trkpt>
      <trkpt lat="44.77505" lon="-0.39544">
        <ele>54.4517822</ele>
        <time>2011-08-15T07:41:23Z</time>
      </trkpt>
      <trkpt lat="44.77494" lon="-0.39491">
        <ele>62.6229248</ele>
        <time>2011-08-15T07:41:32Z</time>
      </trkpt>
      <trkpt lat="44.7749" lon="-0.39468">
        <ele>64.5456543</ele>
        <time>2011-08-15T07:41:36Z</time>
      </trkpt>
      <trkpt lat="44.77484" lon="-0.39432">
        <ele>62.6229248</ele>
        <time>2011-08-15T07:41:43Z</time>
      </trkpt>
      <trkpt lat="44.77476" lon="-0.39398">
        <ele>59.7391357</ele>
        <time>2011-08-15T07:41:50Z</time>
      </trkpt>
      <trkpt lat="44.77469" lon="-0.39362">
        <ele>60.2197266</ele>
        <time>2011-08-15T07:41:56Z</time>
      </trkpt>
      <trkpt lat="44.7746" lon="-0.39324">
        <ele>60.2197266</ele>
        <time>2011-08-15T07:42:03Z</time>
      </trkpt>
      <trkpt lat="44.77452" lon="-0.39287">
        <ele>58.77771</ele>
        <time>2011-08-15T07:42:10Z</time>
      </trkpt>
      <trkpt lat="44.77447" lon="-0.39265">
        <ele>58.77771</ele>
        <time>2011-08-15T07:42:14Z</time>
      </trkpt>
      <trkpt lat="44.77438" lon="-0.39214">
        <ele>57.3358154</ele>
        <time>2011-08-15T07:42:23Z</time>
      </trkpt>
      <trkpt lat="44.77425" lon="-0.39154">
        <ele>55.8937988</ele>
        <time>2011-08-15T07:42:34Z</time>
      </trkpt>
      <trkpt lat="44.7742" lon="-0.39124">
        <ele>56.3745117</ele>
        <time>2011-08-15T07:42:40Z</time>
      </trkpt>
      <trkpt lat="44.77424" lon="-0.39109">
        <ele>56.3745117</ele>
        <time>2011-08-15T07:42:44Z</time>
      </trkpt>
      <trkpt lat="44.77423" lon="-0.39089">
        <ele>56.8551025</ele>
        <time>2011-08-15T07:42:49Z</time>
      </trkpt>
      <trkpt lat="44.77424" lon="-0.39079">
        <ele>57.8165283</ele>
        <time>2011-08-15T07:42:52Z</time>
      </trkpt>
      <trkpt lat="44.77426" lon="-0.39056">
        <ele>58.2971191</ele>
        <time>2011-08-15T07:42:59Z</time>
      </trkpt>
      <trkpt lat="44.77425" lon="-0.39045">
        <ele>59.2584229</ele>
        <time>2011-08-15T07:43:03Z</time>
      </trkpt>
      <trkpt lat="44.77427" lon="-0.39023">
        <ele>61.6617432</ele>
        <time>2011-08-15T07:43:09Z</time>
      </trkpt>
      <trkpt lat="44.7743" lon="-0.39004">
        <ele>61.6617432</ele>
        <time>2011-08-15T07:43:14Z</time>
      </trkpt>
      <trkpt lat="44.77435" lon="-0.38982">
        <ele>62.6229248</ele>
        <time>2011-08-15T07:43:20Z</time>
      </trkpt>
      <trkpt lat="44.77442" lon="-0.38959">
        <ele>61.6617432</ele>
        <time>2011-08-15T07:43:27Z</time>
      </trkpt>
      <trkpt lat="44.77447" lon="-0.38937">
        <ele>61.6617432</ele>
        <time>2011-08-15T07:43:32Z</time>
      </trkpt>
      <trkpt lat="44.7745" lon="-0.38909">
        <ele>65.0263672</ele>
        <time>2011-08-15T07:43:38Z</time>
      </trkpt>
      <trkpt lat="44.77454" lon="-0.38889">
        <ele>68.3908691</ele>
        <time>2011-08-15T07:43:43Z</time>
      </trkpt>
      <trkpt lat="44.77458" lon="-0.38867">
        <ele>70.3134766</ele>
        <time>2011-08-15T07:43:48Z</time>
      </trkpt>
      <trkpt lat="44.77461" lon="-0.38839">
        <ele>74.6395264</ele>
        <time>2011-08-15T07:43:54Z</time>
      </trkpt>
      <trkpt lat="44.77463" lon="-0.38828">
        <ele>74.6395264</ele>
        <time>2011-08-15T07:43:57Z</time>
      </trkpt>
      <trkpt lat="44.77469" lon="-0.38808">
        <ele>74.6395264</ele>
        <time>2011-08-15T07:44:03Z</time>
      </trkpt>
      <trkpt lat="44.77472" lon="-0.38786">
        <ele>78.9654541</ele>
        <time>2011-08-15T07:44:10Z</time>
      </trkpt>
      <trkpt lat="44.77475" lon="-0.3877">
        <ele>79.9266357</ele>
        <time>2011-08-15T07:44:15Z</time>
      </trkpt>
      <trkpt lat="44.77479" lon="-0.38754">
        <ele>79.9266357</ele>
        <time>2011-08-15T07:44:20Z</time>
      </trkpt>
      <trkpt lat="44.77477" lon="-0.38747">
        <ele>81.3687744</ele>
        <time>2011-08-15T07:44:26Z</time>
      </trkpt>
      <trkpt lat="44.77468" lon="-0.38734">
        <ele>84.2526855</ele>
        <time>2011-08-15T07:44:35Z</time>
      </trkpt>
      <trkpt lat="44.7746" lon="-0.38722">
        <ele>86.6560059</ele>
        <time>2011-08-15T07:44:40Z</time>
      </trkpt>
      <trkpt lat="44.77452" lon="-0.38706">
        <ele>85.2139893</ele>
        <time>2011-08-15T07:44:46Z</time>
      </trkpt>
      <trkpt lat="44.77441" lon="-0.3869">
        <ele>83.2913818</ele>
        <time>2011-08-15T07:44:51Z</time>
      </trkpt>
      <trkpt lat="44.77429" lon="-0.3867">
        <ele>79.9266357</ele>
        <time>2011-08-15T07:44:56Z</time>
      </trkpt>
      <trkpt lat="44.77418" lon="-0.3865">
        <ele>77.0428467</ele>
        <time>2011-08-15T07:45:00Z</time>
      </trkpt>
      <trkpt lat="44.7741" lon="-0.38636">
        <ele>73.1976318</ele>
        <time>2011-08-15T07:45:04Z</time>
      </trkpt>
      <trkpt lat="44.77405" lon="-0.38628">
        <ele>73.6782227</ele>
        <time>2011-08-15T07:45:08Z</time>
      </trkpt>
      <trkpt lat="44.774" lon="-0.38624">
        <ele>75.6008301</ele>
        <time>2011-08-15T07:45:20Z</time>
      </trkpt>
      <trkpt lat="44.77401" lon="-0.38619">
        <ele>73.6782227</ele>
        <time>2011-08-15T07:45:56Z</time>
      </trkpt>
      <trkpt lat="44.77403" lon="-0.38624">
        <ele>73.1976318</ele>
        <time>2011-08-15T07:46:17Z</time>
      </trkpt>
      <trkpt lat="44.77404" lon="-0.38623">
        <ele>71.2749023</ele>
        <time>2011-08-15T07:46:22Z</time>
      </trkpt>
      <trkpt lat="44.77394" lon="-0.38608">
        <ele>71.2749023</ele>
        <time>2011-08-15T07:46:27Z</time>
      </trkpt>
      <trkpt lat="44.77376" lon="-0.38584">
        <ele>69.8328857</ele>
        <time>2011-08-15T07:46:32Z</time>
      </trkpt>
      <trkpt lat="44.77364" lon="-0.38562">
        <ele>67.4296875</ele>
        <time>2011-08-15T07:46:36Z</time>
      </trkpt>
      <trkpt lat="44.77344" lon="-0.38535">
        <ele>67.4296875</ele>
        <time>2011-08-15T07:46:41Z</time>
      </trkpt>
      <trkpt lat="44.77335" lon="-0.38501">
        <ele>66.9489746</ele>
        <time>2011-08-15T07:46:46Z</time>
      </trkpt>
      <trkpt lat="44.77338" lon="-0.3846">
        <ele>64.0650635</ele>
        <time>2011-08-15T07:46:52Z</time>
      </trkpt>
      <trkpt lat="44.77337" lon="-0.38451">
        <ele>62.6229248</ele>
        <time>2011-08-15T07:46:54Z</time>
      </trkpt>
      <trkpt lat="44.77335" lon="-0.38445">
        <ele>63.1036377</ele>
        <time>2011-08-15T07:46:59Z</time>
      </trkpt>
      <trkpt lat="44.77335" lon="-0.38443">
        <ele>63.1036377</ele>
        <time>2011-08-15T07:47:05Z</time>
      </trkpt>
      <trkpt lat="44.77334" lon="-0.38442">
        <ele>62.142334</ele>
        <time>2011-08-15T07:47:12Z</time>
      </trkpt>
      <trkpt lat="44.77334" lon="-0.3844">
        <ele>62.6229248</ele>
        <time>2011-08-15T07:47:18Z</time>
      </trkpt>
      <trkpt lat="44.77332" lon="-0.38437">
        <ele>64.5456543</ele>
        <time>2011-08-15T07:47:29Z</time>
      </trkpt>
      <trkpt lat="44.77321" lon="-0.3843">
        <ele>63.5843506</ele>
        <time>2011-08-15T07:47:35Z</time>
      </trkpt>
      <trkpt lat="44.77319" lon="-0.38418">
        <ele>63.5843506</ele>
        <time>2011-08-15T07:47:38Z</time>
      </trkpt>
      <trkpt lat="44.77318" lon="-0.38389">
        <ele>63.5843506</ele>
        <time>2011-08-15T07:47:45Z</time>
      </trkpt>
      <trkpt lat="44.77316" lon="-0.38353">
        <ele>63.5843506</ele>
        <time>2011-08-15T07:47:52Z</time>
      </trkpt>
      <trkpt lat="44.77315" lon="-0.38315">
        <ele>63.5843506</ele>
        <time>2011-08-15T07:47:59Z</time>
      </trkpt>
      <trkpt lat="44.77313" lon="-0.38271">
        <ele>63.5843506</ele>
        <time>2011-08-15T07:48:07Z</time>
      </trkpt>
      <trkpt lat="44.7731" lon="-0.3822">
        <ele>64.5456543</ele>
        <time>2011-08-15T07:48:16Z</time>
      </trkpt>
      <trkpt lat="44.77308" lon="-0.38191">
        <ele>65.0263672</ele>
        <time>2011-08-15T07:48:22Z</time>
      </trkpt>
      <trkpt lat="44.77308" lon="-0.38171">
        <ele>66.4682617</ele>
        <time>2011-08-15T07:48:27Z</time>
      </trkpt>
      <trkpt lat="44.77306" lon="-0.38166">
        <ele>66.9489746</ele>
        <time>2011-08-15T07:48:29Z</time>
      </trkpt>
      <trkpt lat="44.77298" lon="-0.38159">
        <ele>66.9489746</ele>
        <time>2011-08-15T07:48:34Z</time>
      </trkpt>
      <trkpt lat="44.77285" lon="-0.38159">
        <ele>65.9876709</ele>
        <time>2011-08-15T07:48:38Z</time>
      </trkpt>
      <trkpt lat="44.77274" lon="-0.38156">
        <ele>66.9489746</ele>
        <time>2011-08-15T07:48:42Z</time>
      </trkpt>
      <trkpt lat="44.77275" lon="-0.38153">
        <ele>65.9876709</ele>
        <time>2011-08-15T07:48:43Z</time>
      </trkpt>
      <trkpt lat="44.77276" lon="-0.3812">
        <ele>65.0263672</ele>
        <time>2011-08-15T07:48:49Z</time>
      </trkpt>
      <trkpt lat="44.77275" lon="-0.38079">
        <ele>67.9102783</ele>
        <time>2011-08-15T07:48:56Z</time>
      </trkpt>
      <trkpt lat="44.77276" lon="-0.38049">
        <ele>68.871582</ele>
        <time>2011-08-15T07:49:01Z</time>
      </trkpt>
      <trkpt lat="44.77276" lon="-0.38018">
        <ele>65.5070801</ele>
        <time>2011-08-15T07:49:06Z</time>
      </trkpt>
      <trkpt lat="44.77275" lon="-0.37983">
        <ele>64.5456543</ele>
        <time>2011-08-15T07:49:12Z</time>
      </trkpt>
      <trkpt lat="44.77272" lon="-0.37961">
        <ele>64.5456543</ele>
        <time>2011-08-15T07:49:16Z</time>
      </trkpt>
      <trkpt lat="44.77272" lon="-0.37939">
        <ele>66.4682617</ele>
        <time>2011-08-15T07:49:20Z</time>
      </trkpt>
      <trkpt lat="44.77272" lon="-0.37913">
        <ele>66.9489746</ele>
        <time>2011-08-15T07:49:26Z</time>
      </trkpt>
      <trkpt lat="44.7727" lon="-0.3789">
        <ele>70.3134766</ele>
        <time>2011-08-15T07:49:31Z</time>
      </trkpt>
      <trkpt lat="44.77268" lon="-0.37861">
        <ele>74.1588135</ele>
        <time>2011-08-15T07:49:37Z</time>
      </trkpt>
      <trkpt lat="44.77273" lon="-0.37832">
        <ele>75.1202393</ele>
        <time>2011-08-15T07:49:43Z</time>
      </trkpt>
      <trkpt lat="44.77277" lon="-0.378">
        <ele>75.6008301</ele>
        <time>2011-08-15T07:49:49Z</time>
      </trkpt>
      <trkpt lat="44.77281" lon="-0.37783">
        <ele>73.1976318</ele>
        <time>2011-08-15T07:49:52Z</time>
      </trkpt>
      <trkpt lat="44.77283" lon="-0.37771">
        <ele>74.1588135</ele>
        <time>2011-08-15T07:49:54Z</time>
      </trkpt>
      <trkpt lat="44.77292" lon="-0.37742">
        <ele>74.1588135</ele>
        <time>2011-08-15T07:49:59Z</time>
      </trkpt>
      <trkpt lat="44.77293" lon="-0.37735">
        <ele>75.1202393</ele>
        <time>2011-08-15T07:50:00Z</time>
      </trkpt>
      <trkpt lat="44.77297" lon="-0.37702">
        <ele>77.5234375</ele>
        <time>2011-08-15T07:50:05Z</time>
      </trkpt>
      <trkpt lat="44.77298" lon="-0.37689">
        <ele>78.0040283</ele>
        <time>2011-08-15T07:50:07Z</time>
      </trkpt>
      <trkpt lat="44.77299" lon="-0.37675">
        <ele>78.9654541</ele>
        <time>2011-08-15T07:50:09Z</time>
      </trkpt>
      <trkpt lat="44.77303" lon="-0.37642">
        <ele>79.4460449</ele>
        <time>2011-08-15T07:50:14Z</time>
      </trkpt>
      <trkpt lat="44.77304" lon="-0.3763">
        <ele>78.9654541</ele>
        <time>2011-08-15T07:50:16Z</time>
      </trkpt>
      <trkpt lat="44.77306" lon="-0.37611">
        <ele>79.4460449</ele>
        <time>2011-08-15T07:50:19Z</time>
      </trkpt>
      <trkpt lat="44.77309" lon="-0.37594">
        <ele>78.9654541</ele>
        <time>2011-08-15T07:50:22Z</time>
      </trkpt>
      <trkpt lat="44.77313" lon="-0.37573">
        <ele>80.8881836</ele>
        <time>2011-08-15T07:50:26Z</time>
      </trkpt>
      <trkpt lat="44.77318" lon="-0.37533">
        <ele>78.0040283</ele>
        <time>2011-08-15T07:50:33Z</time>
      </trkpt>
      <trkpt lat="44.77318" lon="-0.37527">
        <ele>78.0040283</ele>
        <time>2011-08-15T07:50:34Z</time>
      </trkpt>
      <trkpt lat="44.77321" lon="-0.37502">
        <ele>78.9654541</ele>
        <time>2011-08-15T07:50:38Z</time>
      </trkpt>
      <trkpt lat="44.77325" lon="-0.37477">
        <ele>79.4460449</ele>
        <time>2011-08-15T07:50:43Z</time>
      </trkpt>
      <trkpt lat="44.77326" lon="-0.37455">
        <ele>80.8881836</ele>
        <time>2011-08-15T07:50:47Z</time>
      </trkpt>
      <trkpt lat="44.77334" lon="-0.37426">
        <ele>83.2913818</ele>
        <time>2011-08-15T07:50:53Z</time>
      </trkpt>
      <trkpt lat="44.77337" lon="-0.37404">
        <ele>77.5234375</ele>
        <time>2011-08-15T07:50:57Z</time>
      </trkpt>
      <trkpt lat="44.77342" lon="-0.37383">
        <ele>78.4847412</ele>
        <time>2011-08-15T07:51:00Z</time>
      </trkpt>
      <trkpt lat="44.77343" lon="-0.37363">
        <ele>78.0040283</ele>
        <time>2011-08-15T07:51:04Z</time>
      </trkpt>
      <trkpt lat="44.77348" lon="-0.37337">
        <ele>80.8881836</ele>
        <time>2011-08-15T07:51:09Z</time>
      </trkpt>
      <trkpt lat="44.77354" lon="-0.37319">
        <ele>81.3687744</ele>
        <time>2011-08-15T07:51:13Z</time>
      </trkpt>
      <trkpt lat="44.77358" lon="-0.3731">
        <ele>81.3687744</ele>
        <time>2011-08-15T07:51:15Z</time>
      </trkpt>
      <trkpt lat="44.77366" lon="-0.3729">
        <ele>79.4460449</ele>
        <time>2011-08-15T07:51:20Z</time>
      </trkpt>
      <trkpt lat="44.77375" lon="-0.37287">
        <ele>78.4847412</ele>
        <time>2011-08-15T07:51:24Z</time>
      </trkpt>
      <trkpt lat="44.77377" lon="-0.37286">
        <ele>78.0040283</ele>
        <time>2011-08-15T07:51:25Z</time>
      </trkpt>
      <trkpt lat="44.77397" lon="-0.37284">
        <ele>77.5234375</ele>
        <time>2011-08-15T07:51:31Z</time>
      </trkpt>
      <trkpt lat="44.77413" lon="-0.37291">
        <ele>74.6395264</ele>
        <time>2011-08-15T07:51:36Z</time>
      </trkpt>
      <trkpt lat="44.77428" lon="-0.37302">
        <ele>74.1588135</ele>
        <time>2011-08-15T07:51:42Z</time>
      </trkpt>
      <trkpt lat="44.77436" lon="-0.37313">
        <ele>72.7169189</ele>
        <time>2011-08-15T07:51:47Z</time>
      </trkpt>
      <trkpt lat="44.77444" lon="-0.37325">
        <ele>70.3134766</ele>
        <time>2011-08-15T07:51:52Z</time>
      </trkpt>
      <trkpt lat="44.77456" lon="-0.37341">
        <ele>67.4296875</ele>
        <time>2011-08-15T07:51:58Z</time>
      </trkpt>
      <trkpt lat="44.77466" lon="-0.37357">
        <ele>67.9102783</ele>
        <time>2011-08-15T07:52:03Z</time>
      </trkpt>
      <trkpt lat="44.77477" lon="-0.37378">
        <ele>63.1036377</ele>
        <time>2011-08-15T07:52:10Z</time>
      </trkpt>
      <trkpt lat="44.7748" lon="-0.37385">
        <ele>62.142334</ele>
        <time>2011-08-15T07:52:12Z</time>
      </trkpt>
      <trkpt lat="44.7749" lon="-0.37401">
        <ele>59.7391357</ele>
        <time>2011-08-15T07:52:17Z</time>
      </trkpt>
      <trkpt lat="44.77493" lon="-0.37406">
        <ele>59.2584229</ele>
        <time>2011-08-15T07:52:19Z</time>
      </trkpt>
      <trkpt lat="44.775" lon="-0.37424">
        <ele>58.77771</ele>
        <time>2011-08-15T07:52:25Z</time>
      </trkpt>
      <trkpt lat="44.7751" lon="-0.3744">
        <ele>59.7391357</ele>
        <time>2011-08-15T07:52:31Z</time>
      </trkpt>
      <trkpt lat="44.77516" lon="-0.37454">
        <ele>61.1810303</ele>
        <time>2011-08-15T07:52:36Z</time>
      </trkpt>
      <trkpt lat="44.7752" lon="-0.37466">
        <ele>62.6229248</ele>
        <time>2011-08-15T07:52:40Z</time>
      </trkpt>
      <trkpt lat="44.7753" lon="-0.37492">
        <ele>62.6229248</ele>
        <time>2011-08-15T07:52:47Z</time>
      </trkpt>
      <trkpt lat="44.77537" lon="-0.37512">
        <ele>62.6229248</ele>
        <time>2011-08-15T07:52:53Z</time>
      </trkpt>
      <trkpt lat="44.77538" lon="-0.37531">
        <ele>65.0263672</ele>
        <time>2011-08-15T07:52:58Z</time>
      </trkpt>
      <trkpt lat="44.77537" lon="-0.37551">
        <ele>68.3908691</ele>
        <time>2011-08-15T07:53:03Z</time>
      </trkpt>
      <trkpt lat="44.77543" lon="-0.3757">
        <ele>70.3134766</ele>
        <time>2011-08-15T07:53:08Z</time>
      </trkpt>
      <trkpt lat="44.77549" lon="-0.3759">
        <ele>71.7554932</ele>
        <time>2011-08-15T07:53:13Z</time>
      </trkpt>
      <trkpt lat="44.77552" lon="-0.37603">
        <ele>73.6782227</ele>
        <time>2011-08-15T07:53:16Z</time>
      </trkpt>
      <trkpt lat="44.77566" lon="-0.37629">
        <ele>77.5234375</ele>
        <time>2011-08-15T07:53:24Z</time>
      </trkpt>
      <trkpt lat="44.77575" lon="-0.37648">
        <ele>79.9266357</ele>
        <time>2011-08-15T07:53:30Z</time>
      </trkpt>
      <trkpt lat="44.77584" lon="-0.37672">
        <ele>82.810791</ele>
        <time>2011-08-15T07:53:37Z</time>
      </trkpt>
      <trkpt lat="44.77589" lon="-0.37692">
        <ele>83.7719727</ele>
        <time>2011-08-15T07:53:43Z</time>
      </trkpt>
      <trkpt lat="44.77594" lon="-0.37716">
        <ele>83.7719727</ele>
        <time>2011-08-15T07:53:50Z</time>
      </trkpt>
      <trkpt lat="44.77598" lon="-0.37731">
        <ele>85.2139893</ele>
        <time>2011-08-15T07:53:55Z</time>
      </trkpt>
      <trkpt lat="44.77607" lon="-0.37747">
        <ele>86.6560059</ele>
        <time>2011-08-15T07:54:01Z</time>
      </trkpt>
      <trkpt lat="44.7761" lon="-0.37752">
        <ele>87.1365967</ele>
        <time>2011-08-15T07:54:04Z</time>
      </trkpt>
      <trkpt lat="44.77612" lon="-0.37753">
        <ele>88.0980225</ele>
        <time>2011-08-15T07:54:17Z</time>
      </trkpt>
      <trkpt lat="44.77613" lon="-0.37754">
        <ele>88.0980225</ele>
        <time>2011-08-15T07:54:18Z</time>
      </trkpt>
      <trkpt lat="44.7762" lon="-0.37767">
        <ele>87.6171875</ele>
        <time>2011-08-15T07:54:24Z</time>
      </trkpt>
      <trkpt lat="44.77629" lon="-0.37781">
        <ele>87.6171875</ele>
        <time>2011-08-15T07:54:30Z</time>
      </trkpt>
      <trkpt lat="44.77643" lon="-0.37804">
        <ele>87.6171875</ele>
        <time>2011-08-15T07:54:37Z</time>
      </trkpt>
      <trkpt lat="44.77663" lon="-0.37841">
        <ele>87.1365967</ele>
        <time>2011-08-15T07:54:47Z</time>
      </trkpt>
      <trkpt lat="44.77675" lon="-0.37869">
        <ele>87.6171875</ele>
        <time>2011-08-15T07:54:54Z</time>
      </trkpt>
      <trkpt lat="44.77684" lon="-0.37894">
        <ele>88.5787354</ele>
        <time>2011-08-15T07:55:00Z</time>
      </trkpt>
      <trkpt lat="44.77694" lon="-0.37916">
        <ele>89.0593262</ele>
        <time>2011-08-15T07:55:06Z</time>
      </trkpt>
      <trkpt lat="44.77705" lon="-0.37938">
        <ele>90.0206299</ele>
        <time>2011-08-15T07:55:13Z</time>
      </trkpt>
      <trkpt lat="44.77713" lon="-0.37953">
        <ele>90.9819336</ele>
        <time>2011-08-15T07:55:18Z</time>
      </trkpt>
      <trkpt lat="44.77724" lon="-0.37974">
        <ele>91.4625244</ele>
        <time>2011-08-15T07:55:24Z</time>
      </trkpt>
      <trkpt lat="44.77736" lon="-0.37998">
        <ele>92.4239502</ele>
        <time>2011-08-15T07:55:31Z</time>
      </trkpt>
      <trkpt lat="44.77743" lon="-0.38013">
        <ele>92.4239502</ele>
        <time>2011-08-15T07:55:35Z</time>
      </trkpt>
      <trkpt lat="44.7777" lon="-0.38055">
        <ele>92.4239502</ele>
        <time>2011-08-15T07:55:46Z</time>
      </trkpt>
      <trkpt lat="44.77786" lon="-0.3809">
        <ele>92.904541</ele>
        <time>2011-08-15T07:55:54Z</time>
      </trkpt>
      <trkpt lat="44.77801" lon="-0.38127">
        <ele>92.904541</ele>
        <time>2011-08-15T07:56:02Z</time>
      </trkpt>
      <trkpt lat="44.77814" lon="-0.38162">
        <ele>92.4239502</ele>
        <time>2011-08-15T07:56:09Z</time>
      </trkpt>
      <trkpt lat="44.77822" lon="-0.38192">
        <ele>91.9432373</ele>
        <time>2011-08-15T07:56:15Z</time>
      </trkpt>
      <trkpt lat="44.77827" lon="-0.38224">
        <ele>91.9432373</ele>
        <time>2011-08-15T07:56:21Z</time>
      </trkpt>
      <trkpt lat="44.7783" lon="-0.38254">
        <ele>91.4625244</ele>
        <time>2011-08-15T07:56:27Z</time>
      </trkpt>
      <trkpt lat="44.77838" lon="-0.38275">
        <ele>90.9819336</ele>
        <time>2011-08-15T07:56:32Z</time>
      </trkpt>
      <trkpt lat="44.77859" lon="-0.38288">
        <ele>91.4625244</ele>
        <time>2011-08-15T07:56:38Z</time>
      </trkpt>
      <trkpt lat="44.77878" lon="-0.38304">
        <ele>91.4625244</ele>
        <time>2011-08-15T07:56:44Z</time>
      </trkpt>
      <trkpt lat="44.77895" lon="-0.38318">
        <ele>92.4239502</ele>
        <time>2011-08-15T07:56:50Z</time>
      </trkpt>
      <trkpt lat="44.77901" lon="-0.38319">
        <ele>92.4239502</ele>
        <time>2011-08-15T07:56:52Z</time>
      </trkpt>
      <trkpt lat="44.77911" lon="-0.38305">
        <ele>93.3851318</ele>
        <time>2011-08-15T07:56:57Z</time>
      </trkpt>
      <trkpt lat="44.77915" lon="-0.38301">
        <ele>93.3851318</ele>
        <time>2011-08-15T07:56:58Z</time>
      </trkpt>
      <trkpt lat="44.77931" lon="-0.38278">
        <ele>95.3077393</ele>
        <time>2011-08-15T07:57:05Z</time>
      </trkpt>
      <trkpt lat="44.77944" lon="-0.38262">
        <ele>95.7884521</ele>
        <time>2011-08-15T07:57:10Z</time>
      </trkpt>
      <trkpt lat="44.77964" lon="-0.38239">
        <ele>97.2304688</ele>
        <time>2011-08-15T07:57:17Z</time>
      </trkpt>
      <trkpt lat="44.77984" lon="-0.38217">
        <ele>96.7498779</ele>
        <time>2011-08-15T07:57:24Z</time>
      </trkpt>
      <trkpt lat="44.78011" lon="-0.38194">
        <ele>95.3077393</ele>
        <time>2011-08-15T07:57:31Z</time>
      </trkpt>
      <trkpt lat="44.78033" lon="-0.38172">
        <ele>94.3465576</ele>
        <time>2011-08-15T07:57:37Z</time>
      </trkpt>
      <trkpt lat="44.78057" lon="-0.38147">
        <ele>93.8658447</ele>
        <time>2011-08-15T07:57:44Z</time>
      </trkpt>
      <trkpt lat="44.78079" lon="-0.38124">
        <ele>94.8271484</ele>
        <time>2011-08-15T07:57:51Z</time>
      </trkpt>
      <trkpt lat="44.78108" lon="-0.38096">
        <ele>95.7884521</ele>
        <time>2011-08-15T07:58:00Z</time>
      </trkpt>
      <trkpt lat="44.78133" lon="-0.38073">
        <ele>97.2304688</ele>
        <time>2011-08-15T07:58:08Z</time>
      </trkpt>
      <trkpt lat="44.78137" lon="-0.38063">
        <ele>97.7111816</ele>
        <time>2011-08-15T07:58:11Z</time>
      </trkpt>
      <trkpt lat="44.78133" lon="-0.38022">
        <ele>97.2304688</ele>
        <time>2011-08-15T07:58:19Z</time>
      </trkpt>
      <trkpt lat="44.78134" lon="-0.37969">
        <ele>97.2304688</ele>
        <time>2011-08-15T07:58:28Z</time>
      </trkpt>
      <trkpt lat="44.78135" lon="-0.37939">
        <ele>97.7111816</ele>
        <time>2011-08-15T07:58:33Z</time>
      </trkpt>
      <trkpt lat="44.78138" lon="-0.37892">
        <ele>96.7498779</ele>
        <time>2011-08-15T07:58:40Z</time>
      </trkpt>
      <trkpt lat="44.78141" lon="-0.37841">
        <ele>96.2692871</ele>
        <time>2011-08-15T07:58:46Z</time>
      </trkpt>
      <trkpt lat="44.78146" lon="-0.37772">
        <ele>95.3077393</ele>
        <time>2011-08-15T07:58:54Z</time>
      </trkpt>
      <trkpt lat="44.78143" lon="-0.37718">
        <ele>95.3077393</ele>
        <time>2011-08-15T07:59:01Z</time>
      </trkpt>
      <trkpt lat="44.78142" lon="-0.37699">
        <ele>94.8271484</ele>
        <time>2011-08-15T07:59:04Z</time>
      </trkpt>
      <trkpt lat="44.7815" lon="-0.37683">
        <ele>95.3077393</ele>
        <time>2011-08-15T07:59:08Z</time>
      </trkpt>
      <trkpt lat="44.78191" lon="-0.37669">
        <ele>97.2304688</ele>
        <time>2011-08-15T07:59:17Z</time>
      </trkpt>
      <trkpt lat="44.78222" lon="-0.37657">
        <ele>98.1918945</ele>
        <time>2011-08-15T07:59:24Z</time>
      </trkpt>
      <trkpt lat="44.78234" lon="-0.37651">
        <ele>98.1918945</ele>
        <time>2011-08-15T07:59:27Z</time>
      </trkpt>
      <trkpt lat="44.78266" lon="-0.37635">
        <ele>98.6724854</ele>
        <time>2011-08-15T07:59:35Z</time>
      </trkpt>
      <trkpt lat="44.78295" lon="-0.37621">
        <ele>100.5950928</ele>
        <time>2011-08-15T07:59:42Z</time>
      </trkpt>
      <trkpt lat="44.78326" lon="-0.37606">
        <ele>102.0371094</ele>
        <time>2011-08-15T07:59:50Z</time>
      </trkpt>
      <trkpt lat="44.78343" lon="-0.37614">
        <ele>102.5177002</ele>
        <time>2011-08-15T07:59:55Z</time>
      </trkpt>
      <trkpt lat="44.78347" lon="-0.37623">
        <ele>101.5563965</ele>
        <time>2011-08-15T07:59:57Z</time>
      </trkpt>
      <trkpt lat="44.78366" lon="-0.37668">
        <ele>100.5950928</ele>
        <time>2011-08-15T08:00:06Z</time>
      </trkpt>
      <trkpt lat="44.78385" lon="-0.37719">
        <ele>101.0756836</ele>
        <time>2011-08-15T08:00:16Z</time>
      </trkpt>
      <trkpt lat="44.78402" lon="-0.37768">
        <ele>101.0756836</ele>
        <time>2011-08-15T08:00:25Z</time>
      </trkpt>
      <trkpt lat="44.78415" lon="-0.37802">
        <ele>101.5563965</ele>
        <time>2011-08-15T08:00:32Z</time>
      </trkpt>
      <trkpt lat="44.78427" lon="-0.37809">
        <ele>102.0371094</ele>
        <time>2011-08-15T08:00:36Z</time>
      </trkpt>
      <trkpt lat="44.78431" lon="-0.37807">
        <ele>102.0371094</ele>
        <time>2011-08-15T08:00:37Z</time>
      </trkpt>
      <trkpt lat="44.78464" lon="-0.37787">
        <ele>104.4404297</ele>
        <time>2011-08-15T08:00:46Z</time>
      </trkpt>
      <trkpt lat="44.78497" lon="-0.3777">
        <ele>104.9210205</ele>
        <time>2011-08-15T08:00:54Z</time>
      </trkpt>
      <trkpt lat="44.78519" lon="-0.37748">
        <ele>104.9210205</ele>
        <time>2011-08-15T08:01:00Z</time>
      </trkpt>
      <trkpt lat="44.78558" lon="-0.3772">
        <ele>104.9210205</ele>
        <time>2011-08-15T08:01:09Z</time>
      </trkpt>
      <trkpt lat="44.78597" lon="-0.37694">
        <ele>104.4404297</ele>
        <time>2011-08-15T08:01:18Z</time>
      </trkpt>
      <trkpt lat="44.78608" lon="-0.37668">
        <ele>103.4790039</ele>
        <time>2011-08-15T08:01:23Z</time>
      </trkpt>
      <trkpt lat="44.78611" lon="-0.37643">
        <ele>102.998291</ele>
        <time>2011-08-15T08:01:27Z</time>
      </trkpt>
      <trkpt lat="44.78618" lon="-0.37631">
        <ele>102.5177002</ele>
        <time>2011-08-15T08:01:29Z</time>
      </trkpt>
      <trkpt lat="44.78649" lon="-0.3759">
        <ele>101.5563965</ele>
        <time>2011-08-15T08:01:37Z</time>
      </trkpt>
      <trkpt lat="44.78653" lon="-0.37583">
        <ele>102.0371094</ele>
        <time>2011-08-15T08:01:39Z</time>
      </trkpt>
      <trkpt lat="44.78659" lon="-0.37569">
        <ele>102.0371094</ele>
        <time>2011-08-15T08:01:45Z</time>
      </trkpt>
      <trkpt lat="44.78673" lon="-0.37547">
        <ele>101.0756836</ele>
        <time>2011-08-15T08:01:51Z</time>
      </trkpt>
      <trkpt lat="44.78675" lon="-0.37544">
        <ele>101.0756836</ele>
        <time>2011-08-15T08:01:52Z</time>
      </trkpt>
      <trkpt lat="44.78689" lon="-0.37537">
        <ele>100.114502</ele>
        <time>2011-08-15T08:01:57Z</time>
      </trkpt>
      <trkpt lat="44.78692" lon="-0.37531">
        <ele>99.1530762</ele>
        <time>2011-08-15T08:01:58Z</time>
      </trkpt>
      <trkpt lat="44.78701" lon="-0.37511">
        <ele>98.1918945</ele>
        <time>2011-08-15T08:02:01Z</time>
      </trkpt>
      <trkpt lat="44.7872" lon="-0.37466">
        <ele>95.7884521</ele>
        <time>2011-08-15T08:02:07Z</time>
      </trkpt>
      <trkpt lat="44.7872" lon="-0.37436">
        <ele>95.3077393</ele>
        <time>2011-08-15T08:02:11Z</time>
      </trkpt>
      <trkpt lat="44.78707" lon="-0.3741">
        <ele>96.2692871</ele>
        <time>2011-08-15T08:02:16Z</time>
      </trkpt>
      <trkpt lat="44.78696" lon="-0.37385">
        <ele>96.2692871</ele>
        <time>2011-08-15T08:02:21Z</time>
      </trkpt>
      <trkpt lat="44.78692" lon="-0.37373">
        <ele>96.2692871</ele>
        <time>2011-08-15T08:02:23Z</time>
      </trkpt>
      <trkpt lat="44.7868" lon="-0.37334">
        <ele>94.3465576</ele>
        <time>2011-08-15T08:02:30Z</time>
      </trkpt>
      <trkpt lat="44.7867" lon="-0.37302">
        <ele>93.3851318</ele>
        <time>2011-08-15T08:02:36Z</time>
      </trkpt>
      <trkpt lat="44.78668" lon="-0.37298">
        <ele>93.3851318</ele>
        <time>2011-08-15T08:02:37Z</time>
      </trkpt>
      <trkpt lat="44.78665" lon="-0.37278">
        <ele>91.4625244</ele>
        <time>2011-08-15T08:02:42Z</time>
      </trkpt>
      <trkpt lat="44.78676" lon="-0.3727">
        <ele>90.0206299</ele>
        <time>2011-08-15T08:02:45Z</time>
      </trkpt>
      <trkpt lat="44.78686" lon="-0.37263">
        <ele>88.5787354</ele>
        <time>2011-08-15T08:02:47Z</time>
      </trkpt>
      <trkpt lat="44.78721" lon="-0.37243">
        <ele>86.6560059</ele>
        <time>2011-08-15T08:02:53Z</time>
      </trkpt>
      <trkpt lat="44.78726" lon="-0.3724">
        <ele>86.6560059</ele>
        <time>2011-08-15T08:02:54Z</time>
      </trkpt>
      <trkpt lat="44.78738" lon="-0.37221">
        <ele>85.6945801</ele>
        <time>2011-08-15T08:02:58Z</time>
      </trkpt>
      <trkpt lat="44.78736" lon="-0.37207">
        <ele>87.6171875</ele>
        <time>2011-08-15T08:03:00Z</time>
      </trkpt>
      <trkpt lat="44.7874" lon="-0.37178">
        <ele>88.0980225</ele>
        <time>2011-08-15T08:03:05Z</time>
      </trkpt>
      <trkpt lat="44.78756" lon="-0.37167">
        <ele>88.5787354</ele>
        <time>2011-08-15T08:03:09Z</time>
      </trkpt>
      <trkpt lat="44.78771" lon="-0.37156">
        <ele>89.0593262</ele>
        <time>2011-08-15T08:03:12Z</time>
      </trkpt>
      <trkpt lat="44.78793" lon="-0.37143">
        <ele>90.5013428</ele>
        <time>2011-08-15T08:03:17Z</time>
      </trkpt>
      <trkpt lat="44.788" lon="-0.37136">
        <ele>91.9432373</ele>
        <time>2011-08-15T08:03:19Z</time>
      </trkpt>
      <trkpt lat="44.78824" lon="-0.37114">
        <ele>92.904541</ele>
        <time>2011-08-15T08:03:26Z</time>
      </trkpt>
      <trkpt lat="44.78835" lon="-0.37102">
        <ele>93.3851318</ele>
        <time>2011-08-15T08:03:31Z</time>
      </trkpt>
      <trkpt lat="44.78835" lon="-0.37102">
        <ele>92.904541</ele>
        <time>2011-08-15T08:03:32Z</time>
      </trkpt>
      <trkpt lat="44.78838" lon="-0.37102">
        <ele>93.8658447</ele>
        <time>2011-08-15T08:03:36Z</time>
      </trkpt>
      <trkpt lat="44.78842" lon="-0.37094">
        <ele>93.3851318</ele>
        <time>2011-08-15T08:03:41Z</time>
      </trkpt>
      <trkpt lat="44.78846" lon="-0.37082">
        <ele>93.3851318</ele>
        <time>2011-08-15T08:03:45Z</time>
      </trkpt>
      <trkpt lat="44.78858" lon="-0.3706">
        <ele>92.4239502</ele>
        <time>2011-08-15T08:03:51Z</time>
      </trkpt>
      <trkpt lat="44.7887" lon="-0.37038">
        <ele>90.5013428</ele>
        <time>2011-08-15T08:03:56Z</time>
      </trkpt>
      <trkpt lat="44.78881" lon="-0.37013">
        <ele>89.539917</ele>
        <time>2011-08-15T08:04:01Z</time>
      </trkpt>
      <trkpt lat="44.78891" lon="-0.36984">
        <ele>86.6560059</ele>
        <time>2011-08-15T08:04:07Z</time>
      </trkpt>
      <trkpt lat="44.78894" lon="-0.36977">
        <ele>84.2526855</ele>
        <time>2011-08-15T08:04:10Z</time>
      </trkpt>
      <trkpt lat="44.78899" lon="-0.3696">
        <ele>85.6945801</ele>
        <time>2011-08-15T08:04:14Z</time>
      </trkpt>
      <trkpt lat="44.78902" lon="-0.36942">
        <ele>88.5787354</ele>
        <time>2011-08-15T08:04:19Z</time>
      </trkpt>
      <trkpt lat="44.78906" lon="-0.36934">
        <ele>90.0206299</ele>
        <time>2011-08-15T08:04:22Z</time>
      </trkpt>
      <trkpt lat="44.7891" lon="-0.36924">
        <ele>89.539917</ele>
        <time>2011-08-15T08:04:26Z</time>
      </trkpt>
      <trkpt lat="44.78922" lon="-0.36916">
        <ele>87.6171875</ele>
        <time>2011-08-15T08:04:31Z</time>
      </trkpt>
      <trkpt lat="44.78925" lon="-0.36914">
        <ele>87.1365967</ele>
        <time>2011-08-15T08:04:32Z</time>
      </trkpt>
      <trkpt lat="44.78927" lon="-0.36903">
        <ele>87.6171875</ele>
        <time>2011-08-15T08:04:36Z</time>
      </trkpt>
      <trkpt lat="44.78935" lon="-0.36887">
        <ele>88.5787354</ele>
        <time>2011-08-15T08:04:42Z</time>
      </trkpt>
      <trkpt lat="44.78938" lon="-0.36879">
        <ele>86.175293</ele>
        <time>2011-08-15T08:04:45Z</time>
      </trkpt>
      <trkpt lat="44.78938" lon="-0.36874">
        <ele>85.2139893</ele>
        <time>2011-08-15T08:04:47Z</time>
      </trkpt>
      <trkpt lat="44.78928" lon="-0.36854">
        <ele>86.175293</ele>
        <time>2011-08-15T08:04:54Z</time>
      </trkpt>
      <trkpt lat="44.7892" lon="-0.36841">
        <ele>87.1365967</ele>
        <time>2011-08-15T08:04:59Z</time>
      </trkpt>
      <trkpt lat="44.78919" lon="-0.36838">
        <ele>88.0980225</ele>
        <time>2011-08-15T08:05:00Z</time>
      </trkpt>
      <trkpt lat="44.78904" lon="-0.36821">
        <ele>91.9432373</ele>
        <time>2011-08-15T08:05:07Z</time>
      </trkpt>
      <trkpt lat="44.78892" lon="-0.36804">
        <ele>94.3465576</ele>
        <time>2011-08-15T08:05:12Z</time>
      </trkpt>
      <trkpt lat="44.78889" lon="-0.36791">
        <ele>94.8271484</ele>
        <time>2011-08-15T08:05:16Z</time>
      </trkpt>
      <trkpt lat="44.78895" lon="-0.36784">
        <ele>98.1918945</ele>
        <time>2011-08-15T08:05:21Z</time>
      </trkpt>
      <trkpt lat="44.78895" lon="-0.36781">
        <ele>98.1918945</ele>
        <time>2011-08-15T08:05:25Z</time>
      </trkpt>
      <trkpt lat="44.78896" lon="-0.36776">
        <ele>97.2304688</ele>
        <time>2011-08-15T08:05:28Z</time>
      </trkpt>
      <trkpt lat="44.78897" lon="-0.36774">
        <ele>97.2304688</ele>
        <time>2011-08-15T08:05:37Z</time>
      </trkpt>
      <trkpt lat="44.78896" lon="-0.36775">
        <ele>96.2692871</ele>
        <time>2011-08-15T08:05:52Z</time>
      </trkpt>
      <trkpt lat="44.78895" lon="-0.36776">
        <ele>95.3077393</ele>
        <time>2011-08-15T08:05:58Z</time>
      </trkpt>
      <trkpt lat="44.78894" lon="-0.36776">
        <ele>95.7884521</ele>
        <time>2011-08-15T08:06:11Z</time>
      </trkpt>
      <trkpt lat="44.78895" lon="-0.36776">
        <ele>96.2692871</ele>
        <time>2011-08-15T08:06:16Z</time>
      </trkpt>
      <trkpt lat="44.78894" lon="-0.36775">
        <ele>96.7498779</ele>
        <time>2011-08-15T08:06:28Z</time>
      </trkpt>
      <trkpt lat="44.78894" lon="-0.36775">
        <ele>98.1918945</ele>
        <time>2011-08-15T08:06:55Z</time>
      </trkpt>
      <trkpt lat="44.78894" lon="-0.36775">
        <ele>98.1918945</ele>
        <time>2011-08-15T08:07:05Z</time>
      </trkpt>
      <trkpt lat="44.78895" lon="-0.36775">
        <ele>98.1918945</ele>
        <time>2011-08-15T08:07:16Z</time>
      </trkpt>
      <trkpt lat="44.78895" lon="-0.36775">
        <ele>96.7498779</ele>
        <time>2011-08-15T08:07:32Z</time>
      </trkpt>
      <trkpt lat="44.78895" lon="-0.36774">
        <ele>94.8271484</ele>
        <time>2011-08-15T08:07:56Z</time>
      </trkpt>
      <trkpt lat="44.78903" lon="-0.36763">
        <ele>95.3077393</ele>
        <time>2011-08-15T08:08:02Z</time>
      </trkpt>
      <trkpt lat="44.78915" lon="-0.36746">
        <ele>95.7884521</ele>
        <time>2011-08-15T08:08:09Z</time>
      </trkpt>
      <trkpt lat="44.78931" lon="-0.36721">
        <ele>95.7884521</ele>
        <time>2011-08-15T08:08:17Z</time>
      </trkpt>
      <trkpt lat="44.78948" lon="-0.36702">
        <ele>95.3077393</ele>
        <time>2011-08-15T08:08:23Z</time>
      </trkpt>
      <trkpt lat="44.78974" lon="-0.36676">
        <ele>95.3077393</ele>
        <time>2011-08-15T08:08:32Z</time>
      </trkpt>
      <trkpt lat="44.78997" lon="-0.36652">
        <ele>95.7884521</ele>
        <time>2011-08-15T08:08:41Z</time>
      </trkpt>
      <trkpt lat="44.79025" lon="-0.36622">
        <ele>96.2692871</ele>
        <time>2011-08-15T08:08:51Z</time>
      </trkpt>
      <trkpt lat="44.79055" lon="-0.36592">
        <ele>97.2304688</ele>
        <time>2011-08-15T08:09:01Z</time>
      </trkpt>
      <trkpt lat="44.79079" lon="-0.36561">
        <ele>97.2304688</ele>
        <time>2011-08-15T08:09:10Z</time>
      </trkpt>
      <trkpt lat="44.79099" lon="-0.36531">
        <ele>96.2692871</ele>
        <time>2011-08-15T08:09:17Z</time>
      </trkpt>
      <trkpt lat="44.79121" lon="-0.36509">
        <ele>93.8658447</ele>
        <time>2011-08-15T08:09:23Z</time>
      </trkpt>
      <trkpt lat="44.79127" lon="-0.36504">
        <ele>92.904541</ele>
        <time>2011-08-15T08:09:25Z</time>
      </trkpt>
      <trkpt lat="44.79138" lon="-0.36504">
        <ele>92.4239502</ele>
        <time>2011-08-15T08:09:29Z</time>
      </trkpt>
      <trkpt lat="44.79141" lon="-0.36508">
        <ele>91.9432373</ele>
        <time>2011-08-15T08:09:30Z</time>
      </trkpt>
      <trkpt lat="44.79162" lon="-0.36539">
        <ele>87.6171875</ele>
        <time>2011-08-15T08:09:35Z</time>
      </trkpt>
      <trkpt lat="44.79178" lon="-0.36565">
        <ele>84.2526855</ele>
        <time>2011-08-15T08:09:39Z</time>
      </trkpt>
      <trkpt lat="44.79203" lon="-0.36593">
        <ele>80.8881836</ele>
        <time>2011-08-15T08:09:44Z</time>
      </trkpt>
      <trkpt lat="44.79228" lon="-0.36632">
        <ele>75.6008301</ele>
        <time>2011-08-15T08:09:49Z</time>
      </trkpt>
      <trkpt lat="44.79252" lon="-0.36677">
        <ele>70.3134766</ele>
        <time>2011-08-15T08:09:54Z</time>
      </trkpt>
      <trkpt lat="44.79279" lon="-0.36718">
        <ele>66.9489746</ele>
        <time>2011-08-15T08:09:59Z</time>
      </trkpt>
      <trkpt lat="44.79302" lon="-0.36734">
        <ele>65.0263672</ele>
        <time>2011-08-15T08:10:03Z</time>
      </trkpt>
      <trkpt lat="44.7931" lon="-0.36733">
        <ele>64.5456543</ele>
        <time>2011-08-15T08:10:05Z</time>
      </trkpt>
      <trkpt lat="44.79318" lon="-0.36742">
        <ele>65.0263672</ele>
        <time>2011-08-15T08:10:09Z</time>
      </trkpt>
      <trkpt lat="44.79318" lon="-0.36758">
        <ele>67.4296875</ele>
        <time>2011-08-15T08:10:13Z</time>
      </trkpt>
      <trkpt lat="44.79318" lon="-0.36761">
        <ele>67.9102783</ele>
        <time>2011-08-15T08:10:14Z</time>
      </trkpt>
      <trkpt lat="44.7932" lon="-0.36768">
        <ele>67.9102783</ele>
        <time>2011-08-15T08:10:17Z</time>
      </trkpt>
      <trkpt lat="44.79336" lon="-0.36774">
        <ele>69.8328857</ele>
        <time>2011-08-15T08:10:23Z</time>
      </trkpt>
      <trkpt lat="44.79355" lon="-0.36775">
        <ele>69.8328857</ele>
        <time>2011-08-15T08:10:29Z</time>
      </trkpt>
      <trkpt lat="44.79372" lon="-0.36777">
        <ele>70.3134766</ele>
        <time>2011-08-15T08:10:34Z</time>
      </trkpt>
      <trkpt lat="44.79387" lon="-0.36777">
        <ele>70.7941895</ele>
        <time>2011-08-15T08:10:38Z</time>
      </trkpt>
      <trkpt lat="44.79411" lon="-0.36773">
        <ele>71.2749023</ele>
        <time>2011-08-15T08:10:44Z</time>
      </trkpt>
      <trkpt lat="44.79414" lon="-0.36773">
        <ele>71.2749023</ele>
        <time>2011-08-15T08:10:45Z</time>
      </trkpt>
      <trkpt lat="44.79422" lon="-0.36783">
        <ele>68.871582</ele>
        <time>2011-08-15T08:10:49Z</time>
      </trkpt>
      <trkpt lat="44.79429" lon="-0.36811">
        <ele>67.4296875</ele>
        <time>2011-08-15T08:10:55Z</time>
      </trkpt>
      <trkpt lat="44.7943" lon="-0.3682">
        <ele>65.9876709</ele>
        <time>2011-08-15T08:10:57Z</time>
      </trkpt>
      <trkpt lat="44.79432" lon="-0.36844">
        <ele>66.4682617</ele>
        <time>2011-08-15T08:11:03Z</time>
      </trkpt>
      <trkpt lat="44.79435" lon="-0.36863">
        <ele>67.9102783</ele>
        <time>2011-08-15T08:11:08Z</time>
      </trkpt>
      <trkpt lat="44.7944" lon="-0.36876">
        <ele>68.871582</ele>
        <time>2011-08-15T08:11:12Z</time>
      </trkpt>
      <trkpt lat="44.79443" lon="-0.36878">
        <ele>69.3522949</ele>
        <time>2011-08-15T08:11:14Z</time>
      </trkpt>
      <trkpt lat="44.79461" lon="-0.36874">
        <ele>70.3134766</ele>
        <time>2011-08-15T08:11:19Z</time>
      </trkpt>
      <trkpt lat="44.79471" lon="-0.36868">
        <ele>69.8328857</ele>
        <time>2011-08-15T08:11:22Z</time>
      </trkpt>
      <trkpt lat="44.79496" lon="-0.36862">
        <ele>67.4296875</ele>
        <time>2011-08-15T08:11:29Z</time>
      </trkpt>
      <trkpt lat="44.79499" lon="-0.36861">
        <ele>67.9102783</ele>
        <time>2011-08-15T08:11:30Z</time>
      </trkpt>
      <trkpt lat="44.79516" lon="-0.36869">
        <ele>67.9102783</ele>
        <time>2011-08-15T08:11:36Z</time>
      </trkpt>
      <trkpt lat="44.79529" lon="-0.36879">
        <ele>67.4296875</ele>
        <time>2011-08-15T08:11:41Z</time>
      </trkpt>
      <trkpt lat="44.79537" lon="-0.36893">
        <ele>66.9489746</ele>
        <time>2011-08-15T08:11:46Z</time>
      </trkpt>
      <trkpt lat="44.79546" lon="-0.36908">
        <ele>71.7554932</ele>
        <time>2011-08-15T08:11:51Z</time>
      </trkpt>
      <trkpt lat="44.79548" lon="-0.3691">
        <ele>72.7169189</ele>
        <time>2011-08-15T08:11:52Z</time>
      </trkpt>
      <trkpt lat="44.79557" lon="-0.36918">
        <ele>76.0814209</ele>
        <time>2011-08-15T08:11:56Z</time>
      </trkpt>
      <trkpt lat="44.79564" lon="-0.36929">
        <ele>78.0040283</ele>
        <time>2011-08-15T08:12:01Z</time>
      </trkpt>
      <trkpt lat="44.79571" lon="-0.36935">
        <ele>77.5234375</ele>
        <time>2011-08-15T08:12:05Z</time>
      </trkpt>
      <trkpt lat="44.79582" lon="-0.3695">
        <ele>78.0040283</ele>
        <time>2011-08-15T08:12:12Z</time>
      </trkpt>
      <trkpt lat="44.79589" lon="-0.36958">
        <ele>79.9266357</ele>
        <time>2011-08-15T08:12:17Z</time>
      </trkpt>
      <trkpt lat="44.79595" lon="-0.36962">
        <ele>81.8493652</ele>
        <time>2011-08-15T08:12:20Z</time>
      </trkpt>
      <trkpt lat="44.79609" lon="-0.36963">
        <ele>84.7333984</ele>
        <time>2011-08-15T08:12:27Z</time>
      </trkpt>
      <trkpt lat="44.79623" lon="-0.36968">
        <ele>86.6560059</ele>
        <time>2011-08-15T08:12:34Z</time>
      </trkpt>
      <trkpt lat="44.79635" lon="-0.36969">
        <ele>89.539917</ele>
        <time>2011-08-15T08:12:39Z</time>
      </trkpt>
      <trkpt lat="44.79652" lon="-0.36969">
        <ele>94.3465576</ele>
        <time>2011-08-15T08:12:46Z</time>
      </trkpt>
      <trkpt lat="44.79672" lon="-0.36964">
        <ele>96.7498779</ele>
        <time>2011-08-15T08:12:54Z</time>
      </trkpt>
      <trkpt lat="44.79686" lon="-0.36965">
        <ele>98.1918945</ele>
        <time>2011-08-15T08:12:59Z</time>
      </trkpt>
      <trkpt lat="44.79692" lon="-0.36975">
        <ele>97.2304688</ele>
        <time>2011-08-15T08:13:03Z</time>
      </trkpt>
      <trkpt lat="44.79699" lon="-0.36988">
        <ele>94.8271484</ele>
        <time>2011-08-15T08:13:09Z</time>
      </trkpt>
      <trkpt lat="44.79704" lon="-0.36996">
        <ele>94.3465576</ele>
        <time>2011-08-15T08:13:15Z</time>
      </trkpt>
      <trkpt lat="44.79705" lon="-0.36996">
        <ele>95.7884521</ele>
        <time>2011-08-15T08:13:25Z</time>
      </trkpt>
      <trkpt lat="44.79707" lon="-0.36996">
        <ele>97.2304688</ele>
        <time>2011-08-15T08:13:36Z</time>
      </trkpt>
      <trkpt lat="44.79707" lon="-0.36997">
        <ele>97.7111816</ele>
        <time>2011-08-15T08:13:49Z</time>
      </trkpt>
      <trkpt lat="44.79708" lon="-0.36997">
        <ele>95.3077393</ele>
        <time>2011-08-15T08:14:15Z</time>
      </trkpt>
      <trkpt lat="44.79708" lon="-0.36998">
        <ele>97.7111816</ele>
        <time>2011-08-15T08:14:38Z</time>
      </trkpt>
      <trkpt lat="44.79709" lon="-0.36998">
        <ele>98.1918945</ele>
        <time>2011-08-15T08:14:46Z</time>
      </trkpt>
      <trkpt lat="44.7971" lon="-0.36997">
        <ele>100.5950928</ele>
        <time>2011-08-15T08:15:03Z</time>
      </trkpt>
      <trkpt lat="44.7971" lon="-0.36997">
        <ele>100.5950928</ele>
        <time>2011-08-15T08:15:28Z</time>
      </trkpt>
      <trkpt lat="44.7971" lon="-0.36997">
        <ele>102.5177002</ele>
        <time>2011-08-15T08:16:45Z</time>
      </trkpt>
      <trkpt lat="44.79711" lon="-0.36998">
        <ele>104.4404297</ele>
        <time>2011-08-15T08:17:01Z</time>
      </trkpt>
      <trkpt lat="44.79711" lon="-0.36998">
        <ele>104.4404297</ele>
        <time>2011-08-15T08:17:09Z</time>
      </trkpt>
      <trkpt lat="44.79711" lon="-0.36998">
        <ele>105.8824463</ele>
        <time>2011-08-15T08:17:47Z</time>
      </trkpt>
      <trkpt lat="44.7971" lon="-0.36999">
        <ele>105.4017334</ele>
        <time>2011-08-15T08:18:00Z</time>
      </trkpt>
      <trkpt lat="44.7971" lon="-0.36998">
        <ele>104.4404297</ele>
        <time>2011-08-15T08:18:13Z</time>
      </trkpt>
      <trkpt lat="44.79708" lon="-0.36998">
        <ele>102.0371094</ele>
        <time>2011-08-15T08:18:54Z</time>
      </trkpt>
      <trkpt lat="44.7971" lon="-0.37">
        <ele>100.5950928</ele>
        <time>2011-08-15T08:19:30Z</time>
      </trkpt>
      <trkpt lat="44.79716" lon="-0.37017">
        <ele>100.5950928</ele>
        <time>2011-08-15T08:19:36Z</time>
      </trkpt>
      <trkpt lat="44.79724" lon="-0.37049">
        <ele>101.0756836</ele>
        <time>2011-08-15T08:19:44Z</time>
      </trkpt>
      <trkpt lat="44.79736" lon="-0.37077">
        <ele>100.5950928</ele>
        <time>2011-08-15T08:19:51Z</time>
      </trkpt>
      <trkpt lat="44.79747" lon="-0.37108">
        <ele>99.6337891</ele>
        <time>2011-08-15T08:19:57Z</time>
      </trkpt>
      <trkpt lat="44.79756" lon="-0.37138">
        <ele>97.7111816</ele>
        <time>2011-08-15T08:20:02Z</time>
      </trkpt>
      <trkpt lat="44.79753" lon="-0.37156">
        <ele>95.7884521</ele>
        <time>2011-08-15T08:20:06Z</time>
      </trkpt>
      <trkpt lat="44.79746" lon="-0.37161">
        <ele>95.3077393</ele>
        <time>2011-08-15T08:20:10Z</time>
      </trkpt>
      <trkpt lat="44.79739" lon="-0.37168">
        <ele>94.8271484</ele>
        <time>2011-08-15T08:20:15Z</time>
      </trkpt>
      <trkpt lat="44.79742" lon="-0.37175">
        <ele>93.3851318</ele>
        <time>2011-08-15T08:20:20Z</time>
      </trkpt>
      <trkpt lat="44.79756" lon="-0.3717">
        <ele>88.5787354</ele>
        <time>2011-08-15T08:20:24Z</time>
      </trkpt>
      <trkpt lat="44.79762" lon="-0.37168">
        <ele>88.0980225</ele>
        <time>2011-08-15T08:20:25Z</time>
      </trkpt>
      <trkpt lat="44.79779" lon="-0.37165">
        <ele>86.6560059</ele>
        <time>2011-08-15T08:20:28Z</time>
      </trkpt>
      <trkpt lat="44.7981" lon="-0.37149">
        <ele>85.6945801</ele>
        <time>2011-08-15T08:20:34Z</time>
      </trkpt>
      <trkpt lat="44.79836" lon="-0.37116">
        <ele>85.6945801</ele>
        <time>2011-08-15T08:20:41Z</time>
      </trkpt>
      <trkpt lat="44.79855" lon="-0.37079">
        <ele>85.2139893</ele>
        <time>2011-08-15T08:20:49Z</time>
      </trkpt>
      <trkpt lat="44.7986" lon="-0.37067">
        <ele>85.2139893</ele>
        <time>2011-08-15T08:20:52Z</time>
      </trkpt>
      <trkpt lat="44.79875" lon="-0.37053">
        <ele>84.7333984</ele>
        <time>2011-08-15T08:20:57Z</time>
      </trkpt>
      <trkpt lat="44.79897" lon="-0.37032">
        <ele>85.2139893</ele>
        <time>2011-08-15T08:21:03Z</time>
      </trkpt>
      <trkpt lat="44.79919" lon="-0.37009">
        <ele>86.175293</ele>
        <time>2011-08-15T08:21:10Z</time>
      </trkpt>
      <trkpt lat="44.7994" lon="-0.36991">
        <ele>87.1365967</ele>
        <time>2011-08-15T08:21:16Z</time>
      </trkpt>
      <trkpt lat="44.79959" lon="-0.36976">
        <ele>87.1365967</ele>
        <time>2011-08-15T08:21:21Z</time>
      </trkpt>
      <trkpt lat="44.79964" lon="-0.36977">
        <ele>87.6171875</ele>
        <time>2011-08-15T08:21:22Z</time>
      </trkpt>
      <trkpt lat="44.79972" lon="-0.3698">
        <ele>87.6171875</ele>
        <time>2011-08-15T08:21:24Z</time>
      </trkpt>
      <trkpt lat="44.79988" lon="-0.36982">
        <ele>86.6560059</ele>
        <time>2011-08-15T08:21:27Z</time>
      </trkpt>
      <trkpt lat="44.80012" lon="-0.36982">
        <ele>85.2139893</ele>
        <time>2011-08-15T08:21:31Z</time>
      </trkpt>
      <trkpt lat="44.80021" lon="-0.36985">
        <ele>84.2526855</ele>
        <time>2011-08-15T08:21:33Z</time>
      </trkpt>
      <trkpt lat="44.80041" lon="-0.36992">
        <ele>80.4074707</ele>
        <time>2011-08-15T08:21:37Z</time>
      </trkpt>
      <trkpt lat="44.80062" lon="-0.36996">
        <ele>78.0040283</ele>
        <time>2011-08-15T08:21:41Z</time>
      </trkpt>
      <trkpt lat="44.80096" lon="-0.37001">
        <ele>76.0814209</ele>
        <time>2011-08-15T08:21:47Z</time>
      </trkpt>
      <trkpt lat="44.80117" lon="-0.36999">
        <ele>72.7169189</ele>
        <time>2011-08-15T08:21:51Z</time>
      </trkpt>
      <trkpt lat="44.80122" lon="-0.36998">
        <ele>70.7941895</ele>
        <time>2011-08-15T08:21:52Z</time>
      </trkpt>
      <trkpt lat="44.80155" lon="-0.37">
        <ele>71.7554932</ele>
        <time>2011-08-15T08:21:57Z</time>
      </trkpt>
      <trkpt lat="44.80162" lon="-0.37">
        <ele>71.2749023</ele>
        <time>2011-08-15T08:21:58Z</time>
      </trkpt>
      <trkpt lat="44.80179" lon="-0.37002">
        <ele>69.8328857</ele>
        <time>2011-08-15T08:22:01Z</time>
      </trkpt>
      <trkpt lat="44.80192" lon="-0.37015">
        <ele>67.4296875</ele>
        <time>2011-08-15T08:22:05Z</time>
      </trkpt>
      <trkpt lat="44.80196" lon="-0.37019">
        <ele>66.9489746</ele>
        <time>2011-08-15T08:22:06Z</time>
      </trkpt>
      <trkpt lat="44.80203" lon="-0.37027">
        <ele>66.4682617</ele>
        <time>2011-08-15T08:22:08Z</time>
      </trkpt>
      <trkpt lat="44.80225" lon="-0.37033">
        <ele>67.9102783</ele>
        <time>2011-08-15T08:22:13Z</time>
      </trkpt>
      <trkpt lat="44.80229" lon="-0.37034">
        <ele>67.9102783</ele>
        <time>2011-08-15T08:22:14Z</time>
      </trkpt>
      <trkpt lat="44.80237" lon="-0.37034">
        <ele>68.3908691</ele>
        <time>2011-08-15T08:22:19Z</time>
      </trkpt>
      <trkpt lat="44.8025" lon="-0.37037">
        <ele>69.3522949</ele>
        <time>2011-08-15T08:22:25Z</time>
      </trkpt>
      <trkpt lat="44.80252" lon="-0.37039">
        <ele>69.3522949</ele>
        <time>2011-08-15T08:22:26Z</time>
      </trkpt>
      <trkpt lat="44.80259" lon="-0.3703">
        <ele>66.9489746</ele>
        <time>2011-08-15T08:22:30Z</time>
      </trkpt>
      <trkpt lat="44.80267" lon="-0.37016">
        <ele>64.5456543</ele>
        <time>2011-08-15T08:22:34Z</time>
      </trkpt>
      <trkpt lat="44.80277" lon="-0.37016">
        <ele>64.0650635</ele>
        <time>2011-08-15T08:22:37Z</time>
      </trkpt>
      <trkpt lat="44.80281" lon="-0.37017">
        <ele>63.5843506</ele>
        <time>2011-08-15T08:22:38Z</time>
      </trkpt>
      <trkpt lat="44.80294" lon="-0.37026">
        <ele>63.5843506</ele>
        <time>2011-08-15T08:22:41Z</time>
      </trkpt>
      <trkpt lat="44.80315" lon="-0.37039">
        <ele>64.0650635</ele>
        <time>2011-08-15T08:22:45Z</time>
      </trkpt>
      <trkpt lat="44.8033" lon="-0.37042">
        <ele>65.9876709</ele>
        <time>2011-08-15T08:22:49Z</time>
      </trkpt>
      <trkpt lat="44.8035" lon="-0.37048">
        <ele>65.9876709</ele>
        <time>2011-08-15T08:22:55Z</time>
      </trkpt>
      <trkpt lat="44.80369" lon="-0.37049">
        <ele>63.5843506</ele>
        <time>2011-08-15T08:22:59Z</time>
      </trkpt>
      <trkpt lat="44.80381" lon="-0.3704">
        <ele>59.7391357</ele>
        <time>2011-08-15T08:23:03Z</time>
      </trkpt>
      <trkpt lat="44.80385" lon="-0.37037">
        <ele>60.2197266</ele>
        <time>2011-08-15T08:23:04Z</time>
      </trkpt>
      <trkpt lat="44.80406" lon="-0.37039">
        <ele>56.8551025</ele>
        <time>2011-08-15T08:23:10Z</time>
      </trkpt>
      <trkpt lat="44.80421" lon="-0.37045">
        <ele>58.2971191</ele>
        <time>2011-08-15T08:23:14Z</time>
      </trkpt>
      <trkpt lat="44.80435" lon="-0.37054">
        <ele>58.2971191</ele>
        <time>2011-08-15T08:23:19Z</time>
      </trkpt>
      <trkpt lat="44.80447" lon="-0.37071">
        <ele>56.3745117</ele>
        <time>2011-08-15T08:23:25Z</time>
      </trkpt>
      <trkpt lat="44.80453" lon="-0.37091">
        <ele>54.932373</ele>
        <time>2011-08-15T08:23:31Z</time>
      </trkpt>
      <trkpt lat="44.80457" lon="-0.37106">
        <ele>55.4130859</ele>
        <time>2011-08-15T08:23:36Z</time>
      </trkpt>
      <trkpt lat="44.80461" lon="-0.37121">
        <ele>57.3358154</ele>
        <time>2011-08-15T08:23:42Z</time>
      </trkpt>
      <trkpt lat="44.80464" lon="-0.37132">
        <ele>58.2971191</ele>
        <time>2011-08-15T08:23:46Z</time>
      </trkpt>
      <trkpt lat="44.80469" lon="-0.37154">
        <ele>59.7391357</ele>
        <time>2011-08-15T08:23:53Z</time>
      </trkpt>
      <trkpt lat="44.8047" lon="-0.37159">
        <ele>61.1810303</ele>
        <time>2011-08-15T08:23:55Z</time>
      </trkpt>
      <trkpt lat="44.80471" lon="-0.37174">
        <ele>62.6229248</ele>
        <time>2011-08-15T08:24:00Z</time>
      </trkpt>
      <trkpt lat="44.80478" lon="-0.37183">
        <ele>63.1036377</ele>
        <time>2011-08-15T08:24:04Z</time>
      </trkpt>
      <trkpt lat="44.8048" lon="-0.37183">
        <ele>62.6229248</ele>
        <time>2011-08-15T08:24:05Z</time>
      </trkpt>
      <trkpt lat="44.80492" lon="-0.37192">
        <ele>64.5456543</ele>
        <time>2011-08-15T08:24:12Z</time>
      </trkpt>
      <trkpt lat="44.80499" lon="-0.37197">
        <ele>66.4682617</ele>
        <time>2011-08-15T08:24:18Z</time>
      </trkpt>
      <trkpt lat="44.80506" lon="-0.37199">
        <ele>66.4682617</ele>
        <time>2011-08-15T08:24:23Z</time>
      </trkpt>
      <trkpt lat="44.80521" lon="-0.37199">
        <ele>68.3908691</ele>
        <time>2011-08-15T08:24:29Z</time>
      </trkpt>
      <trkpt lat="44.80538" lon="-0.37204">
        <ele>69.3522949</ele>
        <time>2011-08-15T08:24:35Z</time>
      </trkpt>
      <trkpt lat="44.80561" lon="-0.37215">
        <ele>68.3908691</ele>
        <time>2011-08-15T08:24:42Z</time>
      </trkpt>
      <trkpt lat="44.80574" lon="-0.37222">
        <ele>67.4296875</ele>
        <time>2011-08-15T08:24:47Z</time>
      </trkpt>
      <trkpt lat="44.80588" lon="-0.37203">
        <ele>66.4682617</ele>
        <time>2011-08-15T08:24:52Z</time>
      </trkpt>
      <trkpt lat="44.80597" lon="-0.37186">
        <ele>65.0263672</ele>
        <time>2011-08-15T08:24:55Z</time>
      </trkpt>
      <trkpt lat="44.80623" lon="-0.37145">
        <ele>63.1036377</ele>
        <time>2011-08-15T08:25:01Z</time>
      </trkpt>
      <trkpt lat="44.80657" lon="-0.37087">
        <ele>58.77771</ele>
        <time>2011-08-15T08:25:08Z</time>
      </trkpt>
      <trkpt lat="44.80668" lon="-0.3707">
        <ele>57.8165283</ele>
        <time>2011-08-15T08:25:10Z</time>
      </trkpt>
      <trkpt lat="44.8068" lon="-0.37055">
        <ele>56.8551025</ele>
        <time>2011-08-15T08:25:12Z</time>
      </trkpt>
      <trkpt lat="44.80718" lon="-0.37029">
        <ele>53.4904785</ele>
        <time>2011-08-15T08:25:17Z</time>
      </trkpt>
      <trkpt lat="44.80792" lon="-0.36997">
        <ele>48.68396</ele>
        <time>2011-08-15T08:25:26Z</time>
      </trkpt>
      <trkpt lat="44.8082" lon="-0.36989">
        <ele>46.7612305</ele>
        <time>2011-08-15T08:25:30Z</time>
      </trkpt>
      <trkpt lat="44.80869" lon="-0.36979">
        <ele>46.7612305</ele>
        <time>2011-08-15T08:25:37Z</time>
      </trkpt>
      <trkpt lat="44.80904" lon="-0.36973">
        <ele>46.7612305</ele>
        <time>2011-08-15T08:25:43Z</time>
      </trkpt>
      <trkpt lat="44.80931" lon="-0.36969">
        <ele>49.6452637</ele>
        <time>2011-08-15T08:25:48Z</time>
      </trkpt>
      <trkpt lat="44.80948" lon="-0.36966">
        <ele>50.1259766</ele>
        <time>2011-08-15T08:25:51Z</time>
      </trkpt>
      <trkpt lat="44.80964" lon="-0.36962">
        <ele>50.1259766</ele>
        <time>2011-08-15T08:25:54Z</time>
      </trkpt>
      <trkpt lat="44.80997" lon="-0.36954">
        <ele>52.048584</ele>
        <time>2011-08-15T08:26:00Z</time>
      </trkpt>
      <trkpt lat="44.81017" lon="-0.36948">
        <ele>51.5678711</ele>
        <time>2011-08-15T08:26:04Z</time>
      </trkpt>
      <trkpt lat="44.81032" lon="-0.36943">
        <ele>51.5678711</ele>
        <time>2011-08-15T08:26:07Z</time>
      </trkpt>
      <trkpt lat="44.81046" lon="-0.36937">
        <ele>51.0871582</ele>
        <time>2011-08-15T08:26:10Z</time>
      </trkpt>
      <trkpt lat="44.8106" lon="-0.36931">
        <ele>51.0871582</ele>
        <time>2011-08-15T08:26:14Z</time>
      </trkpt>
      <trkpt lat="44.81082" lon="-0.36919">
        <ele>49.6452637</ele>
        <time>2011-08-15T08:26:20Z</time>
      </trkpt>
      <trkpt lat="44.81087" lon="-0.36917">
        <ele>50.1259766</ele>
        <time>2011-08-15T08:26:21Z</time>
      </trkpt>
      <trkpt lat="44.81111" lon="-0.36904">
        <ele>48.68396</ele>
        <time>2011-08-15T08:26:26Z</time>
      </trkpt>
      <trkpt lat="44.81128" lon="-0.36907">
        <ele>49.6452637</ele>
        <time>2011-08-15T08:26:30Z</time>
      </trkpt>
      <trkpt lat="44.81141" lon="-0.36922">
        <ele>52.048584</ele>
        <time>2011-08-15T08:26:34Z</time>
      </trkpt>
      <trkpt lat="44.81157" lon="-0.36948">
        <ele>55.8937988</ele>
        <time>2011-08-15T08:26:43Z</time>
      </trkpt>
      <trkpt lat="44.81169" lon="-0.36965">
        <ele>58.77771</ele>
        <time>2011-08-15T08:26:50Z</time>
      </trkpt>
      <trkpt lat="44.81176" lon="-0.36976">
        <ele>60.2197266</ele>
        <time>2011-08-15T08:26:55Z</time>
      </trkpt>
      <trkpt lat="44.81188" lon="-0.36989">
        <ele>63.5843506</ele>
        <time>2011-08-15T08:27:01Z</time>
      </trkpt>
      <trkpt lat="44.81197" lon="-0.37">
        <ele>64.0650635</ele>
        <time>2011-08-15T08:27:06Z</time>
      </trkpt>
      <trkpt lat="44.81206" lon="-0.37014">
        <ele>65.0263672</ele>
        <time>2011-08-15T08:27:11Z</time>
      </trkpt>
      <trkpt lat="44.81219" lon="-0.37033">
        <ele>65.0263672</ele>
        <time>2011-08-15T08:27:18Z</time>
      </trkpt>
      <trkpt lat="44.81233" lon="-0.3705">
        <ele>65.0263672</ele>
        <time>2011-08-15T08:27:26Z</time>
      </trkpt>
      <trkpt lat="44.81247" lon="-0.37073">
        <ele>65.9876709</ele>
        <time>2011-08-15T08:27:35Z</time>
      </trkpt>
      <trkpt lat="44.81256" lon="-0.37086">
        <ele>68.3908691</ele>
        <time>2011-08-15T08:27:41Z</time>
      </trkpt>
      <trkpt lat="44.81261" lon="-0.37096">
        <ele>70.3134766</ele>
        <time>2011-08-15T08:27:46Z</time>
      </trkpt>
      <trkpt lat="44.81268" lon="-0.37111">
        <ele>70.7941895</ele>
        <time>2011-08-15T08:27:52Z</time>
      </trkpt>
      <trkpt lat="44.81275" lon="-0.3713">
        <ele>72.2362061</ele>
        <time>2011-08-15T08:27:58Z</time>
      </trkpt>
      <trkpt lat="44.81286" lon="-0.37154">
        <ele>74.1588135</ele>
        <time>2011-08-15T08:28:06Z</time>
      </trkpt>
      <trkpt lat="44.8129" lon="-0.37163">
        <ele>75.6008301</ele>
        <time>2011-08-15T08:28:11Z</time>
      </trkpt>
      <trkpt lat="44.81295" lon="-0.37175">
        <ele>76.0814209</ele>
        <time>2011-08-15T08:28:16Z</time>
      </trkpt>
      <trkpt lat="44.81304" lon="-0.37193">
        <ele>78.4847412</ele>
        <time>2011-08-15T08:28:22Z</time>
      </trkpt>
      <trkpt lat="44.81316" lon="-0.37213">
        <ele>82.3300781</ele>
        <time>2011-08-15T08:28:29Z</time>
      </trkpt>
      <trkpt lat="44.81325" lon="-0.37237">
        <ele>85.6945801</ele>
        <time>2011-08-15T08:28:37Z</time>
      </trkpt>
      <trkpt lat="44.8133" lon="-0.37254">
        <ele>86.6560059</ele>
        <time>2011-08-15T08:28:43Z</time>
      </trkpt>
      <trkpt lat="44.81336" lon="-0.37275">
        <ele>87.1365967</ele>
        <time>2011-08-15T08:28:51Z</time>
      </trkpt>
      <trkpt lat="44.81343" lon="-0.37291">
        <ele>88.0980225</ele>
        <time>2011-08-15T08:28:58Z</time>
      </trkpt>
      <trkpt lat="44.81348" lon="-0.37301">
        <ele>87.6171875</ele>
        <time>2011-08-15T08:29:02Z</time>
      </trkpt>
      <trkpt lat="44.81351" lon="-0.37318">
        <ele>87.6171875</ele>
        <time>2011-08-15T08:29:07Z</time>
      </trkpt>
      <trkpt lat="44.81357" lon="-0.37341">
        <ele>89.539917</ele>
        <time>2011-08-15T08:29:14Z</time>
      </trkpt>
      <trkpt lat="44.81369" lon="-0.37375">
        <ele>89.539917</ele>
        <time>2011-08-15T08:29:24Z</time>
      </trkpt>
      <trkpt lat="44.81377" lon="-0.37395">
        <ele>89.539917</ele>
        <time>2011-08-15T08:29:31Z</time>
      </trkpt>
      <trkpt lat="44.81384" lon="-0.37413">
        <ele>90.5013428</ele>
        <time>2011-08-15T08:29:37Z</time>
      </trkpt>
      <trkpt lat="44.81393" lon="-0.37425">
        <ele>90.9819336</ele>
        <time>2011-08-15T08:29:42Z</time>
      </trkpt>
      <trkpt lat="44.81408" lon="-0.37445">
        <ele>90.9819336</ele>
        <time>2011-08-15T08:29:49Z</time>
      </trkpt>
      <trkpt lat="44.81418" lon="-0.37461">
        <ele>91.9432373</ele>
        <time>2011-08-15T08:29:55Z</time>
      </trkpt>
      <trkpt lat="44.81427" lon="-0.37479">
        <ele>91.9432373</ele>
        <time>2011-08-15T08:30:01Z</time>
      </trkpt>
      <trkpt lat="44.81442" lon="-0.37499">
        <ele>91.9432373</ele>
        <time>2011-08-15T08:30:08Z</time>
      </trkpt>
      <trkpt lat="44.81458" lon="-0.37514">
        <ele>92.4239502</ele>
        <time>2011-08-15T08:30:14Z</time>
      </trkpt>
      <trkpt lat="44.8148" lon="-0.37537">
        <ele>93.8658447</ele>
        <time>2011-08-15T08:30:21Z</time>
      </trkpt>
      <trkpt lat="44.81504" lon="-0.37563">
        <ele>93.8658447</ele>
        <time>2011-08-15T08:30:29Z</time>
      </trkpt>
      <trkpt lat="44.81523" lon="-0.37586">
        <ele>93.8658447</ele>
        <time>2011-08-15T08:30:36Z</time>
      </trkpt>
      <trkpt lat="44.81542" lon="-0.37606">
        <ele>94.3465576</ele>
        <time>2011-08-15T08:30:42Z</time>
      </trkpt>
      <trkpt lat="44.81564" lon="-0.37632">
        <ele>94.3465576</ele>
        <time>2011-08-15T08:30:49Z</time>
      </trkpt>
      <trkpt lat="44.81585" lon="-0.37657">
        <ele>95.3077393</ele>
        <time>2011-08-15T08:30:57Z</time>
      </trkpt>
      <trkpt lat="44.81588" lon="-0.37661">
        <ele>95.7884521</ele>
        <time>2011-08-15T08:30:59Z</time>
      </trkpt>
      <trkpt lat="44.81593" lon="-0.37657">
        <ele>94.8271484</ele>
        <time>2011-08-15T08:31:03Z</time>
      </trkpt>
      <trkpt lat="44.81593" lon="-0.37655">
        <ele>94.3465576</ele>
        <time>2011-08-15T08:31:08Z</time>
      </trkpt>
      <trkpt lat="44.81593" lon="-0.37654">
        <ele>94.8271484</ele>
        <time>2011-08-15T08:31:18Z</time>
      </trkpt>
      <trkpt lat="44.81592" lon="-0.37658">
        <ele>95.3077393</ele>
        <time>2011-08-15T08:31:23Z</time>
      </trkpt>
      <trkpt lat="44.81591" lon="-0.37659">
        <ele>95.7884521</ele>
        <time>2011-08-15T08:31:28Z</time>
      </trkpt>
      <trkpt lat="44.81591" lon="-0.37659">
        <ele>96.7498779</ele>
        <time>2011-08-15T08:31:35Z</time>
      </trkpt>
      <trkpt lat="44.81591" lon="-0.37659">
        <ele>96.7498779</ele>
        <time>2011-08-15T08:31:43Z</time>
      </trkpt>
      <trkpt lat="44.81591" lon="-0.37659">
        <ele>97.7111816</ele>
        <time>2011-08-15T08:31:55Z</time>
      </trkpt>
      <trkpt lat="44.81591" lon="-0.37659">
        <ele>96.7498779</ele>
        <time>2011-08-15T08:32:06Z</time>
      </trkpt>
      <trkpt lat="44.81592" lon="-0.3766">
        <ele>96.7498779</ele>
        <time>2011-08-15T08:32:28Z</time>
      </trkpt>
      <trkpt lat="44.81591" lon="-0.37661">
        <ele>96.2692871</ele>
        <time>2011-08-15T08:32:39Z</time>
      </trkpt>
      <trkpt lat="44.81591" lon="-0.3766">
        <ele>95.7884521</ele>
        <time>2011-08-15T08:32:46Z</time>
      </trkpt>
      <trkpt lat="44.81592" lon="-0.37662">
        <ele>95.3077393</ele>
        <time>2011-08-15T08:33:06Z</time>
      </trkpt>
      <trkpt lat="44.81593" lon="-0.37662">
        <ele>95.3077393</ele>
        <time>2011-08-15T08:33:20Z</time>
      </trkpt>
      <trkpt lat="44.81605" lon="-0.37674">
        <ele>94.8271484</ele>
        <time>2011-08-15T08:33:27Z</time>
      </trkpt>
      <trkpt lat="44.81624" lon="-0.377">
        <ele>94.8271484</ele>
        <time>2011-08-15T08:33:36Z</time>
      </trkpt>
      <trkpt lat="44.81636" lon="-0.37721">
        <ele>95.3077393</ele>
        <time>2011-08-15T08:33:42Z</time>
      </trkpt>
      <trkpt lat="44.81654" lon="-0.37745">
        <ele>96.2692871</ele>
        <time>2011-08-15T08:33:50Z</time>
      </trkpt>
      <trkpt lat="44.81676" lon="-0.37766">
        <ele>97.2304688</ele>
        <time>2011-08-15T08:33:58Z</time>
      </trkpt>
      <trkpt lat="44.817" lon="-0.37785">
        <ele>97.2304688</ele>
        <time>2011-08-15T08:34:06Z</time>
      </trkpt>
      <trkpt lat="44.81711" lon="-0.37792">
        <ele>97.2304688</ele>
        <time>2011-08-15T08:34:11Z</time>
      </trkpt>
      <trkpt lat="44.81716" lon="-0.37794">
        <ele>96.7498779</ele>
        <time>2011-08-15T08:34:13Z</time>
      </trkpt>
      <trkpt lat="44.81721" lon="-0.37784">
        <ele>95.7884521</ele>
        <time>2011-08-15T08:34:17Z</time>
      </trkpt>
      <trkpt lat="44.81723" lon="-0.37772">
        <ele>94.8271484</ele>
        <time>2011-08-15T08:34:20Z</time>
      </trkpt>
      <trkpt lat="44.81731" lon="-0.37732">
        <ele>91.9432373</ele>
        <time>2011-08-15T08:34:29Z</time>
      </trkpt>
      <trkpt lat="44.81736" lon="-0.3772">
        <ele>90.9819336</ele>
        <time>2011-08-15T08:34:32Z</time>
      </trkpt>
      <trkpt lat="44.81757" lon="-0.3771">
        <ele>89.0593262</ele>
        <time>2011-08-15T08:34:38Z</time>
      </trkpt>
      <trkpt lat="44.81786" lon="-0.37704">
        <ele>86.175293</ele>
        <time>2011-08-15T08:34:45Z</time>
      </trkpt>
      <trkpt lat="44.8182" lon="-0.37695">
        <ele>82.3300781</ele>
        <time>2011-08-15T08:34:52Z</time>
      </trkpt>
      <trkpt lat="44.81855" lon="-0.37685">
        <ele>78.9654541</ele>
        <time>2011-08-15T08:34:57Z</time>
      </trkpt>
      <trkpt lat="44.81898" lon="-0.37672">
        <ele>75.1202393</ele>
        <time>2011-08-15T08:35:04Z</time>
      </trkpt>
      <trkpt lat="44.81914" lon="-0.37668">
        <ele>73.6782227</ele>
        <time>2011-08-15T08:35:07Z</time>
      </trkpt>
      <trkpt lat="44.81934" lon="-0.37674">
        <ele>72.2362061</ele>
        <time>2011-08-15T08:35:11Z</time>
      </trkpt>
      <trkpt lat="44.81959" lon="-0.37691">
        <ele>72.2362061</ele>
        <time>2011-08-15T08:35:17Z</time>
      </trkpt>
      <trkpt lat="44.81972" lon="-0.37717">
        <ele>76.0814209</ele>
        <time>2011-08-15T08:35:25Z</time>
      </trkpt>
      <trkpt lat="44.81983" lon="-0.3774">
        <ele>79.4460449</ele>
        <time>2011-08-15T08:35:32Z</time>
      </trkpt>
      <trkpt lat="44.81995" lon="-0.37762">
        <ele>83.7719727</ele>
        <time>2011-08-15T08:35:40Z</time>
      </trkpt>
      <trkpt lat="44.82001" lon="-0.37779">
        <ele>86.175293</ele>
        <time>2011-08-15T08:35:45Z</time>
      </trkpt>
      <trkpt lat="44.82014" lon="-0.37801">
        <ele>89.539917</ele>
        <time>2011-08-15T08:35:53Z</time>
      </trkpt>
      <trkpt lat="44.82025" lon="-0.3782">
        <ele>91.4625244</ele>
        <time>2011-08-15T08:36:00Z</time>
      </trkpt>
      <trkpt lat="44.82032" lon="-0.37835">
        <ele>90.9819336</ele>
        <time>2011-08-15T08:36:05Z</time>
      </trkpt>
      <trkpt lat="44.82042" lon="-0.37857">
        <ele>90.9819336</ele>
        <time>2011-08-15T08:36:11Z</time>
      </trkpt>
      <trkpt lat="44.82054" lon="-0.37884">
        <ele>89.539917</ele>
        <time>2011-08-15T08:36:18Z</time>
      </trkpt>
      <trkpt lat="44.82067" lon="-0.37918">
        <ele>87.6171875</ele>
        <time>2011-08-15T08:36:26Z</time>
      </trkpt>
      <trkpt lat="44.8208" lon="-0.37951">
        <ele>86.175293</ele>
        <time>2011-08-15T08:36:33Z</time>
      </trkpt>
      <trkpt lat="44.82094" lon="-0.37983">
        <ele>85.2139893</ele>
        <time>2011-08-15T08:36:40Z</time>
      </trkpt>
      <trkpt lat="44.82112" lon="-0.38021">
        <ele>84.2526855</ele>
        <time>2011-08-15T08:36:49Z</time>
      </trkpt>
      <trkpt lat="44.82118" lon="-0.38042">
        <ele>84.2526855</ele>
        <time>2011-08-15T08:36:54Z</time>
      </trkpt>
      <trkpt lat="44.82119" lon="-0.38048">
        <ele>84.7333984</ele>
        <time>2011-08-15T08:36:56Z</time>
      </trkpt>
      <trkpt lat="44.82138" lon="-0.38047">
        <ele>84.7333984</ele>
        <time>2011-08-15T08:37:03Z</time>
      </trkpt>
      <trkpt lat="44.82157" lon="-0.38045">
        <ele>85.2139893</ele>
        <time>2011-08-15T08:37:09Z</time>
      </trkpt>
      <trkpt lat="44.82175" lon="-0.38043">
        <ele>86.175293</ele>
        <time>2011-08-15T08:37:14Z</time>
      </trkpt>
      <trkpt lat="44.8219" lon="-0.3804">
        <ele>86.175293</ele>
        <time>2011-08-15T08:37:18Z</time>
      </trkpt>
      <trkpt lat="44.82211" lon="-0.38036">
        <ele>85.2139893</ele>
        <time>2011-08-15T08:37:24Z</time>
      </trkpt>
      <trkpt lat="44.82241" lon="-0.38032">
        <ele>83.7719727</ele>
        <time>2011-08-15T08:37:32Z</time>
      </trkpt>
      <trkpt lat="44.82273" lon="-0.38031">
        <ele>82.3300781</ele>
        <time>2011-08-15T08:37:39Z</time>
      </trkpt>
      <trkpt lat="44.82303" lon="-0.38038">
        <ele>78.9654541</ele>
        <time>2011-08-15T08:37:45Z</time>
      </trkpt>
      <trkpt lat="44.82336" lon="-0.38048">
        <ele>75.1202393</ele>
        <time>2011-08-15T08:37:52Z</time>
      </trkpt>
      <trkpt lat="44.82369" lon="-0.38035">
        <ele>74.1588135</ele>
        <time>2011-08-15T08:37:58Z</time>
      </trkpt>
      <trkpt lat="44.82387" lon="-0.38009">
        <ele>72.7169189</ele>
        <time>2011-08-15T08:38:02Z</time>
      </trkpt>
      <trkpt lat="44.82396" lon="-0.37983">
        <ele>71.7554932</ele>
        <time>2011-08-15T08:38:05Z</time>
      </trkpt>
      <trkpt lat="44.82404" lon="-0.37956">
        <ele>70.3134766</ele>
        <time>2011-08-15T08:38:08Z</time>
      </trkpt>
      <trkpt lat="44.82421" lon="-0.37927">
        <ele>68.3908691</ele>
        <time>2011-08-15T08:38:12Z</time>
      </trkpt>
      <trkpt lat="44.82463" lon="-0.37896">
        <ele>65.5070801</ele>
        <time>2011-08-15T08:38:18Z</time>
      </trkpt>
      <trkpt lat="44.82489" lon="-0.37884">
        <ele>64.5456543</ele>
        <time>2011-08-15T08:38:21Z</time>
      </trkpt>
      <trkpt lat="44.82503" lon="-0.37873">
        <ele>63.5843506</ele>
        <time>2011-08-15T08:38:23Z</time>
      </trkpt>
      <trkpt lat="44.82553" lon="-0.37811">
        <ele>60.2197266</ele>
        <time>2011-08-15T08:38:31Z</time>
      </trkpt>
      <trkpt lat="44.82568" lon="-0.37797">
        <ele>58.77771</ele>
        <time>2011-08-15T08:38:33Z</time>
      </trkpt>
      <trkpt lat="44.82597" lon="-0.37779">
        <ele>55.8937988</ele>
        <time>2011-08-15T08:38:37Z</time>
      </trkpt>
      <trkpt lat="44.82642" lon="-0.37769">
        <ele>51.0871582</ele>
        <time>2011-08-15T08:38:43Z</time>
      </trkpt>
      <trkpt lat="44.82652" lon="-0.37765">
        <ele>50.6065674</ele>
        <time>2011-08-15T08:38:45Z</time>
      </trkpt>
      <trkpt lat="44.82653" lon="-0.37753">
        <ele>48.68396</ele>
        <time>2011-08-15T08:38:49Z</time>
      </trkpt>
      <trkpt lat="44.82646" lon="-0.37737">
        <ele>47.7225342</ele>
        <time>2011-08-15T08:38:52Z</time>
      </trkpt>
      <trkpt lat="44.82636" lon="-0.37723">
        <ele>47.2418213</ele>
        <time>2011-08-15T08:38:55Z</time>
      </trkpt>
      <trkpt lat="44.82621" lon="-0.37702">
        <ele>47.2418213</ele>
        <time>2011-08-15T08:38:59Z</time>
      </trkpt>
      <trkpt lat="44.82615" lon="-0.37691">
        <ele>47.2418213</ele>
        <time>2011-08-15T08:39:01Z</time>
      </trkpt>
      <trkpt lat="44.82609" lon="-0.37681">
        <ele>47.2418213</ele>
        <time>2011-08-15T08:39:03Z</time>
      </trkpt>
      <trkpt lat="44.82603" lon="-0.3767">
        <ele>46.7612305</ele>
        <time>2011-08-15T08:39:05Z</time>
      </trkpt>
      <trkpt lat="44.826" lon="-0.37658">
        <ele>45.7999268</ele>
        <time>2011-08-15T08:39:07Z</time>
      </trkpt>
      <trkpt lat="44.82593" lon="-0.37639">
        <ele>46.7612305</ele>
        <time>2011-08-15T08:39:10Z</time>
      </trkpt>
      <trkpt lat="44.82582" lon="-0.37597">
        <ele>47.7225342</ele>
        <time>2011-08-15T08:39:17Z</time>
      </trkpt>
      <trkpt lat="44.82571" lon="-0.3756">
        <ele>48.2033691</ele>
        <time>2011-08-15T08:39:23Z</time>
      </trkpt>
      <trkpt lat="44.82559" lon="-0.37525">
        <ele>50.1259766</ele>
        <time>2011-08-15T08:39:29Z</time>
      </trkpt>
      <trkpt lat="44.8255" lon="-0.37495">
        <ele>50.1259766</ele>
        <time>2011-08-15T08:39:34Z</time>
      </trkpt>
      <trkpt lat="44.82546" lon="-0.37484">
        <ele>50.6065674</ele>
        <time>2011-08-15T08:39:36Z</time>
      </trkpt>
      <trkpt lat="44.82542" lon="-0.37459">
        <ele>49.6452637</ele>
        <time>2011-08-15T08:39:40Z</time>
      </trkpt>
      <trkpt lat="44.82542" lon="-0.37432">
        <ele>48.2033691</ele>
        <time>2011-08-15T08:39:44Z</time>
      </trkpt>
      <trkpt lat="44.8254" lon="-0.37414">
        <ele>47.7225342</ele>
        <time>2011-08-15T08:39:47Z</time>
      </trkpt>
      <trkpt lat="44.82535" lon="-0.37378">
        <ele>46.2806396</ele>
        <time>2011-08-15T08:39:53Z</time>
      </trkpt>
      <trkpt lat="44.82533" lon="-0.37341">
        <ele>46.7612305</ele>
        <time>2011-08-15T08:39:59Z</time>
      </trkpt>
      <trkpt lat="44.8253" lon="-0.37291">
        <ele>47.7225342</ele>
        <time>2011-08-15T08:40:07Z</time>
      </trkpt>
      <trkpt lat="44.8253" lon="-0.37273">
        <ele>48.68396</ele>
        <time>2011-08-15T08:40:10Z</time>
      </trkpt>
      <trkpt lat="44.82526" lon="-0.37248">
        <ele>47.2418213</ele>
        <time>2011-08-15T08:40:15Z</time>
      </trkpt>
      <trkpt lat="44.82521" lon="-0.37217">
        <ele>48.2033691</ele>
        <time>2011-08-15T08:40:21Z</time>
      </trkpt>
      <trkpt lat="44.82511" lon="-0.37192">
        <ele>52.048584</ele>
        <time>2011-08-15T08:40:26Z</time>
      </trkpt>
      <trkpt lat="44.82497" lon="-0.37171">
        <ele>53.4904785</ele>
        <time>2011-08-15T08:40:32Z</time>
      </trkpt>
      <trkpt lat="44.82494" lon="-0.37164">
        <ele>52.5291748</ele>
        <time>2011-08-15T08:40:35Z</time>
      </trkpt>
      <trkpt lat="44.82493" lon="-0.37145">
        <ele>53.9711914</ele>
        <time>2011-08-15T08:40:41Z</time>
      </trkpt>
      <trkpt lat="44.82492" lon="-0.37139">
        <ele>53.9711914</ele>
        <time>2011-08-15T08:40:42Z</time>
      </trkpt>
      <trkpt lat="44.82487" lon="-0.37125">
        <ele>52.5291748</ele>
        <time>2011-08-15T08:40:45Z</time>
      </trkpt>
      <trkpt lat="44.82483" lon="-0.37109">
        <ele>54.4517822</ele>
        <time>2011-08-15T08:40:50Z</time>
      </trkpt>
      <trkpt lat="44.8248" lon="-0.37109">
        <ele>53.4904785</ele>
        <time>2011-08-15T08:40:52Z</time>
      </trkpt>
      <trkpt lat="44.82459" lon="-0.37119">
        <ele>45.7999268</ele>
        <time>2011-08-15T08:41:00Z</time>
      </trkpt>
      <trkpt lat="44.82444" lon="-0.37124">
        <ele>43.3966064</ele>
        <time>2011-08-15T08:41:05Z</time>
      </trkpt>
      <trkpt lat="44.8242" lon="-0.37135">
        <ele>41.473999</ele>
        <time>2011-08-15T08:41:12Z</time>
      </trkpt>
      <trkpt lat="44.82401" lon="-0.37132">
        <ele>41.9547119</ele>
        <time>2011-08-15T08:41:17Z</time>
      </trkpt>
      <trkpt lat="44.82388" lon="-0.37136">
        <ele>43.8773193</ele>
        <time>2011-08-15T08:41:21Z</time>
      </trkpt>
      <trkpt lat="44.82377" lon="-0.37131">
        <ele>44.3580322</ele>
        <time>2011-08-15T08:41:26Z</time>
      </trkpt>
      <trkpt lat="44.82366" lon="-0.37122">
        <ele>45.7999268</ele>
        <time>2011-08-15T08:41:31Z</time>
      </trkpt>
      <trkpt lat="44.82355" lon="-0.3712">
        <ele>46.7612305</ele>
        <time>2011-08-15T08:41:36Z</time>
      </trkpt>
      <trkpt lat="44.82341" lon="-0.37119">
        <ele>46.7612305</ele>
        <time>2011-08-15T08:41:42Z</time>
      </trkpt>
      <trkpt lat="44.82329" lon="-0.37122">
        <ele>49.6452637</ele>
        <time>2011-08-15T08:41:48Z</time>
      </trkpt>
      <trkpt lat="44.82314" lon="-0.37125">
        <ele>53.9711914</ele>
        <time>2011-08-15T08:41:55Z</time>
      </trkpt>
      <trkpt lat="44.82304" lon="-0.37124">
        <ele>53.4904785</ele>
        <time>2011-08-15T08:42:00Z</time>
      </trkpt>
      <trkpt lat="44.8229" lon="-0.37125">
        <ele>52.048584</ele>
        <time>2011-08-15T08:42:06Z</time>
      </trkpt>
      <trkpt lat="44.82275" lon="-0.37126">
        <ele>52.5291748</ele>
        <time>2011-08-15T08:42:12Z</time>
      </trkpt>
      <trkpt lat="44.82273" lon="-0.37127">
        <ele>53.4904785</ele>
        <time>2011-08-15T08:42:13Z</time>
      </trkpt>
      <trkpt lat="44.82265" lon="-0.37127">
        <ele>55.8937988</ele>
        <time>2011-08-15T08:42:17Z</time>
      </trkpt>
      <trkpt lat="44.82245" lon="-0.37127">
        <ele>58.2971191</ele>
        <time>2011-08-15T08:42:25Z</time>
      </trkpt>
      <trkpt lat="44.82237" lon="-0.37126">
        <ele>58.77771</ele>
        <time>2011-08-15T08:42:29Z</time>
      </trkpt>
      <trkpt lat="44.82222" lon="-0.37124">
        <ele>63.1036377</ele>
        <time>2011-08-15T08:42:36Z</time>
      </trkpt>
      <trkpt lat="44.8221" lon="-0.37123">
        <ele>65.9876709</ele>
        <time>2011-08-15T08:42:41Z</time>
      </trkpt>
      <trkpt lat="44.82198" lon="-0.37123">
        <ele>66.4682617</ele>
        <time>2011-08-15T08:42:46Z</time>
      </trkpt>
      <trkpt lat="44.8218" lon="-0.37121">
        <ele>68.871582</ele>
        <time>2011-08-15T08:42:53Z</time>
      </trkpt>
      <trkpt lat="44.82165" lon="-0.3712">
        <ele>70.7941895</ele>
        <time>2011-08-15T08:42:59Z</time>
      </trkpt>
      <trkpt lat="44.82154" lon="-0.37122">
        <ele>71.7554932</ele>
        <time>2011-08-15T08:43:04Z</time>
      </trkpt>
      <trkpt lat="44.8214" lon="-0.37119">
        <ele>73.1976318</ele>
        <time>2011-08-15T08:43:11Z</time>
      </trkpt>
      <trkpt lat="44.82129" lon="-0.37114">
        <ele>75.1202393</ele>
        <time>2011-08-15T08:43:16Z</time>
      </trkpt>
      <trkpt lat="44.82114" lon="-0.37107">
        <ele>77.5234375</ele>
        <time>2011-08-15T08:43:22Z</time>
      </trkpt>
      <trkpt lat="44.82102" lon="-0.371">
        <ele>79.9266357</ele>
        <time>2011-08-15T08:43:28Z</time>
      </trkpt>
      <trkpt lat="44.82088" lon="-0.37092">
        <ele>82.810791</ele>
        <time>2011-08-15T08:43:35Z</time>
      </trkpt>
      <trkpt lat="44.82081" lon="-0.37087">
        <ele>83.7719727</ele>
        <time>2011-08-15T08:43:40Z</time>
      </trkpt>
      <trkpt lat="44.82078" lon="-0.37085">
        <ele>84.2526855</ele>
        <time>2011-08-15T08:43:42Z</time>
      </trkpt>
      <trkpt lat="44.8207" lon="-0.3707">
        <ele>86.6560059</ele>
        <time>2011-08-15T08:43:49Z</time>
      </trkpt>
      <trkpt lat="44.82066" lon="-0.37067">
        <ele>87.1365967</ele>
        <time>2011-08-15T08:43:51Z</time>
      </trkpt>
      <trkpt lat="44.82063" lon="-0.37069">
        <ele>89.0593262</ele>
        <time>2011-08-15T08:43:59Z</time>
      </trkpt>
      <trkpt lat="44.82066" lon="-0.37066">
        <ele>88.5787354</ele>
        <time>2011-08-15T08:44:03Z</time>
      </trkpt>
      <trkpt lat="44.82065" lon="-0.37064">
        <ele>88.5787354</ele>
        <time>2011-08-15T08:44:08Z</time>
      </trkpt>
      <trkpt lat="44.82065" lon="-0.37059">
        <ele>88.5787354</ele>
        <time>2011-08-15T08:44:12Z</time>
      </trkpt>
      <trkpt lat="44.82063" lon="-0.37053">
        <ele>89.0593262</ele>
        <time>2011-08-15T08:44:18Z</time>
      </trkpt>
      <trkpt lat="44.82067" lon="-0.37054">
        <ele>90.5013428</ele>
        <time>2011-08-15T08:44:47Z</time>
      </trkpt>
      <trkpt lat="44.82068" lon="-0.37059">
        <ele>89.539917</ele>
        <time>2011-08-15T08:44:51Z</time>
      </trkpt>
      <trkpt lat="44.82068" lon="-0.37064">
        <ele>88.5787354</ele>
        <time>2011-08-15T08:44:54Z</time>
      </trkpt>
      <trkpt lat="44.82068" lon="-0.37066">
        <ele>88.5787354</ele>
        <time>2011-08-15T08:45:02Z</time>
      </trkpt>
      <trkpt lat="44.82066" lon="-0.37066">
        <ele>90.5013428</ele>
        <time>2011-08-15T08:45:16Z</time>
      </trkpt>
      <trkpt lat="44.82065" lon="-0.37065">
        <ele>90.9819336</ele>
        <time>2011-08-15T08:45:25Z</time>
      </trkpt>
      <trkpt lat="44.82064" lon="-0.37069">
        <ele>90.5013428</ele>
        <time>2011-08-15T08:45:30Z</time>
      </trkpt>
      <trkpt lat="44.82063" lon="-0.37071">
        <ele>91.9432373</ele>
        <time>2011-08-15T08:45:40Z</time>
      </trkpt>
      <trkpt lat="44.82064" lon="-0.37071">
        <ele>88.5787354</ele>
        <time>2011-08-15T08:46:07Z</time>
      </trkpt>
      <trkpt lat="44.82063" lon="-0.37071">
        <ele>87.1365967</ele>
        <time>2011-08-15T08:46:20Z</time>
      </trkpt>
      <trkpt lat="44.82059" lon="-0.37071">
        <ele>87.1365967</ele>
        <time>2011-08-15T08:46:27Z</time>
      </trkpt>
      <trkpt lat="44.82047" lon="-0.37067">
        <ele>86.175293</ele>
        <time>2011-08-15T08:46:35Z</time>
      </trkpt>
      <trkpt lat="44.82036" lon="-0.37066">
        <ele>86.175293</ele>
        <time>2011-08-15T08:46:44Z</time>
      </trkpt>
      <trkpt lat="44.82028" lon="-0.37066">
        <ele>86.6560059</ele>
        <time>2011-08-15T08:46:51Z</time>
      </trkpt>
      <trkpt lat="44.82022" lon="-0.37068">
        <ele>86.6560059</ele>
        <time>2011-08-15T08:46:54Z</time>
      </trkpt>
      <trkpt lat="44.82008" lon="-0.37075">
        <ele>86.6560059</ele>
        <time>2011-08-15T08:47:01Z</time>
      </trkpt>
      <trkpt lat="44.81988" lon="-0.3709">
        <ele>87.6171875</ele>
        <time>2011-08-15T08:47:10Z</time>
      </trkpt>
      <trkpt lat="44.81966" lon="-0.37098">
        <ele>88.5787354</ele>
        <time>2011-08-15T08:47:18Z</time>
      </trkpt>
      <trkpt lat="44.81935" lon="-0.37105">
        <ele>88.5787354</ele>
        <time>2011-08-15T08:47:28Z</time>
      </trkpt>
      <trkpt lat="44.81895" lon="-0.37115">
        <ele>90.0206299</ele>
        <time>2011-08-15T08:47:40Z</time>
      </trkpt>
      <trkpt lat="44.81866" lon="-0.37123">
        <ele>90.9819336</ele>
        <time>2011-08-15T08:47:49Z</time>
      </trkpt>
      <trkpt lat="44.81837" lon="-0.37133">
        <ele>91.4625244</ele>
        <time>2011-08-15T08:47:58Z</time>
      </trkpt>
      <trkpt lat="44.81822" lon="-0.37151">
        <ele>91.9432373</ele>
        <time>2011-08-15T08:48:04Z</time>
      </trkpt>
      <trkpt lat="44.81805" lon="-0.37188">
        <ele>91.9432373</ele>
        <time>2011-08-15T08:48:12Z</time>
      </trkpt>
      <trkpt lat="44.81785" lon="-0.37233">
        <ele>91.9432373</ele>
        <time>2011-08-15T08:48:21Z</time>
      </trkpt>
      <trkpt lat="44.81762" lon="-0.37286">
        <ele>91.4625244</ele>
        <time>2011-08-15T08:48:31Z</time>
      </trkpt>
      <trkpt lat="44.81738" lon="-0.3734">
        <ele>91.4625244</ele>
        <time>2011-08-15T08:48:41Z</time>
      </trkpt>
      <trkpt lat="44.81714" lon="-0.37396">
        <ele>90.9819336</ele>
        <time>2011-08-15T08:48:51Z</time>
      </trkpt>
      <trkpt lat="44.81687" lon="-0.3746">
        <ele>90.5013428</ele>
        <time>2011-08-15T08:49:02Z</time>
      </trkpt>
      <trkpt lat="44.8166" lon="-0.37525">
        <ele>90.0206299</ele>
        <time>2011-08-15T08:49:13Z</time>
      </trkpt>
      <trkpt lat="44.81639" lon="-0.37569">
        <ele>90.0206299</ele>
        <time>2011-08-15T08:49:21Z</time>
      </trkpt>
      <trkpt lat="44.81613" lon="-0.37626">
        <ele>90.9819336</ele>
        <time>2011-08-15T08:49:32Z</time>
      </trkpt>
      <trkpt lat="44.81599" lon="-0.37654">
        <ele>91.9432373</ele>
        <time>2011-08-15T08:49:38Z</time>
      </trkpt>
      <trkpt lat="44.81598" lon="-0.37671">
        <ele>92.4239502</ele>
        <time>2011-08-15T08:49:42Z</time>
      </trkpt>
      <trkpt lat="44.81604" lon="-0.37675">
        <ele>92.4239502</ele>
        <time>2011-08-15T08:49:44Z</time>
      </trkpt>
      <trkpt lat="44.81615" lon="-0.37691">
        <ele>92.904541</ele>
        <time>2011-08-15T08:49:49Z</time>
      </trkpt>
      <trkpt lat="44.81626" lon="-0.37708">
        <ele>93.8658447</ele>
        <time>2011-08-15T08:49:54Z</time>
      </trkpt>
      <trkpt lat="44.81637" lon="-0.37723">
        <ele>95.3077393</ele>
        <time>2011-08-15T08:49:59Z</time>
      </trkpt>
      <trkpt lat="44.81649" lon="-0.3774">
        <ele>96.2692871</ele>
        <time>2011-08-15T08:50:05Z</time>
      </trkpt>
      <trkpt lat="44.81664" lon="-0.37754">
        <ele>96.7498779</ele>
        <time>2011-08-15T08:50:11Z</time>
      </trkpt>
      <trkpt lat="44.8168" lon="-0.3777">
        <ele>96.7498779</ele>
        <time>2011-08-15T08:50:17Z</time>
      </trkpt>
      <trkpt lat="44.81699" lon="-0.37787">
        <ele>97.2304688</ele>
        <time>2011-08-15T08:50:24Z</time>
      </trkpt>
      <trkpt lat="44.8171" lon="-0.37792">
        <ele>96.7498779</ele>
        <time>2011-08-15T08:50:28Z</time>
      </trkpt>
      <trkpt lat="44.81716" lon="-0.37794">
        <ele>96.7498779</ele>
        <time>2011-08-15T08:50:31Z</time>
      </trkpt>
      <trkpt lat="44.81721" lon="-0.37785">
        <ele>96.2692871</ele>
        <time>2011-08-15T08:50:35Z</time>
      </trkpt>
      <trkpt lat="44.81725" lon="-0.37761">
        <ele>95.3077393</ele>
        <time>2011-08-15T08:50:41Z</time>
      </trkpt>
      <trkpt lat="44.8173" lon="-0.3774">
        <ele>93.8658447</ele>
        <time>2011-08-15T08:50:47Z</time>
      </trkpt>
      <trkpt lat="44.81737" lon="-0.37719">
        <ele>92.4239502</ele>
        <time>2011-08-15T08:50:52Z</time>
      </trkpt>
      <trkpt lat="44.81739" lon="-0.37716">
        <ele>92.4239502</ele>
        <time>2011-08-15T08:50:54Z</time>
      </trkpt>
      <trkpt lat="44.8175" lon="-0.37713">
        <ele>91.4625244</ele>
        <time>2011-08-15T08:50:58Z</time>
      </trkpt>
      <trkpt lat="44.81773" lon="-0.37708">
        <ele>89.0593262</ele>
        <time>2011-08-15T08:51:02Z</time>
      </trkpt>
      <trkpt lat="44.81786" lon="-0.37706">
        <ele>87.6171875</ele>
        <time>2011-08-15T08:51:04Z</time>
      </trkpt>
      <trkpt lat="44.81833" lon="-0.37691">
        <ele>81.8493652</ele>
        <time>2011-08-15T08:51:10Z</time>
      </trkpt>
      <trkpt lat="44.81889" lon="-0.37675">
        <ele>77.5234375</ele>
        <time>2011-08-15T08:51:16Z</time>
      </trkpt>
      <trkpt lat="44.81907" lon="-0.3767">
        <ele>76.0814209</ele>
        <time>2011-08-15T08:51:18Z</time>
      </trkpt>
      <trkpt lat="44.81936" lon="-0.37674">
        <ele>73.1976318</ele>
        <time>2011-08-15T08:51:22Z</time>
      </trkpt>
      <trkpt lat="44.8196" lon="-0.37694">
        <ele>72.7169189</ele>
        <time>2011-08-15T08:51:27Z</time>
      </trkpt>
      <trkpt lat="44.81975" lon="-0.37719">
        <ele>74.6395264</ele>
        <time>2011-08-15T08:51:34Z</time>
      </trkpt>
      <trkpt lat="44.81986" lon="-0.37745">
        <ele>79.4460449</ele>
        <time>2011-08-15T08:51:41Z</time>
      </trkpt>
      <trkpt lat="44.81998" lon="-0.3777">
        <ele>82.810791</ele>
        <time>2011-08-15T08:51:49Z</time>
      </trkpt>
      <trkpt lat="44.8201" lon="-0.37791">
        <ele>84.7333984</ele>
        <time>2011-08-15T08:51:56Z</time>
      </trkpt>
      <trkpt lat="44.82021" lon="-0.37812">
        <ele>87.1365967</ele>
        <time>2011-08-15T08:52:03Z</time>
      </trkpt>
      <trkpt lat="44.82031" lon="-0.37832">
        <ele>88.0980225</ele>
        <time>2011-08-15T08:52:09Z</time>
      </trkpt>
      <trkpt lat="44.82043" lon="-0.37859">
        <ele>87.6171875</ele>
        <time>2011-08-15T08:52:16Z</time>
      </trkpt>
      <trkpt lat="44.82058" lon="-0.37893">
        <ele>86.175293</ele>
        <time>2011-08-15T08:52:23Z</time>
      </trkpt>
      <trkpt lat="44.82072" lon="-0.37935">
        <ele>84.2526855</ele>
        <time>2011-08-15T08:52:30Z</time>
      </trkpt>
      <trkpt lat="44.82091" lon="-0.37983">
        <ele>82.810791</ele>
        <time>2011-08-15T08:52:38Z</time>
      </trkpt>
      <trkpt lat="44.82109" lon="-0.38019">
        <ele>82.810791</ele>
        <time>2011-08-15T08:52:45Z</time>
      </trkpt>
      <trkpt lat="44.82113" lon="-0.38028">
        <ele>82.810791</ele>
        <time>2011-08-15T08:52:47Z</time>
      </trkpt>
      <trkpt lat="44.82118" lon="-0.38049">
        <ele>82.810791</ele>
        <time>2011-08-15T08:52:52Z</time>
      </trkpt>
      <trkpt lat="44.82123" lon="-0.3805">
        <ele>82.810791</ele>
        <time>2011-08-15T08:52:55Z</time>
      </trkpt>
      <trkpt lat="44.82139" lon="-0.3805">
        <ele>83.7719727</ele>
        <time>2011-08-15T08:53:03Z</time>
      </trkpt>
      <trkpt lat="44.82156" lon="-0.38049">
        <ele>84.7333984</ele>
        <time>2011-08-15T08:53:10Z</time>
      </trkpt>
      <trkpt lat="44.82169" lon="-0.38047">
        <ele>85.2139893</ele>
        <time>2011-08-15T08:53:15Z</time>
      </trkpt>
      <trkpt lat="44.82182" lon="-0.38044">
        <ele>84.2526855</ele>
        <time>2011-08-15T08:53:20Z</time>
      </trkpt>
      <trkpt lat="44.822" lon="-0.3804">
        <ele>83.2913818</ele>
        <time>2011-08-15T08:53:27Z</time>
      </trkpt>
      <trkpt lat="44.82219" lon="-0.38037">
        <ele>83.7719727</ele>
        <time>2011-08-15T08:53:34Z</time>
      </trkpt>
      <trkpt lat="44.82248" lon="-0.38032">
        <ele>82.810791</ele>
        <time>2011-08-15T08:53:43Z</time>
      </trkpt>
      <trkpt lat="44.82287" lon="-0.38034">
        <ele>80.8881836</ele>
        <time>2011-08-15T08:53:52Z</time>
      </trkpt>
      <trkpt lat="44.82318" lon="-0.38045">
        <ele>78.9654541</ele>
        <time>2011-08-15T08:53:58Z</time>
      </trkpt>
      <trkpt lat="44.82336" lon="-0.38048">
        <ele>78.0040283</ele>
        <time>2011-08-15T08:54:01Z</time>
      </trkpt>
      <trkpt lat="44.82364" lon="-0.38039">
        <ele>75.1202393</ele>
        <time>2011-08-15T08:54:06Z</time>
      </trkpt>
      <trkpt lat="44.82382" lon="-0.38019">
        <ele>73.1976318</ele>
        <time>2011-08-15T08:54:10Z</time>
      </trkpt>
      <trkpt lat="44.82394" lon="-0.37992">
        <ele>72.2362061</ele>
        <time>2011-08-15T08:54:14Z</time>
      </trkpt>
      <trkpt lat="44.824" lon="-0.37966">
        <ele>71.2749023</ele>
        <time>2011-08-15T08:54:17Z</time>
      </trkpt>
      <trkpt lat="44.82421" lon="-0.37927">
        <ele>69.3522949</ele>
        <time>2011-08-15T08:54:22Z</time>
      </trkpt>
      <trkpt lat="44.82433" lon="-0.37915">
        <ele>68.871582</ele>
        <time>2011-08-15T08:54:24Z</time>
      </trkpt>
      <trkpt lat="44.82445" lon="-0.37906">
        <ele>68.3908691</ele>
        <time>2011-08-15T08:54:26Z</time>
      </trkpt>
      <trkpt lat="44.82456" lon="-0.3791">
        <ele>67.9102783</ele>
        <time>2011-08-15T08:54:29Z</time>
      </trkpt>
      <trkpt lat="44.82461" lon="-0.37917">
        <ele>67.9102783</ele>
        <time>2011-08-15T08:54:31Z</time>
      </trkpt>
      <trkpt lat="44.82468" lon="-0.37926">
        <ele>69.3522949</ele>
        <time>2011-08-15T08:54:34Z</time>
      </trkpt>
      <trkpt lat="44.8249" lon="-0.37952">
        <ele>67.9102783</ele>
        <time>2011-08-15T08:54:42Z</time>
      </trkpt>
      <trkpt lat="44.82501" lon="-0.37968">
        <ele>66.9489746</ele>
        <time>2011-08-15T08:54:46Z</time>
      </trkpt>
      <trkpt lat="44.82512" lon="-0.37992">
        <ele>66.9489746</ele>
        <time>2011-08-15T08:54:52Z</time>
      </trkpt>
      <trkpt lat="44.82523" lon="-0.38016">
        <ele>65.0263672</ele>
        <time>2011-08-15T08:54:57Z</time>
      </trkpt>
      <trkpt lat="44.82528" lon="-0.38042">
        <ele>63.5843506</ele>
        <time>2011-08-15T08:55:01Z</time>
      </trkpt>
      <trkpt lat="44.82529" lon="-0.38056">
        <ele>63.1036377</ele>
        <time>2011-08-15T08:55:03Z</time>
      </trkpt>
      <trkpt lat="44.82534" lon="-0.38079">
        <ele>63.1036377</ele>
        <time>2011-08-15T08:55:07Z</time>
      </trkpt>
      <trkpt lat="44.82536" lon="-0.38107">
        <ele>65.0263672</ele>
        <time>2011-08-15T08:55:11Z</time>
      </trkpt>
      <trkpt lat="44.82551" lon="-0.38139">
        <ele>65.9876709</ele>
        <time>2011-08-15T08:55:17Z</time>
      </trkpt>
      <trkpt lat="44.82559" lon="-0.38156">
        <ele>65.9876709</ele>
        <time>2011-08-15T08:55:20Z</time>
      </trkpt>
      <trkpt lat="44.82568" lon="-0.38194">
        <ele>59.2584229</ele>
        <time>2011-08-15T08:55:26Z</time>
      </trkpt>
      <trkpt lat="44.82564" lon="-0.38243">
        <ele>53.9711914</ele>
        <time>2011-08-15T08:55:32Z</time>
      </trkpt>
      <trkpt lat="44.82567" lon="-0.3827">
        <ele>53.4904785</ele>
        <time>2011-08-15T08:55:35Z</time>
      </trkpt>
      <trkpt lat="44.82579" lon="-0.38306">
        <ele>52.048584</ele>
        <time>2011-08-15T08:55:40Z</time>
      </trkpt>
      <trkpt lat="44.82585" lon="-0.38316">
        <ele>54.932373</ele>
        <time>2011-08-15T08:55:42Z</time>
      </trkpt>
      <trkpt lat="44.82594" lon="-0.3833">
        <ele>55.8937988</ele>
        <time>2011-08-15T08:55:46Z</time>
      </trkpt>
      <trkpt lat="44.82605" lon="-0.38351">
        <ele>58.2971191</ele>
        <time>2011-08-15T08:55:52Z</time>
      </trkpt>
      <trkpt lat="44.82612" lon="-0.38373">
        <ele>63.1036377</ele>
        <time>2011-08-15T08:55:58Z</time>
      </trkpt>
      <trkpt lat="44.82619" lon="-0.38388">
        <ele>65.5070801</ele>
        <time>2011-08-15T08:56:03Z</time>
      </trkpt>
      <trkpt lat="44.82626" lon="-0.3841">
        <ele>66.9489746</ele>
        <time>2011-08-15T08:56:09Z</time>
      </trkpt>
      <trkpt lat="44.82632" lon="-0.38425">
        <ele>68.3908691</ele>
        <time>2011-08-15T08:56:14Z</time>
      </trkpt>
      <trkpt lat="44.82638" lon="-0.38451">
        <ele>67.9102783</ele>
        <time>2011-08-15T08:56:21Z</time>
      </trkpt>
      <trkpt lat="44.82639" lon="-0.38481">
        <ele>69.3522949</ele>
        <time>2011-08-15T08:56:29Z</time>
      </trkpt>
      <trkpt lat="44.8264" lon="-0.38513">
        <ele>69.3522949</ele>
        <time>2011-08-15T08:56:37Z</time>
      </trkpt>
      <trkpt lat="44.82643" lon="-0.38533">
        <ele>69.8328857</ele>
        <time>2011-08-15T08:56:43Z</time>
      </trkpt>
      <trkpt lat="44.82647" lon="-0.38549">
        <ele>70.7941895</ele>
        <time>2011-08-15T08:56:49Z</time>
      </trkpt>
      <trkpt lat="44.8265" lon="-0.38574">
        <ele>72.2362061</ele>
        <time>2011-08-15T08:56:57Z</time>
      </trkpt>
      <trkpt lat="44.82657" lon="-0.38605">
        <ele>72.7169189</ele>
        <time>2011-08-15T08:57:06Z</time>
      </trkpt>
      <trkpt lat="44.82664" lon="-0.38636">
        <ele>73.1976318</ele>
        <time>2011-08-15T08:57:14Z</time>
      </trkpt>
      <trkpt lat="44.82673" lon="-0.38676">
        <ele>75.1202393</ele>
        <time>2011-08-15T08:57:23Z</time>
      </trkpt>
      <trkpt lat="44.82678" lon="-0.38703">
        <ele>77.0428467</ele>
        <time>2011-08-15T08:57:29Z</time>
      </trkpt>
      <trkpt lat="44.82683" lon="-0.38719">
        <ele>77.5234375</ele>
        <time>2011-08-15T08:57:33Z</time>
      </trkpt>
      <trkpt lat="44.8269" lon="-0.38754">
        <ele>78.4847412</ele>
        <time>2011-08-15T08:57:41Z</time>
      </trkpt>
      <trkpt lat="44.82699" lon="-0.38795">
        <ele>78.9654541</ele>
        <time>2011-08-15T08:57:50Z</time>
      </trkpt>
      <trkpt lat="44.82708" lon="-0.38839">
        <ele>80.8881836</ele>
        <time>2011-08-15T08:58:00Z</time>
      </trkpt>
      <trkpt lat="44.82714" lon="-0.38874">
        <ele>82.810791</ele>
        <time>2011-08-15T08:58:08Z</time>
      </trkpt>
      <trkpt lat="44.82716" lon="-0.38899">
        <ele>85.2139893</ele>
        <time>2011-08-15T08:58:14Z</time>
      </trkpt>
      <trkpt lat="44.82715" lon="-0.38926">
        <ele>88.0980225</ele>
        <time>2011-08-15T08:58:20Z</time>
      </trkpt>
      <trkpt lat="44.82715" lon="-0.38948">
        <ele>89.0593262</ele>
        <time>2011-08-15T08:58:25Z</time>
      </trkpt>
      <trkpt lat="44.82713" lon="-0.38975">
        <ele>88.5787354</ele>
        <time>2011-08-15T08:58:31Z</time>
      </trkpt>
      <trkpt lat="44.8271" lon="-0.39005">
        <ele>90.0206299</ele>
        <time>2011-08-15T08:58:37Z</time>
      </trkpt>
      <trkpt lat="44.82709" lon="-0.39043">
        <ele>89.0593262</ele>
        <time>2011-08-15T08:58:43Z</time>
      </trkpt>
      <trkpt lat="44.82709" lon="-0.39061">
        <ele>89.0593262</ele>
        <time>2011-08-15T08:58:46Z</time>
      </trkpt>
      <trkpt lat="44.82709" lon="-0.39083">
        <ele>89.0593262</ele>
        <time>2011-08-15T08:58:52Z</time>
      </trkpt>
      <trkpt lat="44.82708" lon="-0.39084">
        <ele>88.5787354</ele>
        <time>2011-08-15T08:58:53Z</time>
      </trkpt>
      <trkpt lat="44.82708" lon="-0.39086">
        <ele>88.5787354</ele>
        <time>2011-08-15T08:59:00Z</time>
      </trkpt>
      <trkpt lat="44.82708" lon="-0.39086">
        <ele>86.6560059</ele>
        <time>2011-08-15T08:59:10Z</time>
      </trkpt>
      <trkpt lat="44.82707" lon="-0.39089">
        <ele>90.9819336</ele>
        <time>2011-08-15T08:59:29Z</time>
      </trkpt>
      <trkpt lat="44.82706" lon="-0.39088">
        <ele>89.539917</ele>
        <time>2011-08-15T08:59:38Z</time>
      </trkpt>
      <trkpt lat="44.82694" lon="-0.39089">
        <ele>89.0593262</ele>
        <time>2011-08-15T08:59:42Z</time>
      </trkpt>
      <trkpt lat="44.82663" lon="-0.39097">
        <ele>87.6171875</ele>
        <time>2011-08-15T08:59:50Z</time>
      </trkpt>
      <trkpt lat="44.82642" lon="-0.39102">
        <ele>87.6171875</ele>
        <time>2011-08-15T08:59:55Z</time>
      </trkpt>
      <trkpt lat="44.82631" lon="-0.39103">
        <ele>87.6171875</ele>
        <time>2011-08-15T08:59:58Z</time>
      </trkpt>
      <trkpt lat="44.82627" lon="-0.39115">
        <ele>86.6560059</ele>
        <time>2011-08-15T09:00:02Z</time>
      </trkpt>
      <trkpt lat="44.82628" lon="-0.3912">
        <ele>86.6560059</ele>
        <time>2011-08-15T09:00:03Z</time>
      </trkpt>
      <trkpt lat="44.82634" lon="-0.39167">
        <ele>84.7333984</ele>
        <time>2011-08-15T09:00:11Z</time>
      </trkpt>
      <trkpt lat="44.82639" lon="-0.39216">
        <ele>85.2139893</ele>
        <time>2011-08-15T09:00:19Z</time>
      </trkpt>
      <trkpt lat="44.82645" lon="-0.39258">
        <ele>85.2139893</ele>
        <time>2011-08-15T09:00:27Z</time>
      </trkpt>
      <trkpt lat="44.82653" lon="-0.39298">
        <ele>85.6945801</ele>
        <time>2011-08-15T09:00:35Z</time>
      </trkpt>
      <trkpt lat="44.82663" lon="-0.3933">
        <ele>85.2139893</ele>
        <time>2011-08-15T09:00:41Z</time>
      </trkpt>
      <trkpt lat="44.82676" lon="-0.39369">
        <ele>84.2526855</ele>
        <time>2011-08-15T09:00:48Z</time>
      </trkpt>
      <trkpt lat="44.82696" lon="-0.39425">
        <ele>83.7719727</ele>
        <time>2011-08-15T09:00:57Z</time>
      </trkpt>
      <trkpt lat="44.82711" lon="-0.39467">
        <ele>83.2913818</ele>
        <time>2011-08-15T09:01:04Z</time>
      </trkpt>
      <trkpt lat="44.82731" lon="-0.39521">
        <ele>82.3300781</ele>
        <time>2011-08-15T09:01:13Z</time>
      </trkpt>
      <trkpt lat="44.82744" lon="-0.39552">
        <ele>81.8493652</ele>
        <time>2011-08-15T09:01:19Z</time>
      </trkpt>
      <trkpt lat="44.82753" lon="-0.39575">
        <ele>82.3300781</ele>
        <time>2011-08-15T09:01:24Z</time>
      </trkpt>
      <trkpt lat="44.82756" lon="-0.39579">
        <ele>82.3300781</ele>
        <time>2011-08-15T09:01:25Z</time>
      </trkpt>
      <trkpt lat="44.82782" lon="-0.39608">
        <ele>82.810791</ele>
        <time>2011-08-15T09:01:32Z</time>
      </trkpt>
      <trkpt lat="44.82811" lon="-0.39644">
        <ele>83.7719727</ele>
        <time>2011-08-15T09:01:39Z</time>
      </trkpt>
      <trkpt lat="44.82839" lon="-0.39678">
        <ele>84.7333984</ele>
        <time>2011-08-15T09:01:46Z</time>
      </trkpt>
      <trkpt lat="44.82847" lon="-0.39687">
        <ele>84.7333984</ele>
        <time>2011-08-15T09:01:48Z</time>
      </trkpt>
      <trkpt lat="44.82869" lon="-0.39712">
        <ele>85.2139893</ele>
        <time>2011-08-15T09:01:54Z</time>
      </trkpt>
      <trkpt lat="44.82876" lon="-0.39721">
        <ele>86.175293</ele>
        <time>2011-08-15T09:01:56Z</time>
      </trkpt>
      <trkpt lat="44.82888" lon="-0.39747">
        <ele>87.6171875</ele>
        <time>2011-08-15T09:02:01Z</time>
      </trkpt>
      <trkpt lat="44.82891" lon="-0.39751">
        <ele>88.0980225</ele>
        <time>2011-08-15T09:02:02Z</time>
      </trkpt>
      <trkpt lat="44.82898" lon="-0.39759">
        <ele>88.5787354</ele>
        <time>2011-08-15T09:02:04Z</time>
      </trkpt>
      <trkpt lat="44.82899" lon="-0.39774">
        <ele>88.0980225</ele>
        <time>2011-08-15T09:02:07Z</time>
      </trkpt>
      <trkpt lat="44.82888" lon="-0.39787">
        <ele>87.6171875</ele>
        <time>2011-08-15T09:02:10Z</time>
      </trkpt>
      <trkpt lat="44.82853" lon="-0.39821">
        <ele>87.1365967</ele>
        <time>2011-08-15T09:02:19Z</time>
      </trkpt>
      <trkpt lat="44.82823" lon="-0.39853">
        <ele>87.6171875</ele>
        <time>2011-08-15T09:02:27Z</time>
      </trkpt>
      <trkpt lat="44.82789" lon="-0.39885">
        <ele>86.6560059</ele>
        <time>2011-08-15T09:02:35Z</time>
      </trkpt>
      <trkpt lat="44.82749" lon="-0.39921">
        <ele>85.2139893</ele>
        <time>2011-08-15T09:02:44Z</time>
      </trkpt>
      <trkpt lat="44.82735" lon="-0.39932">
        <ele>84.2526855</ele>
        <time>2011-08-15T09:02:47Z</time>
      </trkpt>
      <trkpt lat="44.8271" lon="-0.39953">
        <ele>82.810791</ele>
        <time>2011-08-15T09:02:53Z</time>
      </trkpt>
      <trkpt lat="44.82688" lon="-0.39978">
        <ele>82.3300781</ele>
        <time>2011-08-15T09:03:00Z</time>
      </trkpt>
      <trkpt lat="44.82676" lon="-0.39997">
        <ele>81.8493652</ele>
        <time>2011-08-15T09:03:04Z</time>
      </trkpt>
      <trkpt lat="44.8266" lon="-0.40039">
        <ele>84.2526855</ele>
        <time>2011-08-15T09:03:11Z</time>
      </trkpt>
      <trkpt lat="44.82633" lon="-0.4008">
        <ele>82.3300781</ele>
        <time>2011-08-15T09:03:19Z</time>
      </trkpt>
      <trkpt lat="44.82616" lon="-0.40096">
        <ele>80.8881836</ele>
        <time>2011-08-15T09:03:23Z</time>
      </trkpt>
      <trkpt lat="44.826" lon="-0.40117">
        <ele>78.4847412</ele>
        <time>2011-08-15T09:03:27Z</time>
      </trkpt>
      <trkpt lat="44.82596" lon="-0.40133">
        <ele>77.0428467</ele>
        <time>2011-08-15T09:03:29Z</time>
      </trkpt>
      <trkpt lat="44.82592" lon="-0.40163">
        <ele>75.6008301</ele>
        <time>2011-08-15T09:03:32Z</time>
      </trkpt>
      <trkpt lat="44.82592" lon="-0.40184">
        <ele>74.1588135</ele>
        <time>2011-08-15T09:03:34Z</time>
      </trkpt>
      <trkpt lat="44.82596" lon="-0.40253">
        <ele>70.7941895</ele>
        <time>2011-08-15T09:03:41Z</time>
      </trkpt>
      <trkpt lat="44.82597" lon="-0.40303">
        <ele>69.3522949</ele>
        <time>2011-08-15T09:03:46Z</time>
      </trkpt>
      <trkpt lat="44.82589" lon="-0.40366">
        <ele>66.4682617</ele>
        <time>2011-08-15T09:03:53Z</time>
      </trkpt>
      <trkpt lat="44.82587" lon="-0.40375">
        <ele>66.4682617</ele>
        <time>2011-08-15T09:03:54Z</time>
      </trkpt>
      <trkpt lat="44.82585" lon="-0.4039">
        <ele>65.5070801</ele>
        <time>2011-08-15T09:03:56Z</time>
      </trkpt>
      <trkpt lat="44.82583" lon="-0.40435">
        <ele>65.5070801</ele>
        <time>2011-08-15T09:04:02Z</time>
      </trkpt>
      <trkpt lat="44.82583" lon="-0.40443">
        <ele>65.5070801</ele>
        <time>2011-08-15T09:04:03Z</time>
      </trkpt>
      <trkpt lat="44.82584" lon="-0.40477">
        <ele>64.0650635</ele>
        <time>2011-08-15T09:04:08Z</time>
      </trkpt>
      <trkpt lat="44.82585" lon="-0.4049">
        <ele>63.1036377</ele>
        <time>2011-08-15T09:04:10Z</time>
      </trkpt>
      <trkpt lat="44.8259" lon="-0.40534">
        <ele>60.2197266</ele>
        <time>2011-08-15T09:04:17Z</time>
      </trkpt>
      <trkpt lat="44.8259" lon="-0.40541">
        <ele>59.7391357</ele>
        <time>2011-08-15T09:04:18Z</time>
      </trkpt>
      <trkpt lat="44.82587" lon="-0.40567">
        <ele>58.77771</ele>
        <time>2011-08-15T09:04:22Z</time>
      </trkpt>
      <trkpt lat="44.82582" lon="-0.40585">
        <ele>59.2584229</ele>
        <time>2011-08-15T09:04:25Z</time>
      </trkpt>
      <trkpt lat="44.82563" lon="-0.40613">
        <ele>58.2971191</ele>
        <time>2011-08-15T09:04:30Z</time>
      </trkpt>
      <trkpt lat="44.82542" lon="-0.40655">
        <ele>57.3358154</ele>
        <time>2011-08-15T09:04:37Z</time>
      </trkpt>
      <trkpt lat="44.8254" lon="-0.40662">
        <ele>57.3358154</ele>
        <time>2011-08-15T09:04:38Z</time>
      </trkpt>
      <trkpt lat="44.82535" lon="-0.40685">
        <ele>56.8551025</ele>
        <time>2011-08-15T09:04:41Z</time>
      </trkpt>
      <trkpt lat="44.82535" lon="-0.40706">
        <ele>55.8937988</ele>
        <time>2011-08-15T09:04:44Z</time>
      </trkpt>
      <trkpt lat="44.82547" lon="-0.40731">
        <ele>55.4130859</ele>
        <time>2011-08-15T09:04:48Z</time>
      </trkpt>
      <trkpt lat="44.82554" lon="-0.40762">
        <ele>53.4904785</ele>
        <time>2011-08-15T09:04:52Z</time>
      </trkpt>
      <trkpt lat="44.82557" lon="-0.40785">
        <ele>53.4904785</ele>
        <time>2011-08-15T09:04:55Z</time>
      </trkpt>
      <trkpt lat="44.82552" lon="-0.40811">
        <ele>52.5291748</ele>
        <time>2011-08-15T09:04:59Z</time>
      </trkpt>
      <trkpt lat="44.82543" lon="-0.40822">
        <ele>53.0097656</ele>
        <time>2011-08-15T09:05:02Z</time>
      </trkpt>
      <trkpt lat="44.8253" lon="-0.40849">
        <ele>56.3745117</ele>
        <time>2011-08-15T09:05:10Z</time>
      </trkpt>
      <trkpt lat="44.82517" lon="-0.40862">
        <ele>58.2971191</ele>
        <time>2011-08-15T09:05:16Z</time>
      </trkpt>
      <trkpt lat="44.82506" lon="-0.40882">
        <ele>58.2971191</ele>
        <time>2011-08-15T09:05:21Z</time>
      </trkpt>
      <trkpt lat="44.82496" lon="-0.40914">
        <ele>58.77771</ele>
        <time>2011-08-15T09:05:27Z</time>
      </trkpt>
      <trkpt lat="44.82486" lon="-0.40949">
        <ele>60.2197266</ele>
        <time>2011-08-15T09:05:34Z</time>
      </trkpt>
      <trkpt lat="44.82482" lon="-0.40973">
        <ele>60.7003174</ele>
        <time>2011-08-15T09:05:41Z</time>
      </trkpt>
      <trkpt lat="44.82476" lon="-0.40994">
        <ele>61.1810303</ele>
        <time>2011-08-15T09:05:47Z</time>
      </trkpt>
      <trkpt lat="44.82469" lon="-0.41012">
        <ele>60.7003174</ele>
        <time>2011-08-15T09:05:52Z</time>
      </trkpt>
      <trkpt lat="44.8246" lon="-0.41039">
        <ele>61.1810303</ele>
        <time>2011-08-15T09:05:58Z</time>
      </trkpt>
      <trkpt lat="44.82449" lon="-0.41071">
        <ele>62.142334</ele>
        <time>2011-08-15T09:06:05Z</time>
      </trkpt>
      <trkpt lat="44.82437" lon="-0.41091">
        <ele>62.6229248</ele>
        <time>2011-08-15T09:06:10Z</time>
      </trkpt>
      <trkpt lat="44.82426" lon="-0.41092">
        <ele>62.142334</ele>
        <time>2011-08-15T09:06:15Z</time>
      </trkpt>
      <trkpt lat="44.82419" lon="-0.41084">
        <ele>61.6617432</ele>
        <time>2011-08-15T09:06:19Z</time>
      </trkpt>
      <trkpt lat="44.82404" lon="-0.41069">
        <ele>59.2584229</ele>
        <time>2011-08-15T09:06:23Z</time>
      </trkpt>
      <trkpt lat="44.8239" lon="-0.41055">
        <ele>55.8937988</ele>
        <time>2011-08-15T09:06:26Z</time>
      </trkpt>
      <trkpt lat="44.82374" lon="-0.41036">
        <ele>53.9711914</ele>
        <time>2011-08-15T09:06:31Z</time>
      </trkpt>
      <trkpt lat="44.82354" lon="-0.41011">
        <ele>52.048584</ele>
        <time>2011-08-15T09:06:36Z</time>
      </trkpt>
      <trkpt lat="44.82334" lon="-0.40992">
        <ele>50.6065674</ele>
        <time>2011-08-15T09:06:41Z</time>
      </trkpt>
      <trkpt lat="44.82331" lon="-0.40989">
        <ele>49.6452637</ele>
        <time>2011-08-15T09:06:42Z</time>
      </trkpt>
      <trkpt lat="44.82315" lon="-0.4098">
        <ele>50.1259766</ele>
        <time>2011-08-15T09:06:46Z</time>
      </trkpt>
      <trkpt lat="44.823" lon="-0.40979">
        <ele>51.0871582</ele>
        <time>2011-08-15T09:06:49Z</time>
      </trkpt>
      <trkpt lat="44.82285" lon="-0.40979">
        <ele>51.0871582</ele>
        <time>2011-08-15T09:06:52Z</time>
      </trkpt>
      <trkpt lat="44.82275" lon="-0.40975">
        <ele>49.6452637</ele>
        <time>2011-08-15T09:06:56Z</time>
      </trkpt>
      <trkpt lat="44.82272" lon="-0.40965">
        <ele>46.2806396</ele>
        <time>2011-08-15T09:07:01Z</time>
      </trkpt>
      <trkpt lat="44.82261" lon="-0.40958">
        <ele>51.5678711</ele>
        <time>2011-08-15T09:07:06Z</time>
      </trkpt>
      <trkpt lat="44.82257" lon="-0.40953">
        <ele>53.4904785</ele>
        <time>2011-08-15T09:07:08Z</time>
      </trkpt>
      <trkpt lat="44.82246" lon="-0.40945">
        <ele>54.4517822</ele>
        <time>2011-08-15T09:07:13Z</time>
      </trkpt>
      <trkpt lat="44.82236" lon="-0.40936">
        <ele>54.4517822</ele>
        <time>2011-08-15T09:07:18Z</time>
      </trkpt>
      <trkpt lat="44.82227" lon="-0.40927">
        <ele>57.3358154</ele>
        <time>2011-08-15T09:07:23Z</time>
      </trkpt>
      <trkpt lat="44.82216" lon="-0.40919">
        <ele>60.7003174</ele>
        <time>2011-08-15T09:07:29Z</time>
      </trkpt>
      <trkpt lat="44.82207" lon="-0.40912">
        <ele>62.142334</ele>
        <time>2011-08-15T09:07:35Z</time>
      </trkpt>
      <trkpt lat="44.82199" lon="-0.40905">
        <ele>62.6229248</ele>
        <time>2011-08-15T09:07:40Z</time>
      </trkpt>
      <trkpt lat="44.82194" lon="-0.40895">
        <ele>63.5843506</ele>
        <time>2011-08-15T09:07:46Z</time>
      </trkpt>
      <trkpt lat="44.82189" lon="-0.40894">
        <ele>63.5843506</ele>
        <time>2011-08-15T09:07:51Z</time>
      </trkpt>
      <trkpt lat="44.82185" lon="-0.40899">
        <ele>64.0650635</ele>
        <time>2011-08-15T09:07:54Z</time>
      </trkpt>
      <trkpt lat="44.82181" lon="-0.40915">
        <ele>62.6229248</ele>
        <time>2011-08-15T09:07:58Z</time>
      </trkpt>
      <trkpt lat="44.82171" lon="-0.40946">
        <ele>61.1810303</ele>
        <time>2011-08-15T09:08:04Z</time>
      </trkpt>
      <trkpt lat="44.82154" lon="-0.40986">
        <ele>58.2971191</ele>
        <time>2011-08-15T09:08:12Z</time>
      </trkpt>
      <trkpt lat="44.82132" lon="-0.40996">
        <ele>57.3358154</ele>
        <time>2011-08-15T09:08:18Z</time>
      </trkpt>
      <trkpt lat="44.82124" lon="-0.40994">
        <ele>56.8551025</ele>
        <time>2011-08-15T09:08:20Z</time>
      </trkpt>
      <trkpt lat="44.82104" lon="-0.40988">
        <ele>55.4130859</ele>
        <time>2011-08-15T09:08:26Z</time>
      </trkpt>
      <trkpt lat="44.82093" lon="-0.40986">
        <ele>54.4517822</ele>
        <time>2011-08-15T09:08:30Z</time>
      </trkpt>
      <trkpt lat="44.82084" lon="-0.40985">
        <ele>52.5291748</ele>
        <time>2011-08-15T09:08:36Z</time>
      </trkpt>
      <trkpt lat="44.82074" lon="-0.40978">
        <ele>50.1259766</ele>
        <time>2011-08-15T09:08:42Z</time>
      </trkpt>
      <trkpt lat="44.82064" lon="-0.40966">
        <ele>48.68396</ele>
        <time>2011-08-15T09:08:46Z</time>
      </trkpt>
      <trkpt lat="44.82051" lon="-0.40959">
        <ele>48.2033691</ele>
        <time>2011-08-15T09:08:49Z</time>
      </trkpt>
      <trkpt lat="44.82041" lon="-0.40969">
        <ele>47.7225342</ele>
        <time>2011-08-15T09:08:53Z</time>
      </trkpt>
      <trkpt lat="44.8204" lon="-0.40974">
        <ele>47.2418213</ele>
        <time>2011-08-15T09:08:54Z</time>
      </trkpt>
      <trkpt lat="44.8203" lon="-0.4101">
        <ele>46.2806396</ele>
        <time>2011-08-15T09:09:01Z</time>
      </trkpt>
      <trkpt lat="44.82024" lon="-0.41031">
        <ele>45.7999268</ele>
        <time>2011-08-15T09:09:06Z</time>
      </trkpt>
      <trkpt lat="44.82029" lon="-0.41048">
        <ele>44.838623</ele>
        <time>2011-08-15T09:09:10Z</time>
      </trkpt>
      <trkpt lat="44.82022" lon="-0.41077">
        <ele>44.3580322</ele>
        <time>2011-08-15T09:09:16Z</time>
      </trkpt>
      <trkpt lat="44.82004" lon="-0.41096">
        <ele>43.8773193</ele>
        <time>2011-08-15T09:09:22Z</time>
      </trkpt>
      <trkpt lat="44.81981" lon="-0.41114">
        <ele>43.3966064</ele>
        <time>2011-08-15T09:09:29Z</time>
      </trkpt>
      <trkpt lat="44.8197" lon="-0.41131">
        <ele>42.9160156</ele>
        <time>2011-08-15T09:09:34Z</time>
      </trkpt>
      <trkpt lat="44.8197" lon="-0.41153">
        <ele>42.9160156</ele>
        <time>2011-08-15T09:09:38Z</time>
      </trkpt>
      <trkpt lat="44.81956" lon="-0.41183">
        <ele>43.3966064</ele>
        <time>2011-08-15T09:09:44Z</time>
      </trkpt>
      <trkpt lat="44.81953" lon="-0.41187">
        <ele>43.8773193</ele>
        <time>2011-08-15T09:09:45Z</time>
      </trkpt>
      <trkpt lat="44.81939" lon="-0.41213">
        <ele>45.3192139</ele>
        <time>2011-08-15T09:09:52Z</time>
      </trkpt>
      <trkpt lat="44.81942" lon="-0.41225">
        <ele>44.838623</ele>
        <time>2011-08-15T09:09:56Z</time>
      </trkpt>
      <trkpt lat="44.81945" lon="-0.41242">
        <ele>43.8773193</ele>
        <time>2011-08-15T09:09:59Z</time>
      </trkpt>
      <trkpt lat="44.8194" lon="-0.41256">
        <ele>42.9160156</ele>
        <time>2011-08-15T09:10:01Z</time>
      </trkpt>
      <trkpt lat="44.81928" lon="-0.4128">
        <ele>42.9160156</ele>
        <time>2011-08-15T09:10:05Z</time>
      </trkpt>
      <trkpt lat="44.81921" lon="-0.4132">
        <ele>40.0321045</ele>
        <time>2011-08-15T09:10:11Z</time>
      </trkpt>
      <trkpt lat="44.81917" lon="-0.41341">
        <ele>37.6286621</ele>
        <time>2011-08-15T09:10:15Z</time>
      </trkpt>
      <trkpt lat="44.81912" lon="-0.41378">
        <ele>38.5900879</ele>
        <time>2011-08-15T09:10:21Z</time>
      </trkpt>
      <trkpt lat="44.81908" lon="-0.41395">
        <ele>39.0706787</ele>
        <time>2011-08-15T09:10:24Z</time>
      </trkpt>
      <trkpt lat="44.81901" lon="-0.41433">
        <ele>39.5512695</ele>
        <time>2011-08-15T09:10:31Z</time>
      </trkpt>
      <trkpt lat="44.81895" lon="-0.41481">
        <ele>41.473999</ele>
        <time>2011-08-15T09:10:39Z</time>
      </trkpt>
      <trkpt lat="44.81885" lon="-0.41544">
        <ele>43.8773193</ele>
        <time>2011-08-15T09:10:49Z</time>
      </trkpt>
      <trkpt lat="44.8188" lon="-0.41573">
        <ele>46.2806396</ele>
        <time>2011-08-15T09:10:54Z</time>
      </trkpt>
      <trkpt lat="44.8187" lon="-0.41619">
        <ele>45.7999268</ele>
        <time>2011-08-15T09:11:02Z</time>
      </trkpt>
      <trkpt lat="44.81865" lon="-0.41639">
        <ele>46.2806396</ele>
        <time>2011-08-15T09:11:06Z</time>
      </trkpt>
      <trkpt lat="44.81869" lon="-0.41664">
        <ele>43.3966064</ele>
        <time>2011-08-15T09:11:11Z</time>
      </trkpt>
      <trkpt lat="44.81871" lon="-0.41671">
        <ele>42.4354248</ele>
        <time>2011-08-15T09:11:15Z</time>
      </trkpt>
      <trkpt lat="44.81872" lon="-0.41673">
        <ele>41.9547119</ele>
        <time>2011-08-15T09:11:17Z</time>
      </trkpt>
      <trkpt lat="44.81877" lon="-0.41686">
        <ele>40.0321045</ele>
        <time>2011-08-15T09:11:21Z</time>
      </trkpt>
      <trkpt lat="44.81878" lon="-0.41715">
        <ele>36.1867676</ele>
        <time>2011-08-15T09:11:25Z</time>
      </trkpt>
      <trkpt lat="44.81868" lon="-0.41745">
        <ele>35.2254639</ele>
        <time>2011-08-15T09:11:29Z</time>
      </trkpt>
      <trkpt lat="44.81866" lon="-0.41751">
        <ele>34.744873</ele>
        <time>2011-08-15T09:11:30Z</time>
      </trkpt>
      <trkpt lat="44.81862" lon="-0.41765">
        <ele>32.8222656</ele>
        <time>2011-08-15T09:11:34Z</time>
      </trkpt>
      <trkpt lat="44.81862" lon="-0.41773">
        <ele>32.3415527</ele>
        <time>2011-08-15T09:11:36Z</time>
      </trkpt>
      <trkpt lat="44.81865" lon="-0.41801">
        <ele>33.7834473</ele>
        <time>2011-08-15T09:11:41Z</time>
      </trkpt>
      <trkpt lat="44.81867" lon="-0.41821">
        <ele>36.1867676</ele>
        <time>2011-08-15T09:11:45Z</time>
      </trkpt>
      <trkpt lat="44.81866" lon="-0.41843">
        <ele>40.0321045</ele>
        <time>2011-08-15T09:11:50Z</time>
      </trkpt>
      <trkpt lat="44.81857" lon="-0.41867">
        <ele>43.8773193</ele>
        <time>2011-08-15T09:11:55Z</time>
      </trkpt>
      <trkpt lat="44.81849" lon="-0.41884">
        <ele>43.3966064</ele>
        <time>2011-08-15T09:12:00Z</time>
      </trkpt>
      <trkpt lat="44.81842" lon="-0.41898">
        <ele>45.7999268</ele>
        <time>2011-08-15T09:12:05Z</time>
      </trkpt>
      <trkpt lat="44.81835" lon="-0.41915">
        <ele>46.7612305</ele>
        <time>2011-08-15T09:12:11Z</time>
      </trkpt>
      <trkpt lat="44.81826" lon="-0.41933">
        <ele>47.2418213</ele>
        <time>2011-08-15T09:12:16Z</time>
      </trkpt>
      <trkpt lat="44.81816" lon="-0.41953">
        <ele>49.6452637</ele>
        <time>2011-08-15T09:12:21Z</time>
      </trkpt>
      <trkpt lat="44.81809" lon="-0.41972">
        <ele>51.0871582</ele>
        <time>2011-08-15T09:12:26Z</time>
      </trkpt>
      <trkpt lat="44.81796" lon="-0.42004">
        <ele>55.4130859</ele>
        <time>2011-08-15T09:12:31Z</time>
      </trkpt>
      <trkpt lat="44.81795" lon="-0.4201">
        <ele>55.4130859</ele>
        <time>2011-08-15T09:12:32Z</time>
      </trkpt>
      <trkpt lat="44.81783" lon="-0.42035">
        <ele>54.932373</ele>
        <time>2011-08-15T09:12:37Z</time>
      </trkpt>
      <trkpt lat="44.81778" lon="-0.42044">
        <ele>54.932373</ele>
        <time>2011-08-15T09:12:39Z</time>
      </trkpt>
      <trkpt lat="44.81771" lon="-0.42049">
        <ele>54.932373</ele>
        <time>2011-08-15T09:12:41Z</time>
      </trkpt>
      <trkpt lat="44.81755" lon="-0.42057">
        <ele>53.9711914</ele>
        <time>2011-08-15T09:12:46Z</time>
      </trkpt>
      <trkpt lat="44.81753" lon="-0.42056">
        <ele>53.0097656</ele>
        <time>2011-08-15T09:12:49Z</time>
      </trkpt>
      <trkpt lat="44.81745" lon="-0.42054">
        <ele>52.048584</ele>
        <time>2011-08-15T09:12:53Z</time>
      </trkpt>
      <trkpt lat="44.81734" lon="-0.42046">
        <ele>51.0871582</ele>
        <time>2011-08-15T09:12:59Z</time>
      </trkpt>
      <trkpt lat="44.81734" lon="-0.42044">
        <ele>47.7225342</ele>
        <time>2011-08-15T09:13:07Z</time>
      </trkpt>
      <trkpt lat="44.81732" lon="-0.42043">
        <ele>46.7612305</ele>
        <time>2011-08-15T09:13:09Z</time>
      </trkpt>
      <trkpt lat="44.8172" lon="-0.42031">
        <ele>46.7612305</ele>
        <time>2011-08-15T09:13:14Z</time>
      </trkpt>
      <trkpt lat="44.81699" lon="-0.42011">
        <ele>50.1259766</ele>
        <time>2011-08-15T09:13:21Z</time>
      </trkpt>
      <trkpt lat="44.81687" lon="-0.42">
        <ele>53.0097656</ele>
        <time>2011-08-15T09:13:26Z</time>
      </trkpt>
      <trkpt lat="44.81673" lon="-0.41991">
        <ele>55.4130859</ele>
        <time>2011-08-15T09:13:31Z</time>
      </trkpt>
      <trkpt lat="44.81653" lon="-0.4198">
        <ele>57.8165283</ele>
        <time>2011-08-15T09:13:38Z</time>
      </trkpt>
      <trkpt lat="44.81639" lon="-0.41976">
        <ele>59.7391357</ele>
        <time>2011-08-15T09:13:43Z</time>
      </trkpt>
      <trkpt lat="44.81628" lon="-0.41973">
        <ele>62.6229248</ele>
        <time>2011-08-15T09:13:48Z</time>
      </trkpt>
      <trkpt lat="44.81614" lon="-0.41975">
        <ele>63.1036377</ele>
        <time>2011-08-15T09:13:53Z</time>
      </trkpt>
      <trkpt lat="44.81601" lon="-0.41975">
        <ele>65.0263672</ele>
        <time>2011-08-15T09:13:58Z</time>
      </trkpt>
      <trkpt lat="44.81588" lon="-0.41968">
        <ele>64.5456543</ele>
        <time>2011-08-15T09:14:03Z</time>
      </trkpt>
      <trkpt lat="44.81576" lon="-0.4196">
        <ele>64.5456543</ele>
        <time>2011-08-15T09:14:09Z</time>
      </trkpt>
      <trkpt lat="44.81572" lon="-0.41952">
        <ele>65.0263672</ele>
        <time>2011-08-15T09:14:15Z</time>
      </trkpt>
      <trkpt lat="44.81572" lon="-0.41939">
        <ele>65.5070801</ele>
        <time>2011-08-15T09:14:22Z</time>
      </trkpt>
      <trkpt lat="44.81572" lon="-0.41935">
        <ele>65.0263672</ele>
        <time>2011-08-15T09:14:24Z</time>
      </trkpt>
      <trkpt lat="44.81573" lon="-0.41922">
        <ele>64.0650635</ele>
        <time>2011-08-15T09:14:29Z</time>
      </trkpt>
      <trkpt lat="44.81573" lon="-0.41919">
        <ele>64.5456543</ele>
        <time>2011-08-15T09:14:30Z</time>
      </trkpt>
      <trkpt lat="44.81574" lon="-0.41898">
        <ele>66.4682617</ele>
        <time>2011-08-15T09:14:37Z</time>
      </trkpt>
      <trkpt lat="44.81575" lon="-0.41881">
        <ele>67.4296875</ele>
        <time>2011-08-15T09:14:42Z</time>
      </trkpt>
      <trkpt lat="44.81576" lon="-0.41856">
        <ele>66.9489746</ele>
        <time>2011-08-15T09:14:50Z</time>
      </trkpt>
      <trkpt lat="44.81577" lon="-0.41832">
        <ele>65.9876709</ele>
        <time>2011-08-15T09:14:57Z</time>
      </trkpt>
      <trkpt lat="44.81575" lon="-0.41805">
        <ele>65.0263672</ele>
        <time>2011-08-15T09:15:03Z</time>
      </trkpt>
      <trkpt lat="44.81569" lon="-0.41779">
        <ele>65.0263672</ele>
        <time>2011-08-15T09:15:08Z</time>
      </trkpt>
      <trkpt lat="44.81556" lon="-0.41736">
        <ele>64.5456543</ele>
        <time>2011-08-15T09:15:16Z</time>
      </trkpt>
      <trkpt lat="44.81539" lon="-0.41704">
        <ele>64.5456543</ele>
        <time>2011-08-15T09:15:24Z</time>
      </trkpt>
      <trkpt lat="44.81531" lon="-0.41697">
        <ele>64.5456543</ele>
        <time>2011-08-15T09:15:28Z</time>
      </trkpt>
      <trkpt lat="44.8153" lon="-0.41698">
        <ele>65.0263672</ele>
        <time>2011-08-15T09:15:39Z</time>
      </trkpt>
      <trkpt lat="44.81529" lon="-0.41697">
        <ele>65.5070801</ele>
        <time>2011-08-15T09:15:47Z</time>
      </trkpt>
      <trkpt lat="44.81512" lon="-0.41687">
        <ele>66.4682617</ele>
        <time>2011-08-15T09:15:54Z</time>
      </trkpt>
      <trkpt lat="44.81486" lon="-0.41679">
        <ele>66.9489746</ele>
        <time>2011-08-15T09:16:02Z</time>
      </trkpt>
      <trkpt lat="44.81466" lon="-0.41671">
        <ele>67.4296875</ele>
        <time>2011-08-15T09:16:07Z</time>
      </trkpt>
      <trkpt lat="44.81449" lon="-0.41669">
        <ele>67.9102783</ele>
        <time>2011-08-15T09:16:11Z</time>
      </trkpt>
      <trkpt lat="44.81418" lon="-0.41681">
        <ele>68.3908691</ele>
        <time>2011-08-15T09:16:19Z</time>
      </trkpt>
      <trkpt lat="44.8138" lon="-0.41696">
        <ele>68.871582</ele>
        <time>2011-08-15T09:16:29Z</time>
      </trkpt>
      <trkpt lat="44.8134" lon="-0.41701">
        <ele>70.7941895</ele>
        <time>2011-08-15T09:16:39Z</time>
      </trkpt>
      <trkpt lat="44.81332" lon="-0.41702">
        <ele>71.2749023</ele>
        <time>2011-08-15T09:16:41Z</time>
      </trkpt>
      <trkpt lat="44.81294" lon="-0.41706">
        <ele>74.1588135</ele>
        <time>2011-08-15T09:16:50Z</time>
      </trkpt>
      <trkpt lat="44.81256" lon="-0.41708">
        <ele>75.6008301</ele>
        <time>2011-08-15T09:17:00Z</time>
      </trkpt>
      <trkpt lat="44.8124" lon="-0.41711">
        <ele>76.5621338</ele>
        <time>2011-08-15T09:17:06Z</time>
      </trkpt>
      <trkpt lat="44.81224" lon="-0.41712">
        <ele>77.5234375</ele>
        <time>2011-08-15T09:17:11Z</time>
      </trkpt>
      <trkpt lat="44.81199" lon="-0.41713">
        <ele>78.9654541</ele>
        <time>2011-08-15T09:17:17Z</time>
      </trkpt>
      <trkpt lat="44.81172" lon="-0.41716">
        <ele>80.8881836</ele>
        <time>2011-08-15T09:17:23Z</time>
      </trkpt>
      <trkpt lat="44.81137" lon="-0.4172">
        <ele>81.3687744</ele>
        <time>2011-08-15T09:17:31Z</time>
      </trkpt>
      <trkpt lat="44.81102" lon="-0.41728">
        <ele>80.8881836</ele>
        <time>2011-08-15T09:17:38Z</time>
      </trkpt>
      <trkpt lat="44.81065" lon="-0.41741">
        <ele>82.810791</ele>
        <time>2011-08-15T09:17:45Z</time>
      </trkpt>
      <trkpt lat="44.81054" lon="-0.41744">
        <ele>83.2913818</ele>
        <time>2011-08-15T09:17:47Z</time>
      </trkpt>
      <trkpt lat="44.81037" lon="-0.41744">
        <ele>83.7719727</ele>
        <time>2011-08-15T09:17:50Z</time>
      </trkpt>
      <trkpt lat="44.81013" lon="-0.41737">
        <ele>86.6560059</ele>
        <time>2011-08-15T09:17:55Z</time>
      </trkpt>
      <trkpt lat="44.81001" lon="-0.41729">
        <ele>88.0980225</ele>
        <time>2011-08-15T09:17:58Z</time>
      </trkpt>
      <trkpt lat="44.80987" lon="-0.41713">
        <ele>88.5787354</ele>
        <time>2011-08-15T09:18:02Z</time>
      </trkpt>
      <trkpt lat="44.80963" lon="-0.41673">
        <ele>88.5787354</ele>
        <time>2011-08-15T09:18:11Z</time>
      </trkpt>
      <trkpt lat="44.80958" lon="-0.41664">
        <ele>88.5787354</ele>
        <time>2011-08-15T09:18:13Z</time>
      </trkpt>
      <trkpt lat="44.80939" lon="-0.41628">
        <ele>89.0593262</ele>
        <time>2011-08-15T09:18:21Z</time>
      </trkpt>
      <trkpt lat="44.80922" lon="-0.41599">
        <ele>88.5787354</ele>
        <time>2011-08-15T09:18:28Z</time>
      </trkpt>
      <trkpt lat="44.80906" lon="-0.4157">
        <ele>88.5787354</ele>
        <time>2011-08-15T09:18:35Z</time>
      </trkpt>
      <trkpt lat="44.80893" lon="-0.41545">
        <ele>89.539917</ele>
        <time>2011-08-15T09:18:41Z</time>
      </trkpt>
      <trkpt lat="44.8088" lon="-0.41531">
        <ele>90.0206299</ele>
        <time>2011-08-15T09:18:46Z</time>
      </trkpt>
      <trkpt lat="44.80869" lon="-0.41542">
        <ele>89.539917</ele>
        <time>2011-08-15T09:18:50Z</time>
      </trkpt>
      <trkpt lat="44.80856" lon="-0.41576">
        <ele>89.0593262</ele>
        <time>2011-08-15T09:18:57Z</time>
      </trkpt>
      <trkpt lat="44.8085" lon="-0.41593">
        <ele>88.5787354</ele>
        <time>2011-08-15T09:19:00Z</time>
      </trkpt>
      <trkpt lat="44.80837" lon="-0.41634">
        <ele>89.0593262</ele>
        <time>2011-08-15T09:19:07Z</time>
      </trkpt>
      <trkpt lat="44.80824" lon="-0.41682">
        <ele>88.0980225</ele>
        <time>2011-08-15T09:19:14Z</time>
      </trkpt>
      <trkpt lat="44.80818" lon="-0.41721">
        <ele>87.6171875</ele>
        <time>2011-08-15T09:19:19Z</time>
      </trkpt>
      <trkpt lat="44.80817" lon="-0.4173">
        <ele>87.1365967</ele>
        <time>2011-08-15T09:19:20Z</time>
      </trkpt>
      <trkpt lat="44.80818" lon="-0.41781">
        <ele>89.539917</ele>
        <time>2011-08-15T09:19:26Z</time>
      </trkpt>
      <trkpt lat="44.80828" lon="-0.41828">
        <ele>90.0206299</ele>
        <time>2011-08-15T09:19:31Z</time>
      </trkpt>
      <trkpt lat="44.80835" lon="-0.41853">
        <ele>91.4625244</ele>
        <time>2011-08-15T09:19:34Z</time>
      </trkpt>
      <trkpt lat="44.8084" lon="-0.41886">
        <ele>89.0593262</ele>
        <time>2011-08-15T09:19:37Z</time>
      </trkpt>
      <trkpt lat="44.80834" lon="-0.41928">
        <ele>85.2139893</ele>
        <time>2011-08-15T09:19:41Z</time>
      </trkpt>
      <trkpt lat="44.80809" lon="-0.42016">
        <ele>80.8881836</ele>
        <time>2011-08-15T09:19:49Z</time>
      </trkpt>
      <trkpt lat="44.80787" lon="-0.42081">
        <ele>80.4074707</ele>
        <time>2011-08-15T09:19:55Z</time>
      </trkpt>
      <trkpt lat="44.80774" lon="-0.4213">
        <ele>79.4460449</ele>
        <time>2011-08-15T09:20:00Z</time>
      </trkpt>
      <trkpt lat="44.80761" lon="-0.42183">
        <ele>79.4460449</ele>
        <time>2011-08-15T09:20:06Z</time>
      </trkpt>
      <trkpt lat="44.80752" lon="-0.42205">
        <ele>81.3687744</ele>
        <time>2011-08-15T09:20:09Z</time>
      </trkpt>
      <trkpt lat="44.80735" lon="-0.42226">
        <ele>83.7719727</ele>
        <time>2011-08-15T09:20:13Z</time>
      </trkpt>
      <trkpt lat="44.80699" lon="-0.42249">
        <ele>83.2913818</ele>
        <time>2011-08-15T09:20:20Z</time>
      </trkpt>
      <trkpt lat="44.80672" lon="-0.42267">
        <ele>82.810791</ele>
        <time>2011-08-15T09:20:25Z</time>
      </trkpt>
      <trkpt lat="44.80652" lon="-0.42301">
        <ele>82.810791</ele>
        <time>2011-08-15T09:20:30Z</time>
      </trkpt>
      <trkpt lat="44.8065" lon="-0.42309">
        <ele>82.3300781</ele>
        <time>2011-08-15T09:20:31Z</time>
      </trkpt>
      <trkpt lat="44.80633" lon="-0.42395">
        <ele>80.8881836</ele>
        <time>2011-08-15T09:20:41Z</time>
      </trkpt>
      <trkpt lat="44.80614" lon="-0.42483">
        <ele>81.3687744</ele>
        <time>2011-08-15T09:20:51Z</time>
      </trkpt>
      <trkpt lat="44.80591" lon="-0.42548">
        <ele>82.810791</ele>
        <time>2011-08-15T09:20:59Z</time>
      </trkpt>
      <trkpt lat="44.80575" lon="-0.42578">
        <ele>82.810791</ele>
        <time>2011-08-15T09:21:03Z</time>
      </trkpt>
      <trkpt lat="44.80556" lon="-0.42602">
        <ele>84.2526855</ele>
        <time>2011-08-15T09:21:07Z</time>
      </trkpt>
      <trkpt lat="44.80521" lon="-0.42641">
        <ele>83.2913818</ele>
        <time>2011-08-15T09:21:14Z</time>
      </trkpt>
      <trkpt lat="44.80489" lon="-0.42667">
        <ele>82.810791</ele>
        <time>2011-08-15T09:21:19Z</time>
      </trkpt>
      <trkpt lat="44.80459" lon="-0.427">
        <ele>81.3687744</ele>
        <time>2011-08-15T09:21:23Z</time>
      </trkpt>
      <trkpt lat="44.80421" lon="-0.42764">
        <ele>74.1588135</ele>
        <time>2011-08-15T09:21:29Z</time>
      </trkpt>
      <trkpt lat="44.80401" lon="-0.42795">
        <ele>69.8328857</ele>
        <time>2011-08-15T09:21:32Z</time>
      </trkpt>
      <trkpt lat="44.80368" lon="-0.42819">
        <ele>65.5070801</ele>
        <time>2011-08-15T09:21:36Z</time>
      </trkpt>
      <trkpt lat="44.80264" lon="-0.42838">
        <ele>56.3745117</ele>
        <time>2011-08-15T09:21:46Z</time>
      </trkpt>
      <trkpt lat="44.80198" lon="-0.42851">
        <ele>51.5678711</ele>
        <time>2011-08-15T09:21:52Z</time>
      </trkpt>
      <trkpt lat="44.80133" lon="-0.42858">
        <ele>46.2806396</ele>
        <time>2011-08-15T09:21:58Z</time>
      </trkpt>
      <trkpt lat="44.80101" lon="-0.42852">
        <ele>43.8773193</ele>
        <time>2011-08-15T09:22:01Z</time>
      </trkpt>
      <trkpt lat="44.80054" lon="-0.42866">
        <ele>40.9934082</ele>
        <time>2011-08-15T09:22:06Z</time>
      </trkpt>
      <trkpt lat="44.80013" lon="-0.42874">
        <ele>38.5900879</ele>
        <time>2011-08-15T09:22:10Z</time>
      </trkpt>
      <trkpt lat="44.79983" lon="-0.42878">
        <ele>35.2254639</ele>
        <time>2011-08-15T09:22:13Z</time>
      </trkpt>
      <trkpt lat="44.79937" lon="-0.42872">
        <ele>29.9381104</ele>
        <time>2011-08-15T09:22:18Z</time>
      </trkpt>
      <trkpt lat="44.7993" lon="-0.4287">
        <ele>28.9769287</ele>
        <time>2011-08-15T09:22:19Z</time>
      </trkpt>
      <trkpt lat="44.79911" lon="-0.42874">
        <ele>27.5349121</ele>
        <time>2011-08-15T09:22:23Z</time>
      </trkpt>
      <trkpt lat="44.79902" lon="-0.42859">
        <ele>26.5736084</ele>
        <time>2011-08-15T09:22:27Z</time>
      </trkpt>
      <trkpt lat="44.799" lon="-0.42852">
        <ele>26.0928955</ele>
        <time>2011-08-15T09:22:28Z</time>
      </trkpt>
      <trkpt lat="44.7988" lon="-0.42808">
        <ele>27.0543213</ele>
        <time>2011-08-15T09:22:35Z</time>
      </trkpt>
      <trkpt lat="44.79871" lon="-0.42798">
        <ele>27.0543213</ele>
        <time>2011-08-15T09:22:37Z</time>
      </trkpt>
      <trkpt lat="44.79842" lon="-0.42784">
        <ele>28.0155029</ele>
        <time>2011-08-15T09:22:42Z</time>
      </trkpt>
      <trkpt lat="44.79825" lon="-0.42781">
        <ele>28.9769287</ele>
        <time>2011-08-15T09:22:45Z</time>
      </trkpt>
      <trkpt lat="44.7978" lon="-0.42778">
        <ele>28.9769287</ele>
        <time>2011-08-15T09:22:55Z</time>
      </trkpt>
      <trkpt lat="44.79776" lon="-0.42778">
        <ele>28.4962158</ele>
        <time>2011-08-15T09:22:56Z</time>
      </trkpt>
      <trkpt lat="44.79768" lon="-0.42777">
        <ele>29.4575195</ele>
        <time>2011-08-15T09:22:58Z</time>
      </trkpt>
      <trkpt lat="44.79762" lon="-0.42776">
        <ele>29.9381104</ele>
        <time>2011-08-15T09:23:00Z</time>
      </trkpt>
      <trkpt lat="44.79752" lon="-0.42776">
        <ele>30.4188232</ele>
        <time>2011-08-15T09:23:03Z</time>
      </trkpt>
    </trkseg>
  </trk>
</gpx>